Darstellungsparameter: Aktuell verwendete Einstellungen:
Skalierung der Graphiken ... ?
xyx+y,   Skalierungsfaktor:      Skalierung: Modus: x, Faktor: 1
Darstellungszeitraum ... ?
Vom - - bis: - -   Zeitraum: 15.03.2017 - 14.09.2017
Min/Max/Avg-Anzeige ... ?
Zeige MMA aktuell
Zeige MMA Monat
Zeige MMA alles
Zeige --A aktuell
Zeige --A Monat
Zeige --A alles
Keine MMA-Anzeige
MMA:
Keine MMA-Graphiken
MMA-Basis: 15.03.2017 - 14.09.2017
Quicknavigation für Darstellung... ?
Tage:      1T, 2T, 3T, 5T -1T -2T -3T -5T +1T +2T +3T +5T
Wochen: 1W, 2W, 3W -1W -2W -3W +1W +2W +3W
Monate: 1M, 3M, 6M -1M -3M -6M +1M +3M +6M
Jahre:    1J, 3J, 5J, 10J -1J -3J -5J -10J +1J +3J +5J +10J
Nutze für die Darstellung ... ?
Originaldaten oder Mittelwerte auf ...
Stundenbasis Tagesbasis Wochenbasis
Monatsbasis Jahresbasis      Datenbasis: Original-Daten
Darstellen als:
Statistik (Auto) Statistik J:M      Darstellung:
Zur Graphik,    zurück zur Übersicht aller Sensoren.
 
Tabellarische Datenbersicht: ?
 
Sensor: Nr:Datum:Temp:Feuchte:Taupunkt:
Aussen-T/F 1 15-03-2017 00:00:00 7.7 C 90 % 6.17 C
2 15-03-2017 00:05:00 7.8 C 91 % 6.43 C
3 15-03-2017 00:10:00 7.9 C 90 % 6.36 C
4 15-03-2017 00:15:00 8.1 C 90 % 6.56 C
5 15-03-2017 00:20:00 8.2 C 89 % 6.5 C
6 15-03-2017 00:25:00 8.2 C 88 % 6.33 C
7 15-03-2017 00:30:00 8.2 C 88 % 6.33 C
8 15-03-2017 00:35:00 8.3 C 89 % 6.6 C
9 15-03-2017 00:40:00 8.3 C 89 % 6.6 C
10 15-03-2017 00:45:00 8.4 C 89 % 6.7 C
11 15-03-2017 00:50:00 8.6 C 90 % 7.06 C
12 15-03-2017 00:55:00 8.7 C 89 % 6.99 C
13 15-03-2017 01:00:00 8.7 C 90 % 7.15 C
14 15-03-2017 01:05:00 8.7 C 87 % 6.66 C
15 15-03-2017 01:10:00 8.7 C 87 % 6.66 C
16 15-03-2017 01:15:00 8.7 C 87 % 6.66 C
17 15-03-2017 01:20:00 8.6 C 87 % 6.56 C
18 15-03-2017 01:25:00 8.6 C 87 % 6.56 C
19 15-03-2017 01:30:00 8.6 C 88 % 6.73 C
20 15-03-2017 01:35:00 8.6 C 88 % 6.73 C
21 15-03-2017 01:40:00 8.5 C 87 % 6.46 C
22 15-03-2017 01:45:00 8.4 C 87 % 6.37 C
23 15-03-2017 01:50:00 8.4 C 87 % 6.37 C
24 15-03-2017 01:55:00 8.4 C 87 % 6.37 C
25 15-03-2017 02:00:00 8.4 C 88 % 6.53 C
Sensor: Nr:Datum:Temp:Feuchte:Taupunkt:
Aussen-T/F 26 15-03-2017 02:05:00 8.4 C 88 % 6.53 C
27 15-03-2017 02:10:00 8.4 C 88 % 6.53 C
28 15-03-2017 02:15:00 8.4 C 87 % 6.37 C
29 15-03-2017 02:20:00 8.4 C 88 % 6.53 C
30 15-03-2017 02:25:00 8.5 C 88 % 6.63 C
31 15-03-2017 02:30:00 8.5 C 88 % 6.63 C
32 15-03-2017 02:35:00 8.5 C 87 % 6.46 C
33 15-03-2017 02:40:00 8.4 C 87 % 6.37 C
34 15-03-2017 02:45:00 8.4 C 87 % 6.37 C
35 15-03-2017 02:50:00 8.3 C 87 % 6.27 C
36 15-03-2017 02:55:00 8.3 C 87 % 6.27 C
37 15-03-2017 03:00:00 8.3 C 87 % 6.27 C
38 15-03-2017 03:05:00 8.3 C 87 % 6.27 C
39 15-03-2017 03:10:00 8.3 C 87 % 6.27 C
40 15-03-2017 03:15:00 8.3 C 88 % 6.43 C
41 15-03-2017 03:20:00 8.4 C 89 % 6.7 C
42 15-03-2017 03:25:00 8.4 C 88 % 6.53 C
43 15-03-2017 03:30:00 8.3 C 88 % 6.43 C
44 15-03-2017 03:35:00 8.3 C 88 % 6.43 C
45 15-03-2017 03:40:00 8.3 C 88 % 6.43 C
46 15-03-2017 03:45:00 8.4 C 89 % 6.7 C
47 15-03-2017 03:50:00 8.4 C 88 % 6.53 C
48 15-03-2017 03:55:00 8.4 C 88 % 6.53 C
49 15-03-2017 04:00:00 8.3 C 88 % 6.43 C
50 15-03-2017 04:05:00 8.3 C 88 % 6.43 C
Sensor: Nr:Datum:Temp:Feuchte:Taupunkt:
Aussen-T/F 51 15-03-2017 04:10:00 8.4 C 89 % 6.7 C
52 15-03-2017 04:15:00 8.6 C 90 % 7.06 C
53 15-03-2017 04:20:00 8.7 C 91 % 7.32 C
54 15-03-2017 04:25:00 8.8 C 89 % 7.09 C
55 15-03-2017 04:30:00 8.6 C 87 % 6.56 C
56 15-03-2017 04:35:00 8.6 C 87 % 6.56 C
57 15-03-2017 04:40:00 8.5 C 87 % 6.46 C
58 15-03-2017 04:45:00 8.5 C 87 % 6.46 C
59 15-03-2017 04:50:00 8.6 C 88 % 6.73 C
60 15-03-2017 04:55:00 8.6 C 88 % 6.73 C
61 15-03-2017 05:00:00 8.7 C 88 % 6.83 C
62 15-03-2017 05:05:00 8.7 C 88 % 6.83 C
63 15-03-2017 05:10:00 8.7 C 88 % 6.83 C
64 15-03-2017 05:15:00 8.7 C 88 % 6.83 C
65 15-03-2017 05:20:00 8.8 C 89 % 7.09 C
66 15-03-2017 05:25:00 8.8 C 89 % 7.09 C
67 15-03-2017 05:30:00 8.8 C 87 % 6.76 C
68 15-03-2017 05:35:00 8.7 C 87 % 6.66 C
69 15-03-2017 05:40:00 8.7 C 88 % 6.83 C
70 15-03-2017 05:45:00 8.7 C 88 % 6.83 C
71 15-03-2017 05:50:00 8.7 C 88 % 6.83 C
72 15-03-2017 05:55:00 8.7 C 88 % 6.83 C
73 15-03-2017 06:00:00 8.6 C 88 % 6.73 C
74 15-03-2017 06:05:00 8.6 C 88 % 6.73 C
75 15-03-2017 06:10:00 8.5 C 88 % 6.63 C
Sensor: Nr:Datum:Temp:Feuchte:Taupunkt:
Aussen-T/F 76 15-03-2017 06:15:00 8.4 C 87 % 6.37 C
77 15-03-2017 06:20:00 8.4 C 88 % 6.53 C
78 15-03-2017 06:25:00 8.5 C 89 % 6.79 C
79 15-03-2017 06:30:00 8.5 C 89 % 6.79 C
80 15-03-2017 06:35:00 8.5 C 89 % 6.79 C
81 15-03-2017 06:40:00 8.5 C 89 % 6.79 C
82 15-03-2017 06:45:00 8.4 C 88 % 6.53 C
83 15-03-2017 06:50:00 8.4 C 88 % 6.53 C
84 15-03-2017 06:55:00 8.3 C 88 % 6.43 C
85 15-03-2017 07:00:00 8.3 C 88 % 6.43 C
86 15-03-2017 07:05:00 8.3 C 88 % 6.43 C
87 15-03-2017 07:10:00 8.2 C 88 % 6.33 C
88 15-03-2017 07:15:00 8.2 C 88 % 6.33 C
89 15-03-2017 07:20:00 8.2 C 89 % 6.5 C
90 15-03-2017 07:25:00 8.3 C 89 % 6.6 C
91 15-03-2017 07:30:00 8.3 C 89 % 6.6 C
92 15-03-2017 07:35:00 8.3 C 89 % 6.6 C
93 15-03-2017 07:40:00 8.3 C 89 % 6.6 C
94 15-03-2017 07:45:00 8.4 C 90 % 6.86 C
95 15-03-2017 07:50:00 8.4 C 89 % 6.7 C
96 15-03-2017 07:55:00 8.4 C 89 % 6.7 C
97 15-03-2017 08:00:00 8.4 C 89 % 6.7 C
98 15-03-2017 08:05:00 8.4 C 89 % 6.7 C
99 15-03-2017 08:10:00 8.4 C 89 % 6.7 C
100 15-03-2017 08:15:00 8.4 C 89 % 6.7 C
Sensor: Nr:Datum:Temp:Feuchte:Taupunkt:
Aussen-T/F 101 15-03-2017 08:20:00 8.5 C 89 % 6.79 C
102 15-03-2017 08:25:00 8.5 C 89 % 6.79 C
103 15-03-2017 08:30:00 8.5 C 89 % 6.79 C
104 15-03-2017 08:35:00 8.6 C 89 % 6.89 C
105 15-03-2017 08:40:00 8.7 C 90 % 7.15 C
106 15-03-2017 08:45:00 8.9 C 91 % 7.51 C
107 15-03-2017 08:50:00 8.9 C 90 % 7.35 C
108 15-03-2017 08:55:00 9.1 C 90 % 7.55 C
109 15-03-2017 09:00:00 9.1 C 90 % 7.55 C
110 15-03-2017 09:05:00 9.3 C 91 % 7.91 C
111 15-03-2017 09:10:00 9.3 C 89 % 7.58 C
112 15-03-2017 09:15:00 9.3 C 88 % 7.42 C
113 15-03-2017 09:20:00 9.4 C 88 % 7.52 C
114 15-03-2017 09:25:00 9.4 C 88 % 7.52 C
115 15-03-2017 09:30:00 9.7 C 90 % 8.14 C
116 15-03-2017 09:35:00 9.8 C 89 % 8.08 C
117 15-03-2017 09:40:00 9.9 C 89 % 8.17 C
118 15-03-2017 09:45:00 9.9 C 88 % 8.01 C
119 15-03-2017 09:50:00 10.1 C 89 % 8.37 C
120 15-03-2017 09:55:00 10.2 C 89 % 8.47 C
121 15-03-2017 10:00:00 10.3 C 89 % 8.57 C
122 15-03-2017 10:05:00 10.4 C 89 % 8.67 C
123 15-03-2017 10:10:00 10.5 C 89 % 8.77 C
124 15-03-2017 10:15:00 10.6 C 89 % 8.86 C
125 15-03-2017 10:20:00 10.6 C 89 % 8.86 C
Sensor: Nr:Datum:Temp:Feuchte:Taupunkt:
Aussen-T/F 126 15-03-2017 10:25:00 10.8 C 89 % 9.06 C
127 15-03-2017 10:30:00 10.9 C 89 % 9.16 C
128 15-03-2017 10:35:00 11.2 C 88 % 9.29 C
129 15-03-2017 10:40:00 11.3 C 87 % 9.22 C
130 15-03-2017 10:45:00 11.4 C 86 % 9.14 C
131 15-03-2017 10:50:00 11.4 C 85 % 8.97 C
132 15-03-2017 10:55:00 11.6 C 84 % 8.99 C
133 15-03-2017 11:00:00 11.7 C 84 % 9.09 C
134 15-03-2017 11:05:00 11.8 C 83 % 9.01 C
135 15-03-2017 11:10:00 11.9 C 83 % 9.11 C
136 15-03-2017 11:15:00 11.9 C 83 % 9.11 C
137 15-03-2017 11:20:00 12 C 82 % 9.03 C
138 15-03-2017 11:25:00 12.1 C 82 % 9.12 C
139 15-03-2017 11:30:00 12.1 C 81 % 8.94 C
140 15-03-2017 11:35:00 12.2 C 81 % 9.04 C
141 15-03-2017 11:40:00 12.2 C 80 % 8.86 C
142 15-03-2017 11:45:00 12.2 C 80 % 8.86 C
143 15-03-2017 11:50:00 12.3 C 80 % 8.95 C
144 15-03-2017 11:55:00 12.4 C 79 % 8.86 C
145 15-03-2017 12:00:00 12.6 C 79 % 9.06 C
146 15-03-2017 12:05:00 12.7 C 78 % 8.97 C
147 15-03-2017 12:10:00 12.8 C 77 % 8.87 C
148 15-03-2017 12:15:00 12.8 C 76 % 8.68 C
149 15-03-2017 12:20:00 12.9 C 77 % 8.97 C
150 15-03-2017 12:25:00 12.9 C 77 % 8.97 C
Sensor: Nr:Datum:Temp:Feuchte:Taupunkt:
Aussen-T/F 151 15-03-2017 12:30:00 13.1 C 76 % 8.97 C
152 15-03-2017 12:35:00 13.2 C 75 % 8.87 C
153 15-03-2017 12:40:00 13.3 C 75 % 8.97 C
154 15-03-2017 12:45:00 13.3 C 74 % 8.77 C
155 15-03-2017 12:50:00 13.4 C 74 % 8.87 C
156 15-03-2017 12:55:00 13.3 C 74 % 8.77 C
157 15-03-2017 13:00:00 13.3 C 74 % 8.77 C
158 15-03-2017 13:05:00 13.3 C 74 % 8.77 C
159 15-03-2017 13:10:00 13.4 C 74 % 8.87 C
160 15-03-2017 13:15:00 13.4 C 74 % 8.87 C
161 15-03-2017 13:20:00 13.6 C 74 % 9.06 C
162 15-03-2017 13:25:00 13.6 C 71 % 8.45 C
163 15-03-2017 13:30:00 13.6 C 71 % 8.45 C
164 15-03-2017 13:35:00 13.6 C 71 % 8.45 C
165 15-03-2017 13:40:00 13.7 C 71 % 8.54 C
166 15-03-2017 13:45:00 13.7 C 71 % 8.54 C
167 15-03-2017 13:50:00 13.8 C 70 % 8.43 C
168 15-03-2017 13:55:00 13.9 C 70 % 8.53 C
169 15-03-2017 14:00:00 14 C 70 % 8.62 C
170 15-03-2017 14:05:00 14 C 68 % 8.19 C
171 15-03-2017 14:10:00 14.1 C 68 % 8.29 C
172 15-03-2017 14:15:00 14.2 C 66 % 7.95 C
173 15-03-2017 14:20:00 14.2 C 66 % 7.95 C
174 15-03-2017 14:25:00 14.2 C 65 % 7.72 C
175 15-03-2017 14:30:00 14.2 C 64 % 7.5 C
Sensor: Nr:Datum:Temp:Feuchte:Taupunkt:
Aussen-T/F 176 15-03-2017 14:35:00 14.2 C 65 % 7.72 C
177 15-03-2017 14:40:00 14.3 C 65 % 7.82 C
178 15-03-2017 14:45:00 14.4 C 63 % 7.45 C
179 15-03-2017 14:50:00 14.4 C 64 % 7.68 C
180 15-03-2017 14:55:00 14.4 C 63 % 7.45 C
181 15-03-2017 15:00:00 14.5 C 63 % 7.55 C
182 15-03-2017 15:05:00 14.6 C 62 % 7.41 C
183 15-03-2017 15:10:00 14.7 C 61 % 7.27 C
184 15-03-2017 15:15:00 14.8 C 61 % 7.36 C
185 15-03-2017 15:20:00 14.7 C 61 % 7.27 C
186 15-03-2017 15:25:00 14.7 C 62 % 7.5 C
187 15-03-2017 15:30:00 14.7 C 61 % 7.27 C
188 15-03-2017 15:35:00 14.7 C 60 % 7.03 C
189 15-03-2017 15:40:00 14.7 C 58 % 6.53 C
190 15-03-2017 15:45:00 14.8 C 59 % 6.87 C
191 15-03-2017 15:50:00 15 C 58 % 6.81 C
192 15-03-2017 15:55:00 15.1 C 58 % 6.91 C
193 15-03-2017 16:00:00 15.2 C 59 % 7.25 C
194 15-03-2017 16:05:00 15.2 C 60 % 7.5 C
195 15-03-2017 16:10:00 15.3 C 59 % 7.34 C
196 15-03-2017 16:15:00 15.3 C 59 % 7.34 C
197 15-03-2017 16:20:00 15.4 C 58 % 7.19 C
198 15-03-2017 16:25:00 15.5 C 58 % 7.28 C
199 15-03-2017 16:30:00 15.6 C 57 % 7.12 C
200 15-03-2017 16:35:00 15.6 C 56 % 6.86 C
Sensor: Nr:Datum:Temp:Feuchte:Taupunkt:
Aussen-T/F 201 15-03-2017 16:40:00 15.7 C 57 % 7.21 C
202 15-03-2017 16:45:00 15.9 C 56 % 7.14 C
203 15-03-2017 16:50:00 15.9 C 55 % 6.88 C
204 15-03-2017 16:55:00 15.9 C 55 % 6.88 C
205 15-03-2017 17:00:00 16.2 C 55 % 7.16 C
206 15-03-2017 17:05:00 16.2 C 53 % 6.62 C
207 15-03-2017 17:10:00 16.3 C 55 % 7.25 C
208 15-03-2017 17:15:00 16.3 C 52 % 6.44 C
209 15-03-2017 17:20:00 16.1 C 54 % 6.8 C
210 15-03-2017 17:25:00 15.9 C 53 % 6.34 C
211 15-03-2017 17:30:00 15.9 C 54 % 6.61 C
212 15-03-2017 17:35:00 15.8 C 54 % 6.52 C
213 15-03-2017 17:40:00 15.7 C 54 % 6.43 C
214 15-03-2017 17:45:00 15.6 C 56 % 6.86 C
215 15-03-2017 17:50:00 15.5 C 55 % 6.51 C
216 15-03-2017 17:55:00 15.3 C 55 % 6.32 C
217 15-03-2017 18:00:00 15.2 C 56 % 6.49 C
218 15-03-2017 18:05:00 14.9 C 58 % 6.72 C
219 15-03-2017 18:10:00 14.6 C 60 % 6.93 C
220 15-03-2017 18:15:00 14.2 C 60 % 6.56 C
221 15-03-2017 18:20:00 14 C 61 % 6.61 C
222 15-03-2017 18:25:00 13.7 C 60 % 6.09 C
223 15-03-2017 18:30:00 13.4 C 61 % 6.04 C
224 15-03-2017 18:35:00 13.3 C 63 % 6.41 C
225 15-03-2017 18:40:00 13.1 C 63 % 6.22 C
Sensor: Nr:Datum:Temp:Feuchte:Taupunkt:
Aussen-T/F 226 15-03-2017 18:45:00 12.6 C 66 % 6.42 C
227 15-03-2017 18:50:00 12.1 C 69 % 6.59 C
228 15-03-2017 18:55:00 11.6 C 71 % 6.53 C
229 15-03-2017 19:00:00 11.2 C 72 % 6.35 C
230 15-03-2017 19:05:00 11.1 C 73 % 6.45 C
231 15-03-2017 19:10:00 11.1 C 73 % 6.45 C
232 15-03-2017 19:15:00 11.1 C 74 % 6.65 C
233 15-03-2017 19:20:00 10.8 C 75 % 6.55 C
234 15-03-2017 19:25:00 10.6 C 76 % 6.55 C
235 15-03-2017 19:30:00 10.4 C 76 % 6.36 C
236 15-03-2017 19:35:00 10.2 C 77 % 6.35 C
237 15-03-2017 19:40:00 10.1 C 78 % 6.44 C
238 15-03-2017 19:45:00 10.1 C 79 % 6.63 C
239 15-03-2017 19:50:00 10 C 79 % 6.53 C
240 15-03-2017 19:55:00 10 C 80 % 6.71 C
241 15-03-2017 20:00:00 10.1 C 80 % 6.81 C
242 15-03-2017 20:05:00 10.1 C 80 % 6.81 C
243 15-03-2017 20:10:00 10.1 C 80 % 6.81 C
244 15-03-2017 20:15:00 10 C 80 % 6.71 C
245 15-03-2017 20:20:00 9.9 C 80 % 6.62 C
246 15-03-2017 20:25:00 9.8 C 80 % 6.52 C
247 15-03-2017 20:30:00 9.8 C 80 % 6.52 C
248 15-03-2017 20:35:00 9.7 C 80 % 6.42 C
249 15-03-2017 20:40:00 9.6 C 80 % 6.32 C
250 15-03-2017 20:45:00 9.5 C 80 % 6.23 C
Sensor: Nr:Datum:Temp:Feuchte:Taupunkt:
Aussen-T/F 251 15-03-2017 20:50:00 9.4 C 80 % 6.13 C
252 15-03-2017 20:55:00 9.3 C 80 % 6.03 C
253 15-03-2017 21:00:00 9.2 C 80 % 5.94 C
254 15-03-2017 21:05:00 9 C 81 % 5.92 C
255 15-03-2017 21:10:00 8.8 C 82 % 5.9 C
256 15-03-2017 21:15:00 8.6 C 82 % 5.71 C
257 15-03-2017 21:20:00 8.4 C 83 % 5.69 C
258 15-03-2017 21:25:00 8.3 C 84 % 5.76 C
259 15-03-2017 21:30:00 8.2 C 83 % 5.49 C
260 15-03-2017 21:35:00 8.1 C 84 % 5.56 C
261 15-03-2017 21:40:00 7.9 C 85 % 5.54 C
262 15-03-2017 21:45:00 7.8 C 85 % 5.44 C
263 15-03-2017 21:50:00 7.7 C 85 % 5.34 C
264 15-03-2017 21:55:00 7.5 C 86 % 5.31 C
265 15-03-2017 22:00:00 7.4 C 86 % 5.22 C
266 15-03-2017 22:05:00 7.3 C 87 % 5.28 C
267 15-03-2017 22:10:00 7.1 C 85 % 4.75 C
268 15-03-2017 22:15:00 6.8 C 86 % 4.63 C
269 15-03-2017 22:20:00 6.7 C 86 % 4.53 C
270 15-03-2017 22:25:00 6.6 C 88 % 4.76 C
271 15-03-2017 22:30:00 6.3 C 87 % 4.3 C
272 15-03-2017 22:35:00 6.2 C 88 % 4.36 C
273 15-03-2017 22:40:00 6.1 C 89 % 4.43 C
274 15-03-2017 22:45:00 6.2 C 89 % 4.53 C
275 15-03-2017 22:50:00 6.2 C 89 % 4.53 C
Sensor: Nr:Datum:Temp:Feuchte:Taupunkt:
Aussen-T/F 276 15-03-2017 22:55:00 6.1 C 89 % 4.43 C
277 15-03-2017 23:00:00 5.9 C 88 % 4.07 C
278 15-03-2017 23:05:00 5.8 C 89 % 4.13 C
279 15-03-2017 23:10:00 5.8 C 89 % 4.13 C
280 15-03-2017 23:15:00 5.7 C 89 % 4.03 C
281 15-03-2017 23:20:00 5.6 C 89 % 3.93 C
282 15-03-2017 23:25:00 5.5 C 89 % 3.84 C
283 15-03-2017 23:30:00 5.4 C 90 % 3.89 C
284 15-03-2017 23:35:00 5.3 C 90 % 3.8 C
285 15-03-2017 23:40:00 5.2 C 89 % 3.54 C
286 15-03-2017 23:45:00 5 C 90 % 3.5 C
287 15-03-2017 23:50:00 4.9 C 90 % 3.4 C
288 15-03-2017 23:55:00 4.9 C 91 % 3.56 C
289 16-03-2017 00:00:00 4.8 C 91 % 3.46 C
290 16-03-2017 00:05:00 4.9 C 92 % 3.71 C
291 16-03-2017 00:10:00 4.8 C 91 % 3.46 C
292 16-03-2017 00:15:00 4.8 C 92 % 3.61 C
293 16-03-2017 00:20:00 4.6 C 91 % 3.26 C
294 16-03-2017 00:25:00 4.3 C 91 % 2.96 C
295 16-03-2017 00:30:00 4.3 C 92 % 3.12 C
296 16-03-2017 00:35:00 4.3 C 92 % 3.12 C
297 16-03-2017 00:40:00 4.3 C 92 % 3.12 C
298 16-03-2017 00:45:00 4.4 C 93 % 3.37 C
299 16-03-2017 00:50:00 4.3 C 93 % 3.27 C
300 16-03-2017 00:55:00 4.3 C 93 % 3.27 C
Sensor: Nr:Datum:Temp:Feuchte:Taupunkt:
Aussen-T/F 301 16-03-2017 01:00:00 4.2 C 92 % 3.02 C
302 16-03-2017 01:05:00 4.2 C 93 % 3.17 C
303 16-03-2017 01:10:00 4.1 C 93 % 3.07 C
304 16-03-2017 01:15:00 4.1 C 93 % 3.07 C
305 16-03-2017 01:20:00 4.1 C 93 % 3.07 C
306 16-03-2017 01:25:00 4 C 93 % 2.97 C
307 16-03-2017 01:30:00 4 C 93 % 2.97 C
308 16-03-2017 01:35:00 4.1 C 93 % 3.07 C
309 16-03-2017 01:40:00 3.9 C 93 % 2.87 C
310 16-03-2017 01:45:00 3.7 C 93 % 2.68 C
311 16-03-2017 01:50:00 3.6 C 93 % 2.58 C
312 16-03-2017 01:55:00 3.6 C 93 % 2.58 C
313 16-03-2017 02:00:00 3.6 C 93 % 2.58 C
314 16-03-2017 02:05:00 3.6 C 94 % 2.73 C
315 16-03-2017 02:10:00 3.7 C 94 % 2.83 C
316 16-03-2017 02:15:00 3.6 C 94 % 2.73 C
317 16-03-2017 02:20:00 3.5 C 93 % 2.48 C
318 16-03-2017 02:25:00 3.4 C 94 % 2.53 C
319 16-03-2017 02:30:00 3.6 C 94 % 2.73 C
320 16-03-2017 02:35:00 3.5 C 94 % 2.63 C
321 16-03-2017 02:40:00 3.4 C 94 % 2.53 C
322 16-03-2017 02:45:00 3.3 C 94 % 2.43 C
323 16-03-2017 02:50:00 3.2 C 94 % 2.33 C
324 16-03-2017 02:55:00 3.2 C 94 % 2.33 C
325 16-03-2017 03:00:00 3.3 C 94 % 2.43 C
Sensor: Nr:Datum:Temp:Feuchte:Taupunkt:
Aussen-T/F 326 16-03-2017 03:05:00 3.3 C 94 % 2.43 C
327 16-03-2017 03:10:00 3.2 C 94 % 2.33 C
328 16-03-2017 03:15:00 3.1 C 94 % 2.23 C
329 16-03-2017 03:20:00 2.9 C 94 % 2.03 C
330 16-03-2017 03:25:00 2.9 C 94 % 2.03 C
331 16-03-2017 03:30:00 2.9 C 94 % 2.03 C
332 16-03-2017 03:35:00 2.8 C 94 % 1.93 C
333 16-03-2017 03:40:00 2.9 C 95 % 2.18 C
334 16-03-2017 03:45:00 3.1 C 95 % 2.38 C
335 16-03-2017 03:50:00 3.1 C 95 % 2.38 C
336 16-03-2017 03:55:00 2.9 C 94 % 2.03 C
337 16-03-2017 04:00:00 2.7 C 94 % 1.83 C
338 16-03-2017 04:05:00 2.6 C 94 % 1.73 C
339 16-03-2017 04:10:00 2.7 C 95 % 1.98 C
340 16-03-2017 04:15:00 2.7 C 95 % 1.98 C
341 16-03-2017 04:20:00 2.7 C 95 % 1.98 C
342 16-03-2017 04:25:00 2.7 C 95 % 1.98 C
343 16-03-2017 04:30:00 2.8 C 95 % 2.08 C
344 16-03-2017 04:35:00 2.9 C 95 % 2.18 C
345 16-03-2017 04:40:00 3 C 95 % 2.28 C
346 16-03-2017 04:45:00 3 C 95 % 2.28 C
347 16-03-2017 04:50:00 3 C 95 % 2.28 C
348 16-03-2017 04:55:00 2.9 C 95 % 2.18 C
349 16-03-2017 05:00:00 2.8 C 95 % 2.08 C
350 16-03-2017 05:05:00 2.6 C 94 % 1.73 C
Sensor: Nr:Datum:Temp:Feuchte:Taupunkt:
Aussen-T/F 351 16-03-2017 05:10:00 2.4 C 94 % 1.54 C
352 16-03-2017 05:15:00 2.3 C 95 % 1.58 C
353 16-03-2017 05:20:00 2.1 C 94 % 1.24 C
354 16-03-2017 05:25:00 2.1 C 95 % 1.38 C
355 16-03-2017 05:30:00 2.1 C 95 % 1.38 C
356 16-03-2017 05:35:00 1.9 C 95 % 1.19 C
357 16-03-2017 05:40:00 1.9 C 95 % 1.19 C
358 16-03-2017 05:45:00 1.9 C 95 % 1.19 C
359 16-03-2017 05:50:00 1.8 C 95 % 1.09 C
360 16-03-2017 05:55:00 1.7 C 95 % 0.99 C
361 16-03-2017 06:00:00 1.6 C 95 % 0.89 C
362 16-03-2017 06:05:00 1.7 C 95 % 0.99 C
363 16-03-2017 06:10:00 1.8 C 95 % 1.09 C
364 16-03-2017 06:15:00 1.8 C 95 % 1.09 C
365 16-03-2017 06:20:00 1.8 C 95 % 1.09 C
366 16-03-2017 06:25:00 1.8 C 95 % 1.09 C
367 16-03-2017 06:30:00 1.7 C 95 % 0.99 C
368 16-03-2017 06:35:00 1.7 C 95 % 0.99 C
369 16-03-2017 06:40:00 1.6 C 95 % 0.89 C
370 16-03-2017 06:45:00 1.5 C 95 % 0.79 C
371 16-03-2017 06:50:00 1.4 C 95 % 0.69 C
372 16-03-2017 06:55:00 1.4 C 95 % 0.69 C
373 16-03-2017 07:00:00 1.3 C 95 % 0.59 C
374 16-03-2017 07:05:00 1.3 C 95 % 0.59 C
375 16-03-2017 07:10:00 1.4 C 95 % 0.69 C
Sensor: Nr:Datum:Temp:Feuchte:Taupunkt:
Aussen-T/F 376 16-03-2017 07:15:00 1.7 C 96 % 1.13 C
377 16-03-2017 07:20:00 1.8 C 96 % 1.23 C
378 16-03-2017 07:25:00 1.7 C 95 % 0.99 C
379 16-03-2017 07:30:00 1.7 C 95 % 0.99 C
380 16-03-2017 07:35:00 1.7 C 95 % 0.99 C
381 16-03-2017 07:40:00 1.6 C 95 % 0.89 C
382 16-03-2017 07:45:00 1.7 C 96 % 1.13 C
383 16-03-2017 07:50:00 1.7 C 95 % 0.99 C
384 16-03-2017 07:55:00 1.8 C 96 % 1.23 C
385 16-03-2017 08:00:00 1.9 C 96 % 1.33 C
386 16-03-2017 08:05:00 2.1 C 96 % 1.53 C
387 16-03-2017 08:10:00 2.2 C 96 % 1.63 C
388 16-03-2017 08:15:00 2.3 C 96 % 1.73 C
389 16-03-2017 08:20:00 2.3 C 96 % 1.73 C
390 16-03-2017 08:25:00 2.3 C 96 % 1.73 C
391 16-03-2017 08:30:00 2.4 C 96 % 1.83 C
392 16-03-2017 08:35:00 2.4 C 96 % 1.83 C
393 16-03-2017 08:40:00 2.4 C 96 % 1.83 C
394 16-03-2017 08:45:00 2.4 C 96 % 1.83 C
395 16-03-2017 08:50:00 2.6 C 96 % 2.03 C
396 16-03-2017 08:55:00 2.7 C 96 % 2.13 C
397 16-03-2017 09:00:00 2.7 C 96 % 2.13 C
398 16-03-2017 09:05:00 2.8 C 96 % 2.23 C
399 16-03-2017 09:10:00 3 C 96 % 2.43 C
400 16-03-2017 09:15:00 3.1 C 96 % 2.53 C
Sensor: Nr:Datum:Temp:Feuchte:Taupunkt:
Aussen-T/F 401 16-03-2017 09:20:00 3.2 C 96 % 2.63 C
402 16-03-2017 09:25:00 3.4 C 96 % 2.82 C
403 16-03-2017 09:30:00 3.7 C 96 % 3.12 C
404 16-03-2017 09:35:00 3.8 C 96 % 3.22 C
405 16-03-2017 09:40:00 3.9 C 96 % 3.32 C
406 16-03-2017 09:45:00 4.1 C 97 % 3.67 C
407 16-03-2017 09:50:00 4.3 C 96 % 3.72 C
408 16-03-2017 09:55:00 4.6 C 97 % 4.17 C
409 16-03-2017 10:00:00 4.8 C 97 % 4.37 C
410 16-03-2017 10:05:00 5 C 97 % 4.56 C
411 16-03-2017 10:10:00 5.2 C 97 % 4.76 C
412 16-03-2017 10:15:00 5.3 C 97 % 4.86 C
413 16-03-2017 10:20:00 5.5 C 97 % 5.06 C
414 16-03-2017 10:25:00 5.7 C 97 % 5.26 C
415 16-03-2017 10:30:00 5.9 C 97 % 5.46 C
416 16-03-2017 10:35:00 6.1 C 97 % 5.66 C
417 16-03-2017 10:40:00 6.3 C 96 % 5.71 C
418 16-03-2017 10:45:00 6.4 C 96 % 5.81 C
419 16-03-2017 10:50:00 6.7 C 96 % 6.11 C
420 16-03-2017 10:55:00 6.9 C 96 % 6.31 C
421 16-03-2017 11:00:00 7.1 C 96 % 6.51 C
422 16-03-2017 11:05:00 7.4 C 95 % 6.65 C
423 16-03-2017 11:10:00 7.6 C 95 % 6.85 C
424 16-03-2017 11:15:00 7.9 C 94 % 7 C
425 16-03-2017 11:20:00 8.2 C 92 % 6.98 C
Sensor: Nr:Datum:Temp:Feuchte:Taupunkt:
Aussen-T/F 426 16-03-2017 11:25:00 8.6 C 91 % 7.22 C
427 16-03-2017 11:30:00 8.9 C 91 % 7.51 C
428 16-03-2017 11:35:00 9.2 C 89 % 7.48 C
429 16-03-2017 11:40:00 9.4 C 87 % 7.35 C
430 16-03-2017 11:45:00 9.8 C 84 % 7.23 C
431 16-03-2017 11:50:00 10.3 C 82 % 7.37 C
432 16-03-2017 11:55:00 10.7 C 81 % 7.58 C
433 16-03-2017 12:00:00 10.9 C 78 % 7.22 C
434 16-03-2017 12:05:00 11.2 C 77 % 7.32 C
435 16-03-2017 12:10:00 11.5 C 77 % 7.61 C
436 16-03-2017 12:15:00 11.8 C 74 % 7.32 C
437 16-03-2017 12:20:00 12 C 74 % 7.52 C
438 16-03-2017 12:25:00 12.3 C 72 % 7.4 C
439 16-03-2017 12:30:00 12.5 C 68 % 6.76 C
440 16-03-2017 12:35:00 12.8 C 69 % 7.26 C
441 16-03-2017 12:40:00 12.9 C 67 % 6.93 C
442 16-03-2017 12:45:00 13.2 C 65 % 6.77 C
443 16-03-2017 12:50:00 13.4 C 63 % 6.51 C
444 16-03-2017 12:55:00 13.7 C 63 % 6.79 C
445 16-03-2017 13:00:00 13.8 C 60 % 6.18 C
446 16-03-2017 13:05:00 14.1 C 60 % 6.46 C
447 16-03-2017 13:10:00 14.3 C 58 % 6.16 C
448 16-03-2017 13:15:00 14.6 C 58 % 6.44 C
449 16-03-2017 13:20:00 14.8 C 57 % 6.37 C
450 16-03-2017 13:25:00 14.9 C 54 % 5.69 C
Sensor: Nr:Datum:Temp:Feuchte:Taupunkt:
Aussen-T/F 451 16-03-2017 13:30:00 15.1 C 54 % 5.87 C
452 16-03-2017 13:35:00 15.3 C 56 % 6.58 C
453 16-03-2017 13:40:00 15.5 C 55 % 6.51 C
454 16-03-2017 13:45:00 15.7 C 52 % 5.88 C
455 16-03-2017 13:50:00 15.8 C 51 % 5.69 C
456 16-03-2017 13:55:00 15.8 C 50 % 5.41 C
457 16-03-2017 14:00:00 15.9 C 50 % 5.5 C
458 16-03-2017 14:05:00 16.1 C 50 % 5.69 C
459 16-03-2017 14:10:00 16.3 C 51 % 6.16 C
460 16-03-2017 14:15:00 16.4 C 47 % 5.07 C
461 16-03-2017 14:20:00 16.5 C 47 % 5.16 C
462 16-03-2017 14:25:00 16.6 C 46 % 4.95 C
463 16-03-2017 14:30:00 16.7 C 45 % 4.72 C
464 16-03-2017 14:35:00 16.7 C 46 % 5.04 C
465 16-03-2017 14:40:00 16.7 C 46 % 5.04 C
466 16-03-2017 14:45:00 16.8 C 46 % 5.13 C
467 16-03-2017 14:50:00 16.8 C 46 % 5.13 C
468 16-03-2017 14:55:00 16.8 C 46 % 5.13 C
469 16-03-2017 15:00:00 16.8 C 45 % 4.81 C
470 16-03-2017 15:05:00 16.8 C 46 % 5.13 C
471 16-03-2017 15:10:00 17 C 47 % 5.62 C
472 16-03-2017 15:15:00 17.1 C 45 % 5.08 C
473 16-03-2017 15:20:00 17.1 C 45 % 5.08 C
474 16-03-2017 15:25:00 17.2 C 46 % 5.49 C
475 16-03-2017 15:30:00 17.2 C 44 % 4.85 C
Sensor: Nr:Datum:Temp:Feuchte:Taupunkt:
Aussen-T/F 476 16-03-2017 15:35:00 17.3 C 44 % 4.94 C
477 16-03-2017 15:40:00 17.5 C 45 % 5.45 C
478 16-03-2017 15:45:00 17.7 C 44 % 5.31 C
479 16-03-2017 15:50:00 17.8 C 46 % 6.04 C
480 16-03-2017 15:55:00 17.9 C 49 % 7.05 C
481 16-03-2017 16:00:00 18.1 C 45 % 5.99 C
482 16-03-2017 16:05:00 18.1 C 47 % 6.62 C
483 16-03-2017 16:10:00 18.2 C 44 % 5.76 C
484 16-03-2017 16:15:00 18.2 C 44 % 5.76 C
485 16-03-2017 16:20:00 18.2 C 45 % 6.08 C
486 16-03-2017 16:25:00 18.3 C 46 % 6.49 C
487 16-03-2017 16:30:00 18.5 C 45 % 6.36 C
488 16-03-2017 16:35:00 18.6 C 50 % 7.98 C
489 16-03-2017 16:40:00 18.7 C 49 % 7.78 C
490 16-03-2017 16:45:00 18.8 C 50 % 8.17 C
491 16-03-2017 16:50:00 19 C 50 % 8.35 C
492 16-03-2017 16:55:00 19.4 C 49 % 8.42 C
493 16-03-2017 17:00:00 19.8 C 49 % 8.79 C
494 16-03-2017 17:05:00 19.9 C 46 % 7.95 C
495 16-03-2017 17:10:00 19.8 C 47 % 8.17 C
496 16-03-2017 17:15:00 19.4 C 49 % 8.42 C
497 16-03-2017 17:20:00 18.9 C 50 % 8.26 C
498 16-03-2017 17:25:00 18.5 C 51 % 8.18 C
499 16-03-2017 17:30:00 18 C 53 % 8.29 C
500 16-03-2017 17:35:00 17.4 C 54 % 8.01 C
Sensor: Nr:Datum:Temp:Feuchte:Taupunkt:
Aussen-T/F 501 16-03-2017 17:40:00 17 C 57 % 8.43 C
502 16-03-2017 17:45:00 16.6 C 58 % 8.31 C
503 16-03-2017 17:50:00 16.1 C 59 % 8.09 C
504 16-03-2017 17:55:00 15.7 C 59 % 7.72 C
505 16-03-2017 18:00:00 15.4 C 61 % 7.93 C
506 16-03-2017 18:05:00 15.1 C 61 % 7.64 C
507 16-03-2017 18:10:00 14.7 C 62 % 7.5 C
508 16-03-2017 18:15:00 14.4 C 63 % 7.45 C
509 16-03-2017 18:20:00 14.1 C 63 % 7.17 C
510 16-03-2017 18:25:00 13.8 C 64 % 7.12 C
511 16-03-2017 18:30:00 13.4 C 65 % 6.96 C
512 16-03-2017 18:35:00 13.2 C 66 % 7 C
513 16-03-2017 18:40:00 13 C 66 % 6.8 C
514 16-03-2017 18:45:00 12.8 C 66 % 6.61 C
515 16-03-2017 18:50:00 12.6 C 65 % 6.2 C
516 16-03-2017 18:55:00 12.5 C 66 % 6.33 C
517 16-03-2017 19:00:00 12.4 C 63 % 5.56 C
518 16-03-2017 19:05:00 12.5 C 66 % 6.33 C
519 16-03-2017 19:10:00 12.4 C 65 % 6.01 C
520 16-03-2017 19:15:00 12.3 C 66 % 6.14 C
521 16-03-2017 19:20:00 12.1 C 66 % 5.95 C
522 16-03-2017 19:25:00 11.9 C 67 % 5.98 C
523 16-03-2017 19:30:00 11.7 C 68 % 6 C
524 16-03-2017 19:35:00 11.4 C 69 % 5.92 C
525 16-03-2017 19:40:00 11.3 C 70 % 6.03 C
Sensor: Nr:Datum:Temp:Feuchte:Taupunkt:
Aussen-T/F 526 16-03-2017 19:45:00 11.1 C 71 % 6.05 C
527 16-03-2017 19:50:00 11 C 71 % 5.95 C
528 16-03-2017 19:55:00 10.9 C 71 % 5.86 C
529 16-03-2017 20:00:00 10.8 C 72 % 5.96 C
530 16-03-2017 20:05:00 10.7 C 72 % 5.87 C
531 16-03-2017 20:10:00 10.6 C 73 % 5.97 C
532 16-03-2017 20:15:00 10.4 C 73 % 5.78 C
533 16-03-2017 20:20:00 10.4 C 73 % 5.78 C
534 16-03-2017 20:25:00 10.2 C 73 % 5.58 C
535 16-03-2017 20:30:00 10.1 C 74 % 5.68 C
536 16-03-2017 20:35:00 9.9 C 75 % 5.68 C
537 16-03-2017 20:40:00 9.8 C 75 % 5.59 C
538 16-03-2017 20:45:00 9.7 C 74 % 5.3 C
539 16-03-2017 20:50:00 9.6 C 75 % 5.39 C
540 16-03-2017 20:55:00 9.4 C 75 % 5.2 C
541 16-03-2017 21:00:00 9.2 C 76 % 5.2 C
542 16-03-2017 21:05:00 9.1 C 76 % 5.1 C
543 16-03-2017 21:10:00 8.9 C 77 % 5.09 C
544 16-03-2017 21:15:00 8.7 C 78 % 5.08 C
545 16-03-2017 21:20:00 8.7 C 78 % 5.08 C
546 16-03-2017 21:25:00 8.6 C 78 % 4.99 C
547 16-03-2017 21:30:00 8.5 C 78 % 4.89 C
548 16-03-2017 21:35:00 8.4 C 79 % 4.98 C
549 16-03-2017 21:40:00 8.3 C 80 % 5.06 C
550 16-03-2017 21:45:00 8.2 C 80 % 4.96 C
Sensor: Nr:Datum:Temp:Feuchte:Taupunkt:
Aussen-T/F 551 16-03-2017 21:50:00 8.2 C 81 % 5.14 C
552 16-03-2017 21:55:00 8.1 C 81 % 5.04 C
553 16-03-2017 22:00:00 7.9 C 81 % 4.85 C
554 16-03-2017 22:05:00 7.9 C 81 % 4.85 C
555 16-03-2017 22:10:00 7.9 C 80 % 4.67 C
556 16-03-2017 22:15:00 7.8 C 81 % 4.75 C
557 16-03-2017 22:20:00 7.8 C 81 % 4.75 C
558 16-03-2017 22:25:00 7.7 C 81 % 4.65 C
559 16-03-2017 22:30:00 7.6 C 81 % 4.55 C
560 16-03-2017 22:35:00 7.4 C 81 % 4.36 C
561 16-03-2017 22:40:00 7.3 C 83 % 4.61 C
562 16-03-2017 22:45:00 7.3 C 82 % 4.44 C
563 16-03-2017 22:50:00 7.2 C 82 % 4.34 C
564 16-03-2017 22:55:00 7.1 C 83 % 4.41 C
565 16-03-2017 23:00:00 7.1 C 83 % 4.41 C
566 16-03-2017 23:05:00 7.1 C 83 % 4.41 C
567 16-03-2017 23:10:00 6.9 C 83 % 4.22 C
568 16-03-2017 23:15:00 6.8 C 84 % 4.29 C
569 16-03-2017 23:20:00 6.6 C 84 % 4.1 C
570 16-03-2017 23:25:00 6.5 C 84 % 4 C
571 16-03-2017 23:30:00 6.6 C 85 % 4.26 C
572 16-03-2017 23:35:00 6.6 C 84 % 4.1 C
573 16-03-2017 23:40:00 6.5 C 84 % 4 C
574 16-03-2017 23:45:00 6.5 C 84 % 4 C
575 16-03-2017 23:50:00 6.4 C 84 % 3.9 C
Sensor: Nr:Datum:Temp:Feuchte:Taupunkt:
Aussen-T/F 576 16-03-2017 23:55:00 6.3 C 85 % 3.97 C
577 17-03-2017 00:00:00 6.3 C 84 % 3.8 C
578 17-03-2017 00:05:00 6.2 C 85 % 3.87 C
579 17-03-2017 00:10:00 6.1 C 85 % 3.77 C
580 17-03-2017 00:15:00 6 C 85 % 3.67 C
581 17-03-2017 00:20:00 5.9 C 86 % 3.74 C
582 17-03-2017 00:25:00 5.8 C 86 % 3.64 C
583 17-03-2017 00:30:00 5.8 C 86 % 3.64 C
584 17-03-2017 00:35:00 5.8 C 86 % 3.64 C
585 17-03-2017 00:40:00 5.8 C 86 % 3.64 C
586 17-03-2017 00:45:00 5.6 C 86 % 3.45 C
587 17-03-2017 00:50:00 5.4 C 86 % 3.25 C
588 17-03-2017 00:55:00 5.3 C 87 % 3.32 C
589 17-03-2017 01:00:00 5.3 C 87 % 3.32 C
590 17-03-2017 01:05:00 5.4 C 88 % 3.58 C
591 17-03-2017 01:10:00 5.5 C 88 % 3.67 C
592 17-03-2017 01:15:00 5.7 C 88 % 3.87 C
593 17-03-2017 01:20:00 5.6 C 87 % 3.61 C
594 17-03-2017 01:25:00 5.6 C 87 % 3.61 C
595 17-03-2017 01:30:00 5.5 C 87 % 3.51 C
596 17-03-2017 01:35:00 5.3 C 86 % 3.15 C
597 17-03-2017 01:40:00 5.3 C 87 % 3.32 C
598 17-03-2017 01:45:00 5.2 C 88 % 3.38 C
599 17-03-2017 01:50:00 5.3 C 88 % 3.48 C
600 17-03-2017 01:55:00 5.3 C 88 % 3.48 C
Sensor: Nr:Datum:Temp:Feuchte:Taupunkt:
Aussen-T/F 601 17-03-2017 02:00:00 5.3 C 88 % 3.48 C
602 17-03-2017 02:05:00 5.2 C 88 % 3.38 C
603 17-03-2017 02:10:00 5.1 C 88 % 3.28 C
604 17-03-2017 02:15:00 4.8 C 87 % 2.82 C
605 17-03-2017 02:20:00 4.7 C 88 % 2.89 C
606 17-03-2017 02:25:00 4.5 C 88 % 2.69 C
607 17-03-2017 02:30:00 4.5 C 89 % 2.85 C
608 17-03-2017 02:35:00 4.6 C 90 % 3.1 C
609 17-03-2017 02:40:00 4.6 C 90 % 3.1 C
610 17-03-2017 02:45:00 4.7 C 90 % 3.2 C
611 17-03-2017 02:50:00 4.8 C 91 % 3.46 C
612 17-03-2017 02:55:00 5.1 C 91 % 3.76 C
613 17-03-2017 03:00:00 5.2 C 90 % 3.7 C
614 17-03-2017 03:05:00 5.3 C 90 % 3.8 C
615 17-03-2017 03:10:00 5.3 C 89 % 3.64 C
616 17-03-2017 03:15:00 5.1 C 88 % 3.28 C
617 17-03-2017 03:20:00 5.1 C 89 % 3.44 C
618 17-03-2017 03:25:00 5.1 C 89 % 3.44 C
619 17-03-2017 03:30:00 5.1 C 89 % 3.44 C
620 17-03-2017 03:35:00 5 C 89 % 3.34 C
621 17-03-2017 03:40:00 4.9 C 88 % 3.08 C
622 17-03-2017 03:45:00 4.9 C 90 % 3.4 C
623 17-03-2017 03:50:00 4.8 C 89 % 3.14 C
624 17-03-2017 03:55:00 4.7 C 89 % 3.05 C
625 17-03-2017 04:00:00 4.6 C 90 % 3.1 C
Sensor: Nr:Datum:Temp:Feuchte:Taupunkt:
Aussen-T/F 626 17-03-2017 04:05:00 4.7 C 90 % 3.2 C
627 17-03-2017 04:10:00 4.8 C 90 % 3.3 C
628 17-03-2017 04:15:00 4.8 C 90 % 3.3 C
629 17-03-2017 04:20:00 4.8 C 90 % 3.3 C
630 17-03-2017 04:25:00 4.8 C 90 % 3.3 C
631 17-03-2017 04:30:00 4.7 C 90 % 3.2 C
632 17-03-2017 04:35:00 4.6 C 89 % 2.95 C
633 17-03-2017 04:40:00 4.6 C 90 % 3.1 C
634 17-03-2017 04:45:00 4.7 C 90 % 3.2 C
635 17-03-2017 04:50:00 4.8 C 90 % 3.3 C
636 17-03-2017 04:55:00 4.9 C 90 % 3.4 C
637 17-03-2017 05:00:00 4.9 C 90 % 3.4 C
638 17-03-2017 05:05:00 5 C 90 % 3.5 C
639 17-03-2017 05:10:00 5.1 C 89 % 3.44 C
640 17-03-2017 05:15:00 5.2 C 89 % 3.54 C
641 17-03-2017 05:20:00 5.3 C 88 % 3.48 C
642 17-03-2017 05:25:00 5.2 C 88 % 3.38 C
643 17-03-2017 05:30:00 5.2 C 88 % 3.38 C
644 17-03-2017 05:35:00 5.3 C 89 % 3.64 C
645 17-03-2017 05:40:00 5.4 C 89 % 3.74 C
646 17-03-2017 05:45:00 5.6 C 88 % 3.77 C
647 17-03-2017 05:50:00 5.7 C 88 % 3.87 C
648 17-03-2017 05:55:00 5.6 C 88 % 3.77 C
649 17-03-2017 06:00:00 5.6 C 88 % 3.77 C
650 17-03-2017 06:05:00 5.6 C 88 % 3.77 C
Sensor: Nr:Datum:Temp:Feuchte:Taupunkt:
Aussen-T/F 651 17-03-2017 06:10:00 5.6 C 89 % 3.93 C
652 17-03-2017 06:15:00 5.7 C 89 % 4.03 C
653 17-03-2017 06:20:00 5.8 C 89 % 4.13 C
654 17-03-2017 06:25:00 5.9 C 88 % 4.07 C
655 17-03-2017 06:30:00 6.1 C 88 % 4.27 C
656 17-03-2017 06:35:00 6.2 C 88 % 4.36 C
657 17-03-2017 06:40:00 6.3 C 87 % 4.3 C
658 17-03-2017 06:45:00 6.3 C 86 % 4.14 C
659 17-03-2017 06:50:00 6.3 C 87 % 4.3 C
660 17-03-2017 06:55:00 6.4 C 87 % 4.4 C
661 17-03-2017 07:00:00 6.4 C 87 % 4.4 C
662 17-03-2017 07:05:00 6.4 C 87 % 4.4 C
663 17-03-2017 07:10:00 6.6 C 87 % 4.6 C
664 17-03-2017 07:15:00 6.7 C 88 % 4.86 C
665 17-03-2017 07:20:00 6.8 C 87 % 4.79 C
666 17-03-2017 07:25:00 6.8 C 86 % 4.63 C
667 17-03-2017 07:30:00 6.8 C 86 % 4.63 C
668 17-03-2017 07:35:00 6.9 C 86 % 4.72 C
669 17-03-2017 07:40:00 7 C 86 % 4.82 C
670 17-03-2017 07:45:00 7 C 86 % 4.82 C
671 17-03-2017 07:50:00 7.1 C 86 % 4.92 C
672 17-03-2017 07:55:00 7.1 C 86 % 4.92 C
673 17-03-2017 08:00:00 7.1 C 85 % 4.75 C
674 17-03-2017 08:05:00 7.2 C 85 % 4.85 C
675 17-03-2017 08:10:00 7.2 C 85 % 4.85 C
Sensor: Nr:Datum:Temp:Feuchte:Taupunkt:
Aussen-T/F 676 17-03-2017 08:15:00 7.3 C 86 % 5.12 C
677 17-03-2017 08:20:00 7.5 C 85 % 5.15 C
678 17-03-2017 08:25:00 7.6 C 85 % 5.24 C
679 17-03-2017 08:30:00 7.7 C 84 % 5.17 C
680 17-03-2017 08:35:00 7.7 C 84 % 5.17 C
681 17-03-2017 08:40:00 7.7 C 84 % 5.17 C
682 17-03-2017 08:45:00 7.7 C 84 % 5.17 C
683 17-03-2017 08:50:00 7.6 C 84 % 5.07 C
684 17-03-2017 08:55:00 7.7 C 84 % 5.17 C
685 17-03-2017 09:00:00 7.8 C 84 % 5.27 C
686 17-03-2017 09:05:00 7.8 C 84 % 5.27 C
687 17-03-2017 09:10:00 7.9 C 84 % 5.37 C
688 17-03-2017 09:15:00 7.9 C 84 % 5.37 C
689 17-03-2017 09:20:00 7.9 C 84 % 5.37 C
690 17-03-2017 09:25:00 8 C 84 % 5.47 C
691 17-03-2017 09:30:00 8.1 C 85 % 5.73 C
692 17-03-2017 09:35:00 8.1 C 84 % 5.56 C
693 17-03-2017 09:40:00 8.1 C 85 % 5.73 C
694 17-03-2017 09:45:00 8.1 C 85 % 5.73 C
695 17-03-2017 09:50:00 8.1 C 84 % 5.56 C
696 17-03-2017 09:55:00 8.2 C 84 % 5.66 C
697 17-03-2017 10:00:00 8.3 C 85 % 5.93 C
698 17-03-2017 10:05:00 8.6 C 87 % 6.56 C
699 17-03-2017 10:10:00 8.9 C 84 % 6.35 C
700 17-03-2017 10:15:00 9.1 C 84 % 6.54 C
Sensor: Nr:Datum:Temp:Feuchte:Taupunkt:
Aussen-T/F 701 17-03-2017 10:20:00 9.4 C 85 % 7.01 C
702 17-03-2017 10:25:00 9.9 C 85 % 7.5 C
703 17-03-2017 10:30:00 10.3 C 83 % 7.54 C
704 17-03-2017 10:35:00 10.7 C 82 % 7.76 C
705 17-03-2017 10:40:00 10.9 C 80 % 7.59 C
706 17-03-2017 10:45:00 11 C 79 % 7.5 C
707 17-03-2017 10:50:00 11 C 78 % 7.32 C
708 17-03-2017 10:55:00 11.1 C 79 % 7.6 C
709 17-03-2017 11:00:00 11.3 C 77 % 7.42 C
710 17-03-2017 11:05:00 11.4 C 77 % 7.52 C
711 17-03-2017 11:10:00 11.7 C 76 % 7.62 C
712 17-03-2017 11:15:00 11.9 C 75 % 7.62 C
713 17-03-2017 11:20:00 12 C 74 % 7.52 C
714 17-03-2017 11:25:00 12.1 C 74 % 7.61 C
715 17-03-2017 11:30:00 12.3 C 73 % 7.61 C
716 17-03-2017 11:35:00 12.3 C 73 % 7.61 C
717 17-03-2017 11:40:00 12.3 C 72 % 7.4 C
718 17-03-2017 11:45:00 12.3 C 72 % 7.4 C
719 17-03-2017 11:50:00 12.4 C 71 % 7.3 C
720 17-03-2017 11:55:00 12.4 C 70 % 7.09 C
721 17-03-2017 12:00:00 12.4 C 69 % 6.88 C
722 17-03-2017 12:05:00 12.4 C 69 % 6.88 C
723 17-03-2017 12:10:00 12.2 C 69 % 6.69 C
724 17-03-2017 12:15:00 12.1 C 70 % 6.8 C
725 17-03-2017 12:20:00 11.8 C 72 % 6.92 C
Sensor: Nr:Datum:Temp:Feuchte:Taupunkt:
Aussen-T/F 726 17-03-2017 12:25:00 11.7 C 73 % 7.03 C
727 17-03-2017 12:30:00 11.6 C 74 % 7.13 C
728 17-03-2017 12:35:00 11.5 C 75 % 7.23 C
729 17-03-2017 12:40:00 11.4 C 76 % 7.33 C
730 17-03-2017 12:45:00 11.4 C 76 % 7.33 C
731 17-03-2017 12:50:00 11.3 C 77 % 7.42 C
732 17-03-2017 12:55:00 11.3 C 78 % 7.61 C
733 17-03-2017 13:00:00 11.3 C 78 % 7.61 C
734 17-03-2017 13:05:00 11.4 C 78 % 7.71 C
735 17-03-2017 13:10:00 11.6 C 78 % 7.9 C
736 17-03-2017 13:15:00 11.7 C 78 % 8 C
737 17-03-2017 13:20:00 11.8 C 77 % 7.9 C
738 17-03-2017 13:25:00 11.8 C 76 % 7.71 C
739 17-03-2017 13:30:00 11.9 C 76 % 7.81 C
740 17-03-2017 13:35:00 11.9 C 76 % 7.81 C
741 17-03-2017 13:40:00 11.9 C 75 % 7.62 C
742 17-03-2017 13:45:00 12.1 C 75 % 7.81 C
743 17-03-2017 13:50:00 12.1 C 74 % 7.61 C
744 17-03-2017 13:55:00 11.9 C 72 % 7.02 C
745 17-03-2017 14:00:00 11.8 C 73 % 7.12 C
746 17-03-2017 14:05:00 11.7 C 73 % 7.03 C
747 17-03-2017 14:10:00 11.7 C 73 % 7.03 C
748 17-03-2017 14:15:00 11.8 C 70 % 6.51 C
749 17-03-2017 14:20:00 12 C 71 % 6.91 C
750 17-03-2017 14:25:00 12.2 C 69 % 6.69 C
Sensor: Nr:Datum:Temp:Feuchte:Taupunkt:
Aussen-T/F 751 17-03-2017 14:30:00 12.3 C 66 % 6.14 C
752 17-03-2017 14:35:00 12.4 C 69 % 6.88 C
753 17-03-2017 14:40:00 12.4 C 71 % 7.3 C
754 17-03-2017 14:45:00 12.2 C 69 % 6.69 C
755 17-03-2017 14:50:00 12.2 C 70 % 6.9 C
756 17-03-2017 14:55:00 12.3 C 65 % 5.92 C
757 17-03-2017 15:00:00 12.4 C 63 % 5.56 C
758 17-03-2017 15:05:00 12.4 C 63 % 5.56 C
759 17-03-2017 15:10:00 12.4 C 62 % 5.33 C
760 17-03-2017 15:15:00 12.3 C 63 % 5.47 C
761 17-03-2017 15:20:00 12.3 C 62 % 5.24 C
762 17-03-2017 15:25:00 12.3 C 60 % 4.77 C
763 17-03-2017 15:30:00 12.2 C 61 % 4.91 C
764 17-03-2017 15:35:00 12.2 C 60 % 4.67 C
765 17-03-2017 15:40:00 12.2 C 60 % 4.67 C
766 17-03-2017 15:45:00 12.2 C 61 % 4.91 C
767 17-03-2017 15:50:00 12.3 C 60 % 4.77 C
768 17-03-2017 15:55:00 12.4 C 60 % 4.86 C
769 17-03-2017 16:00:00 12.5 C 60 % 4.96 C
770 17-03-2017 16:05:00 12.5 C 59 % 4.72 C
771 17-03-2017 16:10:00 12.5 C 60 % 4.96 C
772 17-03-2017 16:15:00 12.4 C 60 % 4.86 C
773 17-03-2017 16:20:00 12.4 C 62 % 5.33 C
774 17-03-2017 16:25:00 12.3 C 61 % 5.01 C
775 17-03-2017 16:30:00 12.2 C 62 % 5.14 C
Sensor: Nr:Datum:Temp:Feuchte:Taupunkt:
Aussen-T/F 776 17-03-2017 16:35:00 12.1 C 61 % 4.82 C
777 17-03-2017 16:40:00 12.1 C 62 % 5.05 C
778 17-03-2017 16:45:00 11.9 C 62 % 4.86 C
779 17-03-2017 16:50:00 11.9 C 62 % 4.86 C
780 17-03-2017 16:55:00 11.9 C 63 % 5.09 C
781 17-03-2017 17:00:00 11.9 C 62 % 4.86 C
782 17-03-2017 17:05:00 11.9 C 61 % 4.63 C
783 17-03-2017 17:10:00 11.9 C 61 % 4.63 C
784 17-03-2017 17:15:00 11.9 C 60 % 4.39 C
785 17-03-2017 17:20:00 11.9 C 61 % 4.63 C
786 17-03-2017 17:25:00 11.9 C 62 % 4.86 C
787 17-03-2017 17:30:00 11.8 C 62 % 4.77 C
788 17-03-2017 17:35:00 11.8 C 62 % 4.77 C
789 17-03-2017 17:40:00 11.7 C 62 % 4.67 C
790 17-03-2017 17:45:00 11.6 C 64 % 5.03 C
791 17-03-2017 17:50:00 11.5 C 64 % 4.94 C
792 17-03-2017 17:55:00 11.4 C 63 % 4.62 C
793 17-03-2017 18:00:00 11.4 C 64 % 4.84 C
794 17-03-2017 18:05:00 11.4 C 63 % 4.62 C
795 17-03-2017 18:10:00 11.3 C 64 % 4.75 C
796 17-03-2017 18:15:00 11.2 C 64 % 4.65 C
797 17-03-2017 18:20:00 11.1 C 65 % 4.78 C
798 17-03-2017 18:25:00 11 C 66 % 4.9 C
799 17-03-2017 18:30:00 10.8 C 66 % 4.71 C
800 17-03-2017 18:35:00 10.7 C 67 % 4.83 C
Sensor: Nr:Datum:Temp:Feuchte:Taupunkt:
Aussen-T/F 801 17-03-2017 18:40:00 10.6 C 67 % 4.74 C
802 17-03-2017 18:45:00 10.5 C 68 % 4.85 C
803 17-03-2017 18:50:00 10.4 C 69 % 4.97 C
804 17-03-2017 18:55:00 10.3 C 68 % 4.66 C
805 17-03-2017 19:00:00 10.3 C 69 % 4.87 C
806 17-03-2017 19:05:00 10.3 C 69 % 4.87 C
807 17-03-2017 19:10:00 10.2 C 70 % 4.98 C
808 17-03-2017 19:15:00 9.9 C 72 % 5.1 C
809 17-03-2017 19:20:00 9.6 C 74 % 5.2 C
810 17-03-2017 19:25:00 9.3 C 75 % 5.1 C
811 17-03-2017 19:30:00 9.1 C 75 % 4.91 C
812 17-03-2017 19:35:00 8.8 C 75 % 4.62 C
813 17-03-2017 19:40:00 8.7 C 74 % 4.33 C
814 17-03-2017 19:45:00 8.7 C 72 % 3.94 C
815 17-03-2017 19:50:00 8.7 C 72 % 3.94 C
816 17-03-2017 19:55:00 8.7 C 72 % 3.94 C
817 17-03-2017 20:00:00 8.7 C 72 % 3.94 C
818 17-03-2017 20:05:00 8.6 C 73 % 4.04 C
819 17-03-2017 20:10:00 8.6 C 73 % 4.04 C
820 17-03-2017 20:15:00 8.5 C 73 % 3.95 C
821 17-03-2017 20:20:00 8.5 C 74 % 4.14 C
822 17-03-2017 20:25:00 8.4 C 73 % 3.85 C
823 17-03-2017 20:30:00 8.4 C 75 % 4.23 C
824 17-03-2017 20:35:00 8.3 C 75 % 4.14 C
825 17-03-2017 20:40:00 8.3 C 75 % 4.14 C
Sensor: Nr:Datum:Temp:Feuchte:Taupunkt:
Aussen-T/F 826 17-03-2017 20:45:00 8.2 C 75 % 4.04 C
827 17-03-2017 20:50:00 8.1 C 77 % 4.32 C
828 17-03-2017 20:55:00 7.9 C 77 % 4.12 C
829 17-03-2017 21:00:00 7.9 C 78 % 4.31 C
830 17-03-2017 21:05:00 7.8 C 78 % 4.21 C
831 17-03-2017 21:10:00 7.9 C 78 % 4.31 C
832 17-03-2017 21:15:00 7.9 C 78 % 4.31 C
833 17-03-2017 21:20:00 8 C 78 % 4.41 C
834 17-03-2017 21:25:00 8.1 C 77 % 4.32 C
835 17-03-2017 21:30:00 8.1 C 77 % 4.32 C
836 17-03-2017 21:35:00 8.2 C 77 % 4.42 C
837 17-03-2017 21:40:00 8.2 C 76 % 4.23 C
838 17-03-2017 21:45:00 8.3 C 75 % 4.14 C
839 17-03-2017 21:50:00 8.5 C 74 % 4.14 C
840 17-03-2017 21:55:00 8.7 C 74 % 4.33 C
841 17-03-2017 22:00:00 8.8 C 73 % 4.24 C
842 17-03-2017 22:05:00 8.8 C 73 % 4.24 C
843 17-03-2017 22:10:00 8.9 C 72 % 4.14 C
844 17-03-2017 22:15:00 9 C 73 % 4.43 C
845 17-03-2017 22:20:00 9.1 C 72 % 4.33 C
846 17-03-2017 22:25:00 9.1 C 72 % 4.33 C
847 17-03-2017 22:30:00 9.1 C 72 % 4.33 C
848 17-03-2017 22:35:00 9.2 C 71 % 4.22 C
849 17-03-2017 22:40:00 9.2 C 71 % 4.22 C
850 17-03-2017 22:45:00 9.3 C 70 % 4.12 C
Sensor: Nr:Datum:Temp:Feuchte:Taupunkt:
Aussen-T/F 851 17-03-2017 22:50:00 9.4 C 69 % 4.01 C
852 17-03-2017 22:55:00 9.4 C 69 % 4.01 C
853 17-03-2017 23:00:00 9.4 C 68 % 3.8 C
854 17-03-2017 23:05:00 9.4 C 67 % 3.59 C
855 17-03-2017 23:10:00 9.4 C 66 % 3.38 C
856 17-03-2017 23:15:00 9.3 C 65 % 3.07 C
857 17-03-2017 23:20:00 9.3 C 63 % 2.63 C
858 17-03-2017 23:25:00 9.3 C 62 % 2.4 C
859 17-03-2017 23:30:00 9.3 C 61 % 2.18 C
860 17-03-2017 23:35:00 9.2 C 60 % 1.85 C
861 17-03-2017 23:40:00 9.2 C 60 % 1.85 C
862 17-03-2017 23:45:00 9.2 C 60 % 1.85 C
863 17-03-2017 23:50:00 9.1 C 60 % 1.76 C
864 17-03-2017 23:55:00 9.1 C 61 % 1.99 C
865 18-03-2017 00:00:00 9.1 C 62 % 2.22 C
866 18-03-2017 00:05:00 9.1 C 62 % 2.22 C
867 18-03-2017 00:10:00 9.1 C 63 % 2.44 C
868 18-03-2017 00:15:00 9.1 C 64 % 2.66 C
869 18-03-2017 00:20:00 9.2 C 66 % 3.19 C
870 18-03-2017 00:25:00 9.2 C 66 % 3.19 C
871 18-03-2017 00:30:00 9.2 C 67 % 3.4 C
872 18-03-2017 00:35:00 9.1 C 67 % 3.31 C
873 18-03-2017 00:40:00 9.1 C 68 % 3.52 C
874 18-03-2017 00:45:00 9.1 C 68 % 3.52 C
875 18-03-2017 00:50:00 9.1 C 68 % 3.52 C
Sensor: Nr:Datum:Temp:Feuchte:Taupunkt:
Aussen-T/F 876 18-03-2017 00:55:00 9.1 C 69 % 3.72 C
877 18-03-2017 01:00:00 9.1 C 69 % 3.72 C
878 18-03-2017 01:05:00 9.1 C 69 % 3.72 C
879 18-03-2017 01:10:00 9.1 C 69 % 3.72 C
880 18-03-2017 01:15:00 9 C 70 % 3.83 C
881 18-03-2017 01:20:00 8.9 C 72 % 4.14 C
882 18-03-2017 01:25:00 8.7 C 73 % 4.14 C
883 18-03-2017 01:30:00 8.6 C 74 % 4.24 C
884 18-03-2017 01:35:00 8.4 C 76 % 4.42 C
885 18-03-2017 01:40:00 8.3 C 76 % 4.33 C
886 18-03-2017 01:45:00 8.2 C 76 % 4.23 C
887 18-03-2017 01:50:00 8.2 C 75 % 4.04 C
888 18-03-2017 01:55:00 8.2 C 75 % 4.04 C
889 18-03-2017 02:00:00 8.2 C 74 % 3.85 C
890 18-03-2017 02:05:00 8.2 C 74 % 3.85 C
891 18-03-2017 02:10:00 8.2 C 78 % 4.6 C
892 18-03-2017 02:15:00 7.9 C 78 % 4.31 C
893 18-03-2017 02:20:00 7.7 C 80 % 4.47 C
894 18-03-2017 02:25:00 7.4 C 80 % 4.18 C
895 18-03-2017 02:30:00 7.3 C 80 % 4.09 C
896 18-03-2017 02:35:00 7.3 C 80 % 4.09 C
897 18-03-2017 02:40:00 7.3 C 80 % 4.09 C
898 18-03-2017 02:45:00 7.2 C 80 % 3.99 C
899 18-03-2017 02:50:00 7.2 C 80 % 3.99 C
900 18-03-2017 02:55:00 7.1 C 81 % 4.07 C
Sensor: Nr:Datum:Temp:Feuchte:Taupunkt:
Aussen-T/F 901 18-03-2017 03:00:00 7 C 82 % 4.14 C
902 18-03-2017 03:05:00 6.9 C 81 % 3.87 C
903 18-03-2017 03:10:00 6.8 C 81 % 3.77 C
904 18-03-2017 03:15:00 6.8 C 82 % 3.95 C
905 18-03-2017 03:20:00 6.8 C 81 % 3.77 C
906 18-03-2017 03:25:00 6.8 C 82 % 3.95 C
907 18-03-2017 03:30:00 6.8 C 82 % 3.95 C
908 18-03-2017 03:35:00 6.8 C 81 % 3.77 C
909 18-03-2017 03:40:00 6.9 C 81 % 3.87 C
910 18-03-2017 03:45:00 7.1 C 80 % 3.89 C
911 18-03-2017 03:50:00 7.1 C 80 % 3.89 C
912 18-03-2017 03:55:00 7.2 C 80 % 3.99 C
913 18-03-2017 04:00:00 7.1 C 80 % 3.89 C
914 18-03-2017 04:05:00 7.1 C 80 % 3.89 C
915 18-03-2017 04:10:00 7.1 C 81 % 4.07 C
916 18-03-2017 04:15:00 7.1 C 81 % 4.07 C
917 18-03-2017 04:20:00 7.1 C 81 % 4.07 C
918 18-03-2017 04:25:00 7.1 C 82 % 4.24 C
919 18-03-2017 04:30:00 7 C 82 % 4.14 C
920 18-03-2017 04:35:00 7 C 83 % 4.32 C
921 18-03-2017 04:40:00 6.9 C 83 % 4.22 C
922 18-03-2017 04:45:00 6.9 C 84 % 4.39 C
923 18-03-2017 04:50:00 6.9 C 84 % 4.39 C
924 18-03-2017 04:55:00 6.8 C 85 % 4.46 C
925 18-03-2017 05:00:00 6.8 C 85 % 4.46 C
Sensor: Nr:Datum:Temp:Feuchte:Taupunkt:
Aussen-T/F 926 18-03-2017 05:05:00 6.8 C 86 % 4.63 C
927 18-03-2017 05:10:00 6.8 C 85 % 4.46 C
928 18-03-2017 05:15:00 6.8 C 85 % 4.46 C
929 18-03-2017 05:20:00 6.8 C 86 % 4.63 C
930 18-03-2017 05:25:00 6.8 C 86 % 4.63 C
931 18-03-2017 05:30:00 6.8 C 87 % 4.79 C
932 18-03-2017 05:35:00 6.8 C 87 % 4.79 C
933 18-03-2017 05:40:00 6.8 C 87 % 4.79 C
934 18-03-2017 05:45:00 6.8 C 88 % 4.96 C
935 18-03-2017 05:50:00 6.7 C 88 % 4.86 C
936 18-03-2017 05:55:00 6.7 C 88 % 4.86 C
937 18-03-2017 06:00:00 6.8 C 88 % 4.96 C
938 18-03-2017 06:05:00 6.8 C 88 % 4.96 C
939 18-03-2017 06:10:00 6.9 C 87 % 4.89 C
940 18-03-2017 06:15:00 6.9 C 87 % 4.89 C
941 18-03-2017 06:20:00 7 C 87 % 4.99 C
942 18-03-2017 06:25:00 7.1 C 87 % 5.09 C
943 18-03-2017 06:30:00 7.1 C 87 % 5.09 C
944 18-03-2017 06:35:00 7.2 C 87 % 5.19 C
945 18-03-2017 06:40:00 7.2 C 86 % 5.02 C
946 18-03-2017 06:45:00 7.3 C 86 % 5.12 C
947 18-03-2017 06:50:00 7.3 C 86 % 5.12 C
948 18-03-2017 06:55:00 7.3 C 87 % 5.28 C
949 18-03-2017 07:00:00 7.3 C 87 % 5.28 C
950 18-03-2017 07:05:00 7.3 C 87 % 5.28 C
Sensor: Nr:Datum:Temp:Feuchte:Taupunkt:
Aussen-T/F 951 18-03-2017 07:10:00 7.3 C 87 % 5.28 C
952 18-03-2017 07:15:00 7.3 C 88 % 5.45 C
953 18-03-2017 07:20:00 7.3 C 88 % 5.45 C
954 18-03-2017 07:25:00 7.2 C 89 % 5.51 C
955 18-03-2017 07:30:00 7.2 C 90 % 5.67 C
956 18-03-2017 07:35:00 7.2 C 90 % 5.67 C
957 18-03-2017 07:40:00 7.2 C 91 % 5.83 C
958 18-03-2017 07:45:00 7.2 C 91 % 5.83 C
959 18-03-2017 07:50:00 7.1 C 91 % 5.73 C
960 18-03-2017 07:55:00 7.1 C 92 % 5.89 C
961 18-03-2017 08:00:00 7.1 C 92 % 5.89 C
962 18-03-2017 08:05:00 7.2 C 92 % 5.99 C
963 18-03-2017 08:10:00 7.2 C 92 % 5.99 C
964 18-03-2017 08:15:00 7.2 C 92 % 5.99 C
965 18-03-2017 08:20:00 7.2 C 92 % 5.99 C
966 18-03-2017 08:25:00 7.2 C 93 % 6.15 C
967 18-03-2017 08:30:00 7.2 C 93 % 6.15 C
968 18-03-2017 08:35:00 7.3 C 93 % 6.25 C
969 18-03-2017 08:40:00 7.3 C 93 % 6.25 C
970 18-03-2017 08:45:00 7.3 C 93 % 6.25 C
971 18-03-2017 08:50:00 7.3 C 93 % 6.25 C
972 18-03-2017 08:55:00 7.4 C 94 % 6.5 C
973 18-03-2017 09:00:00 7.5 C 94 % 6.6 C
974 18-03-2017 09:05:00 7.6 C 94 % 6.7 C
975 18-03-2017 09:10:00 7.6 C 94 % 6.7 C
Sensor: Nr:Datum:Temp:Feuchte:Taupunkt:
Aussen-T/F 976 18-03-2017 09:15:00 7.6 C 93 % 6.54 C
977 18-03-2017 09:20:00 7.7 C 94 % 6.8 C
978 18-03-2017 09:25:00 7.7 C 94 % 6.8 C
979 18-03-2017 09:30:00 7.8 C 93 % 6.74 C
980 18-03-2017 09:35:00 7.9 C 93 % 6.84 C
981 18-03-2017 09:40:00 8 C 94 % 7.09 C
982 18-03-2017 09:45:00 8 C 93 % 6.94 C
983 18-03-2017 09:50:00 8.1 C 93 % 7.04 C
984 18-03-2017 09:55:00 8.2 C 93 % 7.14 C
985 18-03-2017 10:00:00 8.3 C 93 % 7.24 C
986 18-03-2017 10:05:00 8.4 C 93 % 7.34 C
987 18-03-2017 10:10:00 8.5 C 93 % 7.43 C
988 18-03-2017 10:15:00 8.7 C 93 % 7.63 C
989 18-03-2017 10:20:00 8.8 C 93 % 7.73 C
990 18-03-2017 10:25:00 8.9 C 93 % 7.83 C
991 18-03-2017 10:30:00 9 C 92 % 7.77 C
992 18-03-2017 10:35:00 9.2 C 92 % 7.97 C
993 18-03-2017 10:40:00 9.3 C 91 % 7.91 C
994 18-03-2017 10:45:00 9.4 C 91 % 8.01 C
995 18-03-2017 10:50:00 9.5 C 91 % 8.11 C
996 18-03-2017 10:55:00 9.6 C 91 % 8.21 C
997 18-03-2017 11:00:00 9.7 C 90 % 8.14 C
998 18-03-2017 11:05:00 9.8 C 90 % 8.24 C
999 18-03-2017 11:10:00 9.8 C 90 % 8.24 C
1000 18-03-2017 11:15:00 9.9 C 90 % 8.34 C
Sensor: Nr:Datum:Temp:Feuchte:Taupunkt:
Aussen-T/F 1001 18-03-2017 11:20:00 9.9 C 89 % 8.17 C
1002 18-03-2017 11:25:00 9.8 C 89 % 8.08 C
1003 18-03-2017 11:30:00 9.9 C 90 % 8.34 C
1004 18-03-2017 11:35:00 10 C 90 % 8.44 C
1005 18-03-2017 11:40:00 10.1 C 90 % 8.54 C
1006 18-03-2017 11:45:00 10.1 C 90 % 8.54 C
1007 18-03-2017 11:50:00 10.2 C 90 % 8.64 C
1008 18-03-2017 11:55:00 10.3 C 90 % 8.73 C
1009 18-03-2017 12:00:00 10.4 C 89 % 8.67 C
1010 18-03-2017 12:05:00 10.5 C 89 % 8.77 C
1011 18-03-2017 12:10:00 10.6 C 88 % 8.7 C
1012 18-03-2017 12:15:00 10.5 C 88 % 8.6 C
1013 18-03-2017 12:20:00 10.4 C 88 % 8.5 C
1014 18-03-2017 12:25:00 10.4 C 88 % 8.5 C
1015 18-03-2017 12:30:00 10.4 C 88 % 8.5 C
1016 18-03-2017 12:35:00 10.4 C 88 % 8.5 C
1017 18-03-2017 12:40:00 10.4 C 88 % 8.5 C
1018 18-03-2017 12:45:00 10.6 C 89 % 8.86 C
1019 18-03-2017 12:50:00 10.7 C 89 % 8.96 C
1020 18-03-2017 12:55:00 10.8 C 89 % 9.06 C
1021 18-03-2017 13:00:00 10.8 C 88 % 8.89 C
1022 18-03-2017 13:05:00 10.8 C 88 % 8.89 C
1023 18-03-2017 13:10:00 10.9 C 88 % 8.99 C
1024 18-03-2017 13:15:00 10.9 C 88 % 8.99 C
1025 18-03-2017 13:20:00 11 C 88 % 9.09 C
Sensor: Nr:Datum:Temp:Feuchte:Taupunkt:
Aussen-T/F 1026 18-03-2017 13:25:00 11.1 C 89 % 9.36 C
1027 18-03-2017 13:30:00 11.2 C 88 % 9.29 C
1028 18-03-2017 13:35:00 11.2 C 88 % 9.29 C
1029 18-03-2017 13:40:00 11.2 C 88 % 9.29 C
1030 18-03-2017 13:45:00 11.2 C 88 % 9.29 C
1031 18-03-2017 13:50:00 11.2 C 88 % 9.29 C
1032 18-03-2017 13:55:00 11.1 C 89 % 9.36 C
1033 18-03-2017 14:00:00 11.2 C 89 % 9.46 C
1034 18-03-2017 14:05:00 11.2 C 88 % 9.29 C
1035 18-03-2017 14:10:00 11.2 C 88 % 9.29 C
1036 18-03-2017 14:15:00 11.2 C 88 % 9.29 C
1037 18-03-2017 14:20:00 11.3 C 89 % 9.55 C
1038 18-03-2017 14:25:00 11.4 C 88 % 9.49 C
1039 18-03-2017 14:30:00 11.4 C 89 % 9.65 C
1040 18-03-2017 14:35:00 11.6 C 89 % 9.85 C
1041 18-03-2017 14:40:00 11.6 C 88 % 9.68 C
1042 18-03-2017 14:45:00 11.7 C 88 % 9.78 C
1043 18-03-2017 14:50:00 11.7 C 88 % 9.78 C
1044 18-03-2017 14:55:00 11.7 C 88 % 9.78 C
1045 18-03-2017 15:00:00 11.7 C 88 % 9.78 C
1046 18-03-2017 15:05:00 11.7 C 88 % 9.78 C
1047 18-03-2017 15:10:00 11.8 C 89 % 10.05 C
1048 18-03-2017 15:15:00 11.8 C 89 % 10.05 C
1049 18-03-2017 15:20:00 11.8 C 89 % 10.05 C
1050 18-03-2017 15:25:00 11.8 C 90 % 10.21 C
Sensor: Nr:Datum:Temp:Feuchte:Taupunkt:
Aussen-T/F 1051 18-03-2017 15:30:00 11.8 C 91 % 10.38 C
1052 18-03-2017 15:35:00 11.7 C 91 % 10.28 C
1053 18-03-2017 15:40:00 11.7 C 91 % 10.28 C
1054 18-03-2017 15:45:00 11.7 C 91 % 10.28 C
1055 18-03-2017 15:50:00 11.8 C 91 % 10.38 C
1056 18-03-2017 15:55:00 11.8 C 91 % 10.38 C
1057 18-03-2017 16:00:00 11.8 C 91 % 10.38 C
1058 18-03-2017 16:05:00 11.8 C 91 % 10.38 C
1059 18-03-2017 16:10:00 11.9 C 90 % 10.31 C
1060 18-03-2017 16:15:00 11.9 C 90 % 10.31 C
1061 18-03-2017 16:20:00 12 C 90 % 10.41 C
1062 18-03-2017 16:25:00 12.1 C 90 % 10.51 C
1063 18-03-2017 16:30:00 12.1 C 90 % 10.51 C
1064 18-03-2017 16:35:00 12.1 C 90 % 10.51 C
1065 18-03-2017 16:40:00 12.1 C 89 % 10.34 C
1066 18-03-2017 16:45:00 12.1 C 89 % 10.34 C
1067 18-03-2017 16:50:00 12.1 C 89 % 10.34 C
1068 18-03-2017 16:55:00 12.2 C 89 % 10.44 C
1069 18-03-2017 17:00:00 12.1 C 89 % 10.34 C
1070 18-03-2017 17:05:00 12.1 C 89 % 10.34 C
1071 18-03-2017 17:10:00 12.1 C 89 % 10.34 C
1072 18-03-2017 17:15:00 12.1 C 90 % 10.51 C
1073 18-03-2017 17:20:00 12.1 C 90 % 10.51 C
1074 18-03-2017 17:25:00 12.1 C 89 % 10.34 C
1075 18-03-2017 17:30:00 12.2 C 89 % 10.44 C
Sensor: Nr:Datum:Temp:Feuchte:Taupunkt:
Aussen-T/F 1076 18-03-2017 17:35:00 12.3 C 89 % 10.54 C
1077 18-03-2017 17:40:00 12.4 C 88 % 10.47 C
1078 18-03-2017 17:45:00 12.4 C 89 % 10.64 C
1079 18-03-2017 17:50:00 12.3 C 90 % 10.71 C
1080 18-03-2017 17:55:00 12.2 C 90 % 10.61 C
1081 18-03-2017 18:00:00 12.2 C 90 % 10.61 C
1082 18-03-2017 18:05:00 12.2 C 90 % 10.61 C
1083 18-03-2017 18:10:00 12.1 C 91 % 10.68 C
1084 18-03-2017 18:15:00 11.9 C 91 % 10.48 C
1085 18-03-2017 18:20:00 11.9 C 92 % 10.64 C
1086 18-03-2017 18:25:00 11.8 C 92 % 10.54 C
1087 18-03-2017 18:30:00 11.8 C 92 % 10.54 C
1088 18-03-2017 18:35:00 11.7 C 92 % 10.44 C
1089 18-03-2017 18:40:00 11.6 C 92 % 10.35 C
1090 18-03-2017 18:45:00 11.6 C 93 % 10.51 C
1091 18-03-2017 18:50:00 11.6 C 93 % 10.51 C
1092 18-03-2017 18:55:00 11.6 C 93 % 10.51 C
1093 18-03-2017 19:00:00 11.5 C 93 % 10.41 C
1094 18-03-2017 19:05:00 11.4 C 93 % 10.31 C
1095 18-03-2017 19:10:00 11.4 C 93 % 10.31 C
1096 18-03-2017 19:15:00 11.3 C 93 % 10.21 C
1097 18-03-2017 19:20:00 11.3 C 94 % 10.37 C
1098 18-03-2017 19:25:00 11.2 C 94 % 10.27 C
1099 18-03-2017 19:30:00 11.2 C 94 % 10.27 C
1100 18-03-2017 19:35:00 11.1 C 94 % 10.17 C
Sensor: Nr:Datum:Temp:Feuchte:Taupunkt:
Aussen-T/F 1101 18-03-2017 19:40:00 11.1 C 94 % 10.17 C
1102 18-03-2017 19:45:00 11.1 C 94 % 10.17 C
1103 18-03-2017 19:50:00 11.1 C 94 % 10.17 C
1104 18-03-2017 19:55:00 11.1 C 94 % 10.17 C
1105 18-03-2017 20:00:00 11.1 C 94 % 10.17 C
1106 18-03-2017 20:05:00 11.1 C 95 % 10.33 C
1107 18-03-2017 20:10:00 11.1 C 95 % 10.33 C
1108 18-03-2017 20:15:00 11.1 C 95 % 10.33 C
1109 18-03-2017 20:20:00 11 C 95 % 10.23 C
1110 18-03-2017 20:25:00 11 C 95 % 10.23 C
1111 18-03-2017 20:30:00 11 C 95 % 10.23 C
1112 18-03-2017 20:35:00 11 C 95 % 10.23 C
1113 18-03-2017 20:40:00 11.1 C 95 % 10.33 C
1114 18-03-2017 20:45:00 11.1 C 95 % 10.33 C
1115 18-03-2017 20:50:00 11.1 C 95 % 10.33 C
1116 18-03-2017 20:55:00 11 C 95 % 10.23 C
1117 18-03-2017 21:00:00 11 C 95 % 10.23 C
1118 18-03-2017 21:05:00 10.9 C 95 % 10.13 C
1119 18-03-2017 21:10:00 10.9 C 95 % 10.13 C
1120 18-03-2017 21:15:00 10.9 C 95 % 10.13 C
1121 18-03-2017 21:20:00 10.9 C 95 % 10.13 C
1122 18-03-2017 21:25:00 10.9 C 95 % 10.13 C
1123 18-03-2017 21:30:00 10.9 C 95 % 10.13 C
1124 18-03-2017 21:35:00 10.8 C 95 % 10.03 C
1125 18-03-2017 21:40:00 10.8 C 95 % 10.03 C
Sensor: Nr:Datum:Temp:Feuchte:Taupunkt:
Aussen-T/F 1126 18-03-2017 21:45:00 10.8 C 95 % 10.03 C
1127 18-03-2017 21:50:00 10.8 C 95 % 10.03 C
1128 18-03-2017 21:55:00 10.8 C 95 % 10.03 C
1129 18-03-2017 22:00:00 10.8 C 95 % 10.03 C
1130 18-03-2017 22:05:00 10.8 C 95 % 10.03 C
1131 18-03-2017 22:10:00 10.8 C 95 % 10.03 C
1132 18-03-2017 22:15:00 10.8 C 95 % 10.03 C
1133 18-03-2017 22:20:00 10.8 C 95 % 10.03 C
1134 18-03-2017 22:25:00 10.8 C 95 % 10.03 C
1135 18-03-2017 22:30:00 10.8 C 95 % 10.03 C
1136 18-03-2017 22:35:00 10.8 C 95 % 10.03 C
1137 18-03-2017 22:40:00 10.8 C 95 % 10.03 C
1138 18-03-2017 22:45:00 10.7 C 95 % 9.93 C
1139 18-03-2017 22:50:00 10.5 C 95 % 9.73 C
1140 18-03-2017 22:55:00 10.3 C 95 % 9.54 C
1141 18-03-2017 23:00:00 10.2 C 95 % 9.44 C
1142 18-03-2017 23:05:00 10.1 C 95 % 9.34 C
1143 18-03-2017 23:10:00 10 C 95 % 9.24 C
1144 18-03-2017 23:15:00 9.9 C 95 % 9.14 C
1145 18-03-2017 23:20:00 9.9 C 95 % 9.14 C
1146 18-03-2017 23:25:00 9.9 C 95 % 9.14 C
1147 18-03-2017 23:30:00 9.9 C 95 % 9.14 C
1148 18-03-2017 23:35:00 9.8 C 95 % 9.04 C
1149 18-03-2017 23:40:00 9.8 C 95 % 9.04 C
1150 18-03-2017 23:45:00 9.8 C 95 % 9.04 C
Sensor: Nr:Datum:Temp:Feuchte:Taupunkt:
Aussen-T/F 1151 18-03-2017 23:50:00 9.8 C 95 % 9.04 C
1152 18-03-2017 23:55:00 9.8 C 96 % 9.19 C
1153 19-03-2017 00:00:00 9.8 C 96 % 9.19 C
1154 19-03-2017 00:05:00 9.8 C 96 % 9.19 C
1155 19-03-2017 00:10:00 9.7 C 96 % 9.09 C
1156 19-03-2017 00:15:00 9.7 C 95 % 8.94 C
1157 19-03-2017 00:20:00 9.7 C 95 % 8.94 C
1158 19-03-2017 00:25:00 9.6 C 95 % 8.84 C
1159 19-03-2017 00:30:00 9.6 C 96 % 8.99 C
1160 19-03-2017 00:35:00 9.6 C 96 % 8.99 C
1161 19-03-2017 00:40:00 9.5 C 96 % 8.89 C
1162 19-03-2017 00:45:00 9.5 C 96 % 8.89 C
1163 19-03-2017 00:50:00 9.4 C 96 % 8.8 C
1164 19-03-2017 00:55:00 9.4 C 96 % 8.8 C
1165 19-03-2017 01:00:00 9.4 C 96 % 8.8 C
1166 19-03-2017 01:05:00 9.4 C 96 % 8.8 C
1167 19-03-2017 01:10:00 9.4 C 96 % 8.8 C
1168 19-03-2017 01:15:00 9.4 C 96 % 8.8 C
1169 19-03-2017 01:20:00 9.4 C 96 % 8.8 C
1170 19-03-2017 01:25:00 9.4 C 96 % 8.8 C
1171 19-03-2017 01:30:00 9.4 C 96 % 8.8 C
1172 19-03-2017 01:35:00 9.4 C 96 % 8.8 C
1173 19-03-2017 01:40:00 9.4 C 96 % 8.8 C
1174 19-03-2017 01:45:00 9.4 C 96 % 8.8 C
1175 19-03-2017 01:50:00 9.4 C 96 % 8.8 C
Sensor: Nr:Datum:Temp:Feuchte:Taupunkt:
Aussen-T/F 1176 19-03-2017 01:55:00 9.5 C 96 % 8.89 C
1177 19-03-2017 02:00:00 9.5 C 96 % 8.89 C
1178 19-03-2017 02:05:00 9.4 C 96 % 8.8 C
1179 19-03-2017 02:10:00 9.4 C 96 % 8.8 C
1180 19-03-2017 02:15:00 9.4 C 96 % 8.8 C
1181 19-03-2017 02:20:00 9.4 C 96 % 8.8 C
1182 19-03-2017 02:25:00 9.4 C 96 % 8.8 C
1183 19-03-2017 02:30:00 9.4 C 96 % 8.8 C
1184 19-03-2017 02:35:00 9.4 C 96 % 8.8 C
1185 19-03-2017 02:40:00 9.3 C 96 % 8.7 C
1186 19-03-2017 02:45:00 9.3 C 96 % 8.7 C
1187 19-03-2017 02:50:00 9.3 C 96 % 8.7 C
1188 19-03-2017 02:55:00 9.3 C 96 % 8.7 C
1189 19-03-2017 03:00:00 9.4 C 96 % 8.8 C
1190 19-03-2017 03:05:00 9.6 C 96 % 8.99 C
1191 19-03-2017 03:10:00 9.7 C 97 % 9.25 C
1192 19-03-2017 03:15:00 9.9 C 97 % 9.45 C
1193 19-03-2017 03:20:00 10.1 C 97 % 9.65 C
1194 19-03-2017 03:25:00 10.2 C 97 % 9.75 C
1195 19-03-2017 03:30:00 10.3 C 97 % 9.85 C
1196 19-03-2017 03:35:00 10.3 C 96 % 9.69 C
1197 19-03-2017 03:40:00 10.4 C 97 % 9.94 C
1198 19-03-2017 03:45:00 10.4 C 97 % 9.94 C
1199 19-03-2017 03:50:00 10.4 C 97 % 9.94 C
1200 19-03-2017 03:55:00 10.4 C 97 % 9.94 C
Sensor: Nr:Datum:Temp:Feuchte:Taupunkt:
Aussen-T/F 1201 19-03-2017 04:00:00 10.4 C 96 % 9.79 C
1202 19-03-2017 04:05:00 10.4 C 96 % 9.79 C
1203 19-03-2017 04:10:00 10.4 C 96 % 9.79 C
1204 19-03-2017 04:15:00 10.4 C 96 % 9.79 C
1205 19-03-2017 04:20:00 10.4 C 96 % 9.79 C
1206 19-03-2017 04:25:00 10.5 C 96 % 9.89 C
1207 19-03-2017 04:30:00 10.5 C 96 % 9.89 C
1208 19-03-2017 04:35:00 10.5 C 96 % 9.89 C
1209 19-03-2017 04:40:00 10.5 C 96 % 9.89 C
1210 19-03-2017 04:45:00 10.5 C 96 % 9.89 C
1211 19-03-2017 04:50:00 10.5 C 96 % 9.89 C
1212 19-03-2017 04:55:00 10.5 C 96 % 9.89 C
1213 19-03-2017 05:00:00 10.5 C 96 % 9.89 C
1214 19-03-2017 05:05:00 10.5 C 96 % 9.89 C
1215 19-03-2017 05:10:00 10.5 C 96 % 9.89 C
1216 19-03-2017 05:15:00 10.5 C 96 % 9.89 C
1217 19-03-2017 05:20:00 10.6 C 96 % 9.99 C
1218 19-03-2017 05:25:00 10.6 C 96 % 9.99 C
1219 19-03-2017 05:30:00 10.6 C 96 % 9.99 C
1220 19-03-2017 05:35:00 10.6 C 96 % 9.99 C
1221 19-03-2017 05:40:00 10.6 C 96 % 9.99 C
1222 19-03-2017 05:45:00 10.6 C 95 % 9.83 C
1223 19-03-2017 05:50:00 10.6 C 95 % 9.83 C
1224 19-03-2017 05:55:00 10.6 C 95 % 9.83 C
1225 19-03-2017 06:00:00 10.7 C 95 % 9.93 C
Sensor: Nr:Datum:Temp:Feuchte:Taupunkt:
Aussen-T/F 1226 19-03-2017 06:05:00 10.7 C 95 % 9.93 C
1227 19-03-2017 06:10:00 10.7 C 95 % 9.93 C
1228 19-03-2017 06:15:00 10.7 C 95 % 9.93 C
1229 19-03-2017 06:20:00 10.7 C 95 % 9.93 C
1230 19-03-2017 06:25:00 10.7 C 95 % 9.93 C
1231 19-03-2017 06:30:00 10.7 C 95 % 9.93 C
1232 19-03-2017 06:35:00 10.7 C 95 % 9.93 C
1233 19-03-2017 06:40:00 10.6 C 95 % 9.83 C
1234 19-03-2017 06:45:00 10.7 C 95 % 9.93 C
1235 19-03-2017 06:50:00 10.7 C 95 % 9.93 C
1236 19-03-2017 06:55:00 10.7 C 95 % 9.93 C
1237 19-03-2017 07:00:00 10.7 C 95 % 9.93 C
1238 19-03-2017 07:05:00 10.8 C 95 % 10.03 C
1239 19-03-2017 07:10:00 10.8 C 95 % 10.03 C
1240 19-03-2017 07:15:00 10.8 C 95 % 10.03 C
1241 19-03-2017 07:20:00 10.8 C 95 % 10.03 C
1242 19-03-2017 07:25:00 10.8 C 95 % 10.03 C
1243 19-03-2017 07:30:00 10.9 C 95 % 10.13 C
1244 19-03-2017 07:35:00 10.9 C 95 % 10.13 C
1245 19-03-2017 07:40:00 11 C 94 % 10.07 C
1246 19-03-2017 07:45:00 11 C 94 % 10.07 C
1247 19-03-2017 07:50:00 11.1 C 94 % 10.17 C
1248 19-03-2017 07:55:00 11.2 C 94 % 10.27 C
1249 19-03-2017 08:00:00 11.2 C 94 % 10.27 C
1250 19-03-2017 08:05:00 11.3 C 93 % 10.21 C
Sensor: Nr:Datum:Temp:Feuchte:Taupunkt:
Aussen-T/F 1251 19-03-2017 08:10:00 11.3 C 93 % 10.21 C
1252 19-03-2017 08:15:00 11.4 C 92 % 10.15 C
1253 19-03-2017 08:20:00 11.5 C 92 % 10.25 C
1254 19-03-2017 08:25:00 11.6 C 92 % 10.35 C
1255 19-03-2017 08:30:00 11.7 C 91 % 10.28 C
1256 19-03-2017 08:35:00 11.7 C 91 % 10.28 C
1257 19-03-2017 08:40:00 11.8 C 91 % 10.38 C
1258 19-03-2017 08:45:00 11.8 C 91 % 10.38 C
1259 19-03-2017 08:50:00 11.9 C 90 % 10.31 C
1260 19-03-2017 08:55:00 11.9 C 90 % 10.31 C
1261 19-03-2017 09:00:00 12 C 91 % 10.58 C
1262 19-03-2017 09:05:00 12.1 C 90 % 10.51 C
1263 19-03-2017 09:10:00 12.2 C 90 % 10.61 C
1264 19-03-2017 09:15:00 12.2 C 90 % 10.61 C
1265 19-03-2017 09:20:00 12.3 C 89 % 10.54 C
1266 19-03-2017 09:25:00 12.3 C 89 % 10.54 C
1267 19-03-2017 09:30:00 12.4 C 89 % 10.64 C
1268 19-03-2017 09:35:00 12.4 C 89 % 10.64 C
1269 19-03-2017 09:40:00 12.4 C 88 % 10.47 C
1270 19-03-2017 09:45:00 12.4 C 88 % 10.47 C
1271 19-03-2017 09:50:00 12.4 C 88 % 10.47 C
1272 19-03-2017 09:55:00 12.3 C 88 % 10.37 C
1273 19-03-2017 10:00:00 12.3 C 88 % 10.37 C
1274 19-03-2017 10:05:00 12.3 C 88 % 10.37 C
1275 19-03-2017 10:10:00 12.3 C 88 % 10.37 C
Sensor: Nr:Datum:Temp:Feuchte:Taupunkt:
Aussen-T/F 1276 19-03-2017 10:15:00 12.3 C 88 % 10.37 C
1277 19-03-2017 10:20:00 12.3 C 88 % 10.37 C
1278 19-03-2017 10:25:00 12.2 C 88 % 10.27 C
1279 19-03-2017 10:30:00 12.2 C 88 % 10.27 C
1280 19-03-2017 10:35:00 12.2 C 88 % 10.27 C
1281 19-03-2017 10:40:00 12.2 C 88 % 10.27 C
1282 19-03-2017 10:45:00 12.2 C 88 % 10.27 C
1283 19-03-2017 10:50:00 12.2 C 88 % 10.27 C
1284 19-03-2017 10:55:00 12.2 C 89 % 10.44 C
1285 19-03-2017 11:00:00 12.2 C 89 % 10.44 C
1286 19-03-2017 11:05:00 12.2 C 89 % 10.44 C
1287 19-03-2017 11:10:00 12.3 C 89 % 10.54 C
1288 19-03-2017 11:15:00 12.4 C 89 % 10.64 C
1289 19-03-2017 11:20:00 12.6 C 88 % 10.67 C
1290 19-03-2017 11:25:00 12.6 C 88 % 10.67 C
1291 19-03-2017 11:30:00 12.7 C 88 % 10.77 C
1292 19-03-2017 11:35:00 12.8 C 88 % 10.86 C
1293 19-03-2017 11:40:00 13 C 87 % 10.89 C
1294 19-03-2017 11:45:00 13.2 C 87 % 11.09 C
1295 19-03-2017 11:50:00 13.3 C 86 % 11.01 C
1296 19-03-2017 11:55:00 13.3 C 86 % 11.01 C
1297 19-03-2017 12:00:00 13.4 C 86 % 11.11 C
1298 19-03-2017 12:05:00 13.5 C 86 % 11.21 C
1299 19-03-2017 12:10:00 13.6 C 86 % 11.3 C
1300 19-03-2017 12:15:00 13.8 C 85 % 11.32 C
Sensor: Nr:Datum:Temp:Feuchte:Taupunkt:
Aussen-T/F 1301 19-03-2017 12:20:00 13.8 C 85 % 11.32 C
1302 19-03-2017 12:25:00 13.9 C 84 % 11.24 C
1303 19-03-2017 12:30:00 13.9 C 85 % 11.42 C
1304 19-03-2017 12:35:00 13.9 C 85 % 11.42 C
1305 19-03-2017 12:40:00 14 C 85 % 11.52 C
1306 19-03-2017 12:45:00 14.1 C 84 % 11.44 C
1307 19-03-2017 12:50:00 14.2 C 85 % 11.72 C
1308 19-03-2017 12:55:00 14.3 C 83 % 11.45 C
1309 19-03-2017 13:00:00 14.3 C 83 % 11.45 C
1310 19-03-2017 13:05:00 14.4 C 83 % 11.55 C
1311 19-03-2017 13:10:00 14.4 C 83 % 11.55 C
1312 19-03-2017 13:15:00 14.5 C 82 % 11.47 C
1313 19-03-2017 13:20:00 14.7 C 82 % 11.66 C
1314 19-03-2017 13:25:00 14.8 C 81 % 11.57 C
1315 19-03-2017 13:30:00 14.8 C 80 % 11.39 C
1316 19-03-2017 13:35:00 14.8 C 80 % 11.39 C
1317 19-03-2017 13:40:00 14.8 C 80 % 11.39 C
1318 19-03-2017 13:45:00 14.8 C 81 % 11.57 C
1319 19-03-2017 13:50:00 14.9 C 80 % 11.48 C
1320 19-03-2017 13:55:00 14.9 C 80 % 11.48 C
1321 19-03-2017 14:00:00 14.9 C 80 % 11.48 C
1322 19-03-2017 14:05:00 15.1 C 80 % 11.68 C
1323 19-03-2017 14:10:00 15.1 C 79 % 11.49 C
1324 19-03-2017 14:15:00 15.2 C 79 % 11.59 C
1325 19-03-2017 14:20:00 15.3 C 79 % 11.68 C
Sensor: Nr:Datum:Temp:Feuchte:Taupunkt:
Aussen-T/F 1326 19-03-2017 14:25:00 15.4 C 77 % 11.39 C
1327 19-03-2017 14:30:00 15.4 C 77 % 11.39 C
1328 19-03-2017 14:35:00 15.4 C 77 % 11.39 C
1329 19-03-2017 14:40:00 15.3 C 76 % 11.1 C
1330 19-03-2017 14:45:00 15.3 C 77 % 11.3 C
1331 19-03-2017 14:50:00 15.3 C 76 % 11.1 C
1332 19-03-2017 14:55:00 15.3 C 76 % 11.1 C
1333 19-03-2017 15:00:00 15.3 C 76 % 11.1 C
1334 19-03-2017 15:05:00 15.3 C 75 % 10.9 C
1335 19-03-2017 15:10:00 15.3 C 75 % 10.9 C
1336 19-03-2017 15:15:00 15.3 C 76 % 11.1 C
1337 19-03-2017 15:20:00 15.3 C 75 % 10.9 C
1338 19-03-2017 15:25:00 15.3 C 77 % 11.3 C
1339 19-03-2017 15:30:00 15.2 C 77 % 11.2 C
1340 19-03-2017 15:35:00 15.2 C 78 % 11.39 C
1341 19-03-2017 15:40:00 15.1 C 76 % 10.9 C
1342 19-03-2017 15:45:00 15.1 C 75 % 10.71 C
1343 19-03-2017 15:50:00 15.2 C 76 % 11 C
1344 19-03-2017 15:55:00 15.2 C 77 % 11.2 C
1345 19-03-2017 16:00:00 15.1 C 77 % 11.1 C
1346 19-03-2017 16:05:00 15.2 C 76 % 11 C
1347 19-03-2017 16:10:00 15.2 C 76 % 11 C
1348 19-03-2017 16:15:00 15.2 C 73 % 10.4 C
1349 19-03-2017 16:20:00 15.3 C 70 % 9.87 C
1350 19-03-2017 16:25:00 15.2 C 71 % 9.98 C
Sensor: Nr:Datum:Temp:Feuchte:Taupunkt:
Aussen-T/F 1351 19-03-2017 16:30:00 15.2 C 71 % 9.98 C
1352 19-03-2017 16:35:00 15.1 C 72 % 10.09 C
1353 19-03-2017 16:40:00 15.1 C 72 % 10.09 C
1354 19-03-2017 16:45:00 14.9 C 73 % 10.11 C
1355 19-03-2017 16:50:00 14.9 C 74 % 10.31 C
1356 19-03-2017 16:55:00 14.8 C 73 % 10.01 C
1357 19-03-2017 17:00:00 14.8 C 74 % 10.22 C
1358 19-03-2017 17:05:00 15 C 73 % 10.2 C
1359 19-03-2017 17:10:00 15 C 70 % 9.58 C
1360 19-03-2017 17:15:00 14.8 C 71 % 9.6 C
1361 19-03-2017 17:20:00 14.6 C 72 % 9.61 C
1362 19-03-2017 17:25:00 14.4 C 72 % 9.42 C
1363 19-03-2017 17:30:00 14.3 C 73 % 9.53 C
1364 19-03-2017 17:35:00 14.2 C 75 % 9.84 C
1365 19-03-2017 17:40:00 14.1 C 76 % 9.94 C
1366 19-03-2017 17:45:00 14 C 76 % 9.84 C
1367 19-03-2017 17:50:00 13.8 C 76 % 9.65 C
1368 19-03-2017 17:55:00 13.8 C 77 % 9.84 C
1369 19-03-2017 18:00:00 13.7 C 77 % 9.75 C
1370 19-03-2017 18:05:00 13.7 C 75 % 9.35 C
1371 19-03-2017 18:10:00 13.6 C 73 % 8.86 C
1372 19-03-2017 18:15:00 13.6 C 72 % 8.65 C
1373 19-03-2017 18:20:00 13.6 C 71 % 8.45 C
1374 19-03-2017 18:25:00 13.6 C 69 % 8.03 C
1375 19-03-2017 18:30:00 13.6 C 69 % 8.03 C
Sensor: Nr:Datum:Temp:Feuchte:Taupunkt:
Aussen-T/F 1376 19-03-2017 18:35:00 13.5 C 69 % 7.93 C
1377 19-03-2017 18:40:00 13.4 C 68 % 7.62 C
1378 19-03-2017 18:45:00 13.4 C 69 % 7.84 C
1379 19-03-2017 18:50:00 13.3 C 69 % 7.74 C
1380 19-03-2017 18:55:00 13.3 C 69 % 7.74 C
1381 19-03-2017 19:00:00 13.2 C 70 % 7.86 C
1382 19-03-2017 19:05:00 13.2 C 70 % 7.86 C
1383 19-03-2017 19:10:00 13.1 C 70 % 7.76 C
1384 19-03-2017 19:15:00 13.1 C 70 % 7.76 C
1385 19-03-2017 19:20:00 13 C 71 % 7.87 C
1386 19-03-2017 19:25:00 12.9 C 71 % 7.78 C
1387 19-03-2017 19:30:00 12.8 C 72 % 7.88 C
1388 19-03-2017 19:35:00 12.7 C 71 % 7.58 C
1389 19-03-2017 19:40:00 12.7 C 71 % 7.58 C
1390 19-03-2017 19:45:00 12.6 C 72 % 7.69 C
1391 19-03-2017 19:50:00 12.6 C 72 % 7.69 C
1392 19-03-2017 19:55:00 12.5 C 73 % 7.8 C
1393 19-03-2017 20:00:00 12.4 C 74 % 7.9 C
1394 19-03-2017 20:05:00 12.4 C 74 % 7.9 C
1395 19-03-2017 20:10:00 12.4 C 74 % 7.9 C
1396 19-03-2017 20:15:00 12.4 C 75 % 8.1 C
1397 19-03-2017 20:20:00 12.3 C 75 % 8 C
1398 19-03-2017 20:25:00 12.3 C 74 % 7.8 C
1399 19-03-2017 20:30:00 12.2 C 75 % 7.91 C
1400 19-03-2017 20:35:00 12.2 C 75 % 7.91 C
Sensor: Nr:Datum:Temp:Feuchte:Taupunkt:
Aussen-T/F 1401 19-03-2017 20:40:00 12.1 C 75 % 7.81 C
1402 19-03-2017 20:45:00 12.1 C 76 % 8 C
1403 19-03-2017 20:50:00 12 C 75 % 7.71 C
1404 19-03-2017 20:55:00 11.9 C 75 % 7.62 C
1405 19-03-2017 21:00:00 11.9 C 76 % 7.81 C
1406 19-03-2017 21:05:00 11.9 C 76 % 7.81 C
1407 19-03-2017 21:10:00 11.8 C 76 % 7.71 C
1408 19-03-2017 21:15:00 11.8 C 77 % 7.9 C
1409 19-03-2017 21:20:00 11.7 C 77 % 7.81 C
1410 19-03-2017 21:25:00 11.6 C 77 % 7.71 C
1411 19-03-2017 21:30:00 11.6 C 79 % 8.09 C
1412 19-03-2017 21:35:00 11.6 C 79 % 8.09 C
1413 19-03-2017 21:40:00 11.6 C 78 % 7.9 C
1414 19-03-2017 21:45:00 11.6 C 79 % 8.09 C
1415 19-03-2017 21:50:00 11.6 C 79 % 8.09 C
1416 19-03-2017 21:55:00 11.6 C 78 % 7.9 C
1417 19-03-2017 22:00:00 11.6 C 78 % 7.9 C
1418 19-03-2017 22:05:00 11.7 C 77 % 7.81 C
1419 19-03-2017 22:10:00 11.7 C 78 % 8 C
1420 19-03-2017 22:15:00 11.7 C 78 % 8 C
1421 19-03-2017 22:20:00 11.6 C 78 % 7.9 C
1422 19-03-2017 22:25:00 11.6 C 78 % 7.9 C
1423 19-03-2017 22:30:00 11.6 C 79 % 8.09 C
1424 19-03-2017 22:35:00 11.5 C 80 % 8.17 C
1425 19-03-2017 22:40:00 11.4 C 79 % 7.89 C
Sensor: Nr:Datum:Temp:Feuchte:Taupunkt:
Aussen-T/F 1426 19-03-2017 22:45:00 11.4 C 79 % 7.89 C
1427 19-03-2017 22:50:00 11.4 C 78 % 7.71 C
1428 19-03-2017 22:55:00 11.4 C 78 % 7.71 C
1429 19-03-2017 23:00:00 11.4 C 79 % 7.89 C
1430 19-03-2017 23:05:00 11.3 C 78 % 7.61 C
1431 19-03-2017 23:10:00 11.3 C 78 % 7.61 C
1432 19-03-2017 23:15:00 11.4 C 77 % 7.52 C
1433 19-03-2017 23:20:00 11.4 C 76 % 7.33 C
1434 19-03-2017 23:25:00 11.5 C 76 % 7.42 C
1435 19-03-2017 23:30:00 11.4 C 77 % 7.52 C
1436 19-03-2017 23:35:00 11.4 C 76 % 7.33 C
1437 19-03-2017 23:40:00 11.4 C 76 % 7.33 C
1438 19-03-2017 23:45:00 11.5 C 75 % 7.23 C
1439 19-03-2017 23:50:00 11.6 C 75 % 7.33 C
1440 19-03-2017 23:55:00 11.5 C 76 % 7.42 C
1441 20-03-2017 00:00:00 11.4 C 75 % 7.13 C
1442 20-03-2017 00:05:00 11.4 C 75 % 7.13 C
1443 20-03-2017 00:10:00 11.3 C 75 % 7.04 C
1444 20-03-2017 00:15:00 11.3 C 75 % 7.04 C
1445 20-03-2017 00:20:00 11.3 C 75 % 7.04 C
1446 20-03-2017 00:25:00 11.3 C 76 % 7.23 C
1447 20-03-2017 00:30:00 11.3 C 75 % 7.04 C
1448 20-03-2017 00:35:00 11.3 C 76 % 7.23 C
1449 20-03-2017 00:40:00 11.3 C 76 % 7.23 C
1450 20-03-2017 00:45:00 11.2 C 76 % 7.13 C
Sensor: Nr:Datum:Temp:Feuchte:Taupunkt:
Aussen-T/F 1451 20-03-2017 00:50:00 11.2 C 76 % 7.13 C
1452 20-03-2017 00:55:00 11.2 C 76 % 7.13 C
1453 20-03-2017 01:00:00 11.2 C 76 % 7.13 C
1454 20-03-2017 01:05:00 11.2 C 76 % 7.13 C
1455 20-03-2017 01:10:00 11.2 C 76 % 7.13 C
1456 20-03-2017 01:15:00 11.2 C 76 % 7.13 C
1457 20-03-2017 01:20:00 11.2 C 76 % 7.13 C
1458 20-03-2017 01:25:00 11.2 C 76 % 7.13 C
1459 20-03-2017 01:30:00 11.2 C 76 % 7.13 C
1460 20-03-2017 01:35:00 11.2 C 76 % 7.13 C
1461 20-03-2017 01:40:00 11.2 C 76 % 7.13 C
1462 20-03-2017 01:45:00 11.1 C 76 % 7.04 C
1463 20-03-2017 01:50:00 11.1 C 76 % 7.04 C
1464 20-03-2017 01:55:00 11.1 C 76 % 7.04 C
1465 20-03-2017 02:00:00 11.1 C 76 % 7.04 C
1466 20-03-2017 02:05:00 11 C 76 % 6.94 C
1467 20-03-2017 02:10:00 10.9 C 77 % 7.03 C
1468 20-03-2017 02:15:00 10.9 C 76 % 6.84 C
1469 20-03-2017 02:20:00 10.9 C 77 % 7.03 C
1470 20-03-2017 02:25:00 10.9 C 77 % 7.03 C
1471 20-03-2017 02:30:00 10.9 C 77 % 7.03 C
1472 20-03-2017 02:35:00 10.8 C 78 % 7.12 C
1473 20-03-2017 02:40:00 10.8 C 78 % 7.12 C
1474 20-03-2017 02:45:00 10.8 C 78 % 7.12 C
1475 20-03-2017 02:50:00 10.7 C 79 % 7.21 C
Sensor: Nr:Datum:Temp:Feuchte:Taupunkt:
Aussen-T/F 1476 20-03-2017 02:55:00 10.7 C 79 % 7.21 C
1477 20-03-2017 03:00:00 10.7 C 79 % 7.21 C
1478 20-03-2017 03:05:00 10.7 C 79 % 7.21 C
1479 20-03-2017 03:10:00 10.7 C 79 % 7.21 C
1480 20-03-2017 03:15:00 10.6 C 79 % 7.11 C
1481 20-03-2017 03:20:00 10.6 C 80 % 7.3 C
1482 20-03-2017 03:25:00 10.5 C 80 % 7.2 C
1483 20-03-2017 03:30:00 10.5 C 80 % 7.2 C
1484 20-03-2017 03:35:00 10.4 C 80 % 7.1 C
1485 20-03-2017 03:40:00 10.4 C 80 % 7.1 C
1486 20-03-2017 03:45:00 10.4 C 79 % 6.92 C
1487 20-03-2017 03:50:00 10.5 C 79 % 7.02 C
1488 20-03-2017 03:55:00 10.5 C 79 % 7.02 C
1489 20-03-2017 04:00:00 10.6 C 79 % 7.11 C
1490 20-03-2017 04:05:00 10.6 C 79 % 7.11 C
1491 20-03-2017 04:10:00 10.6 C 79 % 7.11 C
1492 20-03-2017 04:15:00 10.6 C 79 % 7.11 C
1493 20-03-2017 04:20:00 10.6 C 79 % 7.11 C
1494 20-03-2017 04:25:00 10.6 C 79 % 7.11 C
1495 20-03-2017 04:30:00 10.6 C 79 % 7.11 C
1496 20-03-2017 04:35:00 10.5 C 79 % 7.02 C
1497 20-03-2017 04:40:00 10.4 C 79 % 6.92 C
1498 20-03-2017 04:45:00 10.4 C 80 % 7.1 C
1499 20-03-2017 04:50:00 10.4 C 80 % 7.1 C
1500 20-03-2017 04:55:00 10.5 C 79 % 7.02 C
Sensor: Nr:Datum:Temp:Feuchte:Taupunkt:
Aussen-T/F 1501 20-03-2017 05:00:00 10.5 C 79 % 7.02 C
1502 20-03-2017 05:05:00 10.6 C 79 % 7.11 C
1503 20-03-2017 05:10:00 10.6 C 79 % 7.11 C
1504 20-03-2017 05:15:00 10.6 C 80 % 7.3 C
1505 20-03-2017 05:20:00 10.6 C 80 % 7.3 C
1506 20-03-2017 05:25:00 10.5 C 80 % 7.2 C
1507 20-03-2017 05:30:00 10.6 C 80 % 7.3 C
1508 20-03-2017 05:35:00 10.5 C 80 % 7.2 C
1509 20-03-2017 05:40:00 10.5 C 80 % 7.2 C
1510 20-03-2017 05:45:00 10.5 C 80 % 7.2 C
1511 20-03-2017 05:50:00 10.4 C 80 % 7.1 C
1512 20-03-2017 05:55:00 10.4 C 80 % 7.1 C
1513 20-03-2017 06:00:00 10.4 C 80 % 7.1 C
1514 20-03-2017 06:05:00 10.4 C 80 % 7.1 C
1515 20-03-2017 06:10:00 10.4 C 80 % 7.1 C
1516 20-03-2017 06:15:00 10.4 C 80 % 7.1 C
1517 20-03-2017 06:20:00 10.4 C 80 % 7.1 C
1518 20-03-2017 06:25:00 10.4 C 80 % 7.1 C
1519 20-03-2017 06:30:00 10.4 C 80 % 7.1 C
1520 20-03-2017 06:35:00 10.4 C 80 % 7.1 C
1521 20-03-2017 06:40:00 10.4 C 81 % 7.28 C
1522 20-03-2017 06:45:00 10.4 C 80 % 7.1 C
1523 20-03-2017 06:50:00 10.4 C 81 % 7.28 C
1524 20-03-2017 06:55:00 10.4 C 81 % 7.28 C
1525 20-03-2017 07:00:00 10.4 C 81 % 7.28 C
Sensor: Nr:Datum:Temp:Feuchte:Taupunkt:
Aussen-T/F 1526 20-03-2017 07:05:00 10.4 C 81 % 7.28 C
1527 20-03-2017 07:10:00 10.4 C 81 % 7.28 C
1528 20-03-2017 07:15:00 10.4 C 80 % 7.1 C
1529 20-03-2017 07:20:00 10.4 C 80 % 7.1 C
1530 20-03-2017 07:25:00 10.5 C 80 % 7.2 C
1531 20-03-2017 07:30:00 10.5 C 80 % 7.2 C
1532 20-03-2017 07:35:00 10.5 C 80 % 7.2 C
1533 20-03-2017 07:40:00 10.5 C 80 % 7.2 C
1534 20-03-2017 07:45:00 10.5 C 80 % 7.2 C
1535 20-03-2017 07:50:00 10.5 C 80 % 7.2 C
1536 20-03-2017 07:55:00 10.5 C 80 % 7.2 C
1537 20-03-2017 08:00:00 10.6 C 80 % 7.3 C
1538 20-03-2017 08:05:00 10.7 C 79 % 7.21 C
1539 20-03-2017 08:10:00 10.7 C 79 % 7.21 C
1540 20-03-2017 08:15:00 10.8 C 79 % 7.31 C
1541 20-03-2017 08:20:00 10.8 C 79 % 7.31 C
1542 20-03-2017 08:25:00 10.9 C 79 % 7.41 C
1543 20-03-2017 08:30:00 10.9 C 79 % 7.41 C
1544 20-03-2017 08:35:00 11 C 79 % 7.5 C
1545 20-03-2017 08:40:00 11.1 C 79 % 7.6 C
1546 20-03-2017 08:45:00 11.2 C 79 % 7.7 C
1547 20-03-2017 08:50:00 11.2 C 79 % 7.7 C
1548 20-03-2017 08:55:00 11.3 C 79 % 7.8 C
1549 20-03-2017 09:00:00 11.3 C 78 % 7.61 C
1550 20-03-2017 09:05:00 11.4 C 79 % 7.89 C
Sensor: Nr:Datum:Temp:Feuchte:Taupunkt:
Aussen-T/F 1551 20-03-2017 09:10:00 11.4 C 78 % 7.71 C
1552 20-03-2017 09:15:00 11.5 C 78 % 7.8 C
1553 20-03-2017 09:20:00 11.5 C 78 % 7.8 C
1554 20-03-2017 09:25:00 11.6 C 78 % 7.9 C
1555 20-03-2017 09:30:00 11.6 C 78 % 7.9 C
1556 20-03-2017 09:35:00 11.6 C 78 % 7.9 C
1557 20-03-2017 09:40:00 11.6 C 79 % 8.09 C
1558 20-03-2017 09:45:00 11.7 C 77 % 7.81 C
1559 20-03-2017 09:50:00 11.8 C 77 % 7.9 C
1560 20-03-2017 09:55:00 11.9 C 77 % 8 C
1561 20-03-2017 10:00:00 12.1 C 76 % 8 C
1562 20-03-2017 10:05:00 12.2 C 76 % 8.1 C
1563 20-03-2017 10:10:00 12.4 C 75 % 8.1 C
1564 20-03-2017 10:15:00 12.5 C 74 % 8 C
1565 20-03-2017 10:20:00 12.5 C 74 % 8 C
1566 20-03-2017 10:25:00 12.5 C 74 % 8 C
1567 20-03-2017 10:30:00 12.6 C 75 % 8.29 C
1568 20-03-2017 10:35:00 12.7 C 73 % 7.99 C
1569 20-03-2017 10:40:00 12.7 C 73 % 7.99 C
1570 20-03-2017 10:45:00 12.8 C 73 % 8.09 C
1571 20-03-2017 10:50:00 12.8 C 73 % 8.09 C
1572 20-03-2017 10:55:00 12.9 C 72 % 7.98 C
1573 20-03-2017 11:00:00 12.9 C 71 % 7.78 C
1574 20-03-2017 11:05:00 13 C 71 % 7.87 C
1575 20-03-2017 11:10:00 13.1 C 70 % 7.76 C
Sensor: Nr:Datum:Temp:Feuchte:Taupunkt:
Aussen-T/F 1576 20-03-2017 11:15:00 13.1 C 69 % 7.55 C
1577 20-03-2017 11:20:00 13.1 C 69 % 7.55 C
1578 20-03-2017 11:25:00 13.2 C 67 % 7.21 C
1579 20-03-2017 11:30:00 13.3 C 67 % 7.31 C
1580 20-03-2017 11:35:00 13.3 C 68 % 7.53 C
1581 20-03-2017 11:40:00 13.4 C 67 % 7.4 C
1582 20-03-2017 11:45:00 13.3 C 66 % 7.09 C
1583 20-03-2017 11:50:00 13.2 C 67 % 7.21 C
1584 20-03-2017 11:55:00 13.1 C 67 % 7.12 C
1585 20-03-2017 12:00:00 13.1 C 68 % 7.34 C
1586 20-03-2017 12:05:00 13.3 C 68 % 7.53 C
1587 20-03-2017 12:10:00 13.6 C 67 % 7.6 C
1588 20-03-2017 12:15:00 13.8 C 67 % 7.79 C
1589 20-03-2017 12:20:00 13.9 C 67 % 7.88 C
1590 20-03-2017 12:25:00 13.8 C 67 % 7.79 C
1591 20-03-2017 12:30:00 13.9 C 67 % 7.88 C
1592 20-03-2017 12:35:00 14.1 C 67 % 8.07 C
1593 20-03-2017 12:40:00 14.2 C 66 % 7.95 C
1594 20-03-2017 12:45:00 14.1 C 66 % 7.85 C
1595 20-03-2017 12:50:00 14 C 66 % 7.76 C
1596 20-03-2017 12:55:00 13.8 C 67 % 7.79 C
1597 20-03-2017 13:00:00 13.7 C 68 % 7.91 C
1598 20-03-2017 13:05:00 13.7 C 68 % 7.91 C
1599 20-03-2017 13:10:00 13.6 C 68 % 7.81 C
1600 20-03-2017 13:15:00 13.6 C 68 % 7.81 C
Sensor: Nr:Datum:Temp:Feuchte:Taupunkt:
Aussen-T/F 1601 20-03-2017 13:20:00 13.5 C 68 % 7.72 C
1602 20-03-2017 13:25:00 13.4 C 68 % 7.62 C
1603 20-03-2017 13:30:00 13.4 C 69 % 7.84 C
1604 20-03-2017 13:35:00 13.3 C 70 % 7.95 C
1605 20-03-2017 13:40:00 13.3 C 69 % 7.74 C
1606 20-03-2017 13:45:00 13.3 C 69 % 7.74 C
1607 20-03-2017 13:50:00 13.4 C 68 % 7.62 C
1608 20-03-2017 13:55:00 13.6 C 67 % 7.6 C
1609 20-03-2017 14:00:00 13.7 C 67 % 7.69 C
1610 20-03-2017 14:05:00 13.7 C 66 % 7.47 C
1611 20-03-2017 14:10:00 13.7 C 67 % 7.69 C
1612 20-03-2017 14:15:00 13.6 C 66 % 7.38 C
1613 20-03-2017 14:20:00 13.6 C 67 % 7.6 C
1614 20-03-2017 14:25:00 13.7 C 68 % 7.91 C
1615 20-03-2017 14:30:00 13.8 C 67 % 7.79 C
1616 20-03-2017 14:35:00 13.7 C 67 % 7.69 C
1617 20-03-2017 14:40:00 13.6 C 68 % 7.81 C
1618 20-03-2017 14:45:00 13.5 C 68 % 7.72 C
1619 20-03-2017 14:50:00 13.4 C 68 % 7.62 C
1620 20-03-2017 14:55:00 13.5 C 69 % 7.93 C
1621 20-03-2017 15:00:00 13.4 C 69 % 7.84 C
1622 20-03-2017 15:05:00 13.3 C 69 % 7.74 C
1623 20-03-2017 15:10:00 13.2 C 69 % 7.64 C
1624 20-03-2017 15:15:00 13.1 C 69 % 7.55 C
1625 20-03-2017 15:20:00 13.1 C 70 % 7.76 C
Sensor: Nr:Datum:Temp:Feuchte:Taupunkt:
Aussen-T/F 1626 20-03-2017 15:25:00 13.1 C 70 % 7.76 C
1627 20-03-2017 15:30:00 13.1 C 69 % 7.55 C
1628 20-03-2017 15:35:00 13.1 C 69 % 7.55 C
1629 20-03-2017 15:40:00 12.9 C 69 % 7.36 C
1630 20-03-2017 15:45:00 12.8 C 70 % 7.47 C
1631 20-03-2017 15:50:00 12.7 C 71 % 7.58 C
1632 20-03-2017 15:55:00 12.7 C 72 % 7.79 C
1633 20-03-2017 16:00:00 12.7 C 72 % 7.79 C
1634 20-03-2017 16:05:00 12.8 C 72 % 7.88 C
1635 20-03-2017 16:10:00 12.8 C 71 % 7.68 C
1636 20-03-2017 16:15:00 12.7 C 71 % 7.58 C
1637 20-03-2017 16:20:00 12.7 C 72 % 7.79 C
1638 20-03-2017 16:25:00 12.6 C 72 % 7.69 C
1639 20-03-2017 16:30:00 12.6 C 72 % 7.69 C
1640 20-03-2017 16:35:00 12.5 C 71 % 7.39 C
1641 20-03-2017 16:40:00 12.4 C 71 % 7.3 C
1642 20-03-2017 16:45:00 12.3 C 71 % 7.2 C
1643 20-03-2017 16:50:00 12.3 C 71 % 7.2 C
1644 20-03-2017 16:55:00 12.2 C 71 % 7.1 C
1645 20-03-2017 17:00:00 12.2 C 71 % 7.1 C
1646 20-03-2017 17:05:00 12.2 C 71 % 7.1 C
1647 20-03-2017 17:10:00 12.2 C 71 % 7.1 C
1648 20-03-2017 17:15:00 12.1 C 71 % 7.01 C
1649 20-03-2017 17:20:00 12.1 C 71 % 7.01 C
1650 20-03-2017 17:25:00 12.1 C 71 % 7.01 C
Sensor: Nr:Datum:Temp:Feuchte:Taupunkt:
Aussen-T/F 1651 20-03-2017 17:30:00 12.1 C 71 % 7.01 C
1652 20-03-2017 17:35:00 12 C 71 % 6.91 C
1653 20-03-2017 17:40:00 12.1 C 72 % 7.21 C
1654 20-03-2017 17:45:00 12 C 72 % 7.12 C
1655 20-03-2017 17:50:00 12 C 72 % 7.12 C
1656 20-03-2017 17:55:00 11.9 C 72 % 7.02 C
1657 20-03-2017 18:00:00 11.9 C 72 % 7.02 C
1658 20-03-2017 18:05:00 11.9 C 72 % 7.02 C
1659 20-03-2017 18:10:00 11.9 C 71 % 6.82 C
1660 20-03-2017 18:15:00 11.8 C 71 % 6.72 C
1661 20-03-2017 18:20:00 11.8 C 71 % 6.72 C
1662 20-03-2017 18:25:00 11.8 C 71 % 6.72 C
1663 20-03-2017 18:30:00 11.8 C 70 % 6.51 C
1664 20-03-2017 18:35:00 11.7 C 70 % 6.42 C
1665 20-03-2017 18:40:00 11.6 C 70 % 6.32 C
1666 20-03-2017 18:45:00 11.6 C 70 % 6.32 C
1667 20-03-2017 18:50:00 11.5 C 71 % 6.43 C
1668 20-03-2017 18:55:00 11.5 C 71 % 6.43 C
1669 20-03-2017 19:00:00 11.4 C 70 % 6.13 C
1670 20-03-2017 19:05:00 11.4 C 71 % 6.34 C
1671 20-03-2017 19:10:00 11.3 C 71 % 6.24 C
1672 20-03-2017 19:15:00 11.3 C 70 % 6.03 C
1673 20-03-2017 19:20:00 11.2 C 71 % 6.14 C
1674 20-03-2017 19:25:00 11.2 C 71 % 6.14 C
1675 20-03-2017 19:30:00 11.2 C 71 % 6.14 C
Sensor: Nr:Datum:Temp:Feuchte:Taupunkt:
Aussen-T/F 1676 20-03-2017 19:35:00 11.1 C 72 % 6.25 C
1677 20-03-2017 19:40:00 11.1 C 72 % 6.25 C
1678 20-03-2017 19:45:00 11.1 C 72 % 6.25 C
1679 20-03-2017 19:50:00 11.1 C 72 % 6.25 C
1680 20-03-2017 19:55:00 11 C 73 % 6.35 C
1681 20-03-2017 20:00:00 10.9 C 73 % 6.26 C
1682 20-03-2017 20:05:00 10.9 C 74 % 6.45 C
1683 20-03-2017 20:10:00 10.9 C 74 % 6.45 C
1684 20-03-2017 20:15:00 10.8 C 74 % 6.36 C
1685 20-03-2017 20:20:00 10.8 C 74 % 6.36 C
1686 20-03-2017 20:25:00 10.8 C 74 % 6.36 C
1687 20-03-2017 20:30:00 10.8 C 74 % 6.36 C
1688 20-03-2017 20:35:00 10.8 C 74 % 6.36 C
1689 20-03-2017 20:40:00 10.8 C 74 % 6.36 C
1690 20-03-2017 20:45:00 10.8 C 75 % 6.55 C
1691 20-03-2017 20:50:00 10.7 C 74 % 6.26 C
1692 20-03-2017 20:55:00 10.7 C 74 % 6.26 C
1693 20-03-2017 21:00:00 10.7 C 75 % 6.46 C
1694 20-03-2017 21:05:00 10.7 C 74 % 6.26 C
1695 20-03-2017 21:10:00 10.7 C 75 % 6.46 C
1696 20-03-2017 21:15:00 10.7 C 74 % 6.26 C
1697 20-03-2017 21:20:00 10.7 C 75 % 6.46 C
1698 20-03-2017 21:25:00 10.8 C 74 % 6.36 C
1699 20-03-2017 21:30:00 10.8 C 74 % 6.36 C
1700 20-03-2017 21:35:00 10.8 C 74 % 6.36 C
Sensor: Nr:Datum:Temp:Feuchte:Taupunkt:
Aussen-T/F 1701 20-03-2017 21:40:00 10.8 C 74 % 6.36 C
1702 20-03-2017 21:45:00 10.8 C 75 % 6.55 C
1703 20-03-2017 21:50:00 10.8 C 75 % 6.55 C
1704 20-03-2017 21:55:00 10.8 C 75 % 6.55 C
1705 20-03-2017 22:00:00 10.8 C 74 % 6.36 C
1706 20-03-2017 22:05:00 10.8 C 75 % 6.55 C
1707 20-03-2017 22:10:00 10.8 C 75 % 6.55 C
1708 20-03-2017 22:15:00 10.7 C 75 % 6.46 C
1709 20-03-2017 22:20:00 10.8 C 75 % 6.55 C
1710 20-03-2017 22:25:00 10.8 C 76 % 6.75 C
1711 20-03-2017 22:30:00 10.8 C 75 % 6.55 C
1712 20-03-2017 22:35:00 10.8 C 75 % 6.55 C
1713 20-03-2017 22:40:00 10.7 C 75 % 6.46 C
1714 20-03-2017 22:45:00 10.7 C 75 % 6.46 C
1715 20-03-2017 22:50:00 10.7 C 75 % 6.46 C
1716 20-03-2017 22:55:00 10.7 C 75 % 6.46 C
1717 20-03-2017 23:00:00 10.7 C 75 % 6.46 C
1718 20-03-2017 23:05:00 10.7 C 75 % 6.46 C
1719 20-03-2017 23:10:00 10.6 C 75 % 6.36 C
1720 20-03-2017 23:15:00 10.6 C 75 % 6.36 C
1721 20-03-2017 23:20:00 10.6 C 76 % 6.55 C
1722 20-03-2017 23:25:00 10.6 C 75 % 6.36 C
1723 20-03-2017 23:30:00 10.6 C 76 % 6.55 C
1724 20-03-2017 23:35:00 10.6 C 76 % 6.55 C
1725 20-03-2017 23:40:00 10.6 C 76 % 6.55 C
Sensor: Nr:Datum:Temp:Feuchte:Taupunkt:
Aussen-T/F 1726 20-03-2017 23:45:00 10.6 C 76 % 6.55 C
1727 20-03-2017 23:50:00 10.5 C 76 % 6.45 C
1728 20-03-2017 23:55:00 10.5 C 76 % 6.45 C
1729 21-03-2017 00:00:00 10.5 C 76 % 6.45 C
1730 21-03-2017 00:05:00 10.6 C 76 % 6.55 C
1731 21-03-2017 00:10:00 10.6 C 76 % 6.55 C
1732 21-03-2017 00:15:00 10.6 C 76 % 6.55 C
1733 21-03-2017 00:20:00 10.7 C 76 % 6.65 C
1734 21-03-2017 00:25:00 10.7 C 76 % 6.65 C
1735 21-03-2017 00:30:00 10.7 C 76 % 6.65 C
1736 21-03-2017 00:35:00 10.8 C 76 % 6.75 C
1737 21-03-2017 00:40:00 10.8 C 76 % 6.75 C
1738 21-03-2017 00:45:00 10.8 C 76 % 6.75 C
1739 21-03-2017 00:50:00 10.8 C 76 % 6.75 C
1740 21-03-2017 00:55:00 10.8 C 76 % 6.75 C
1741 21-03-2017 01:00:00 10.8 C 76 % 6.75 C
1742 21-03-2017 01:05:00 10.8 C 76 % 6.75 C
1743 21-03-2017 01:10:00 10.8 C 76 % 6.75 C
1744 21-03-2017 01:15:00 10.8 C 76 % 6.75 C
1745 21-03-2017 01:20:00 10.8 C 76 % 6.75 C
1746 21-03-2017 01:25:00 10.8 C 76 % 6.75 C
1747 21-03-2017 01:30:00 10.8 C 76 % 6.75 C
1748 21-03-2017 01:35:00 10.8 C 76 % 6.75 C
1749 21-03-2017 01:40:00 10.8 C 77 % 6.94 C
1750 21-03-2017 01:45:00 10.7 C 77 % 6.84 C
Sensor: Nr:Datum:Temp:Feuchte:Taupunkt:
Aussen-T/F 1751 21-03-2017 01:50:00 10.7 C 77 % 6.84 C
1752 21-03-2017 01:55:00 10.7 C 77 % 6.84 C
1753 21-03-2017 02:00:00 10.7 C 77 % 6.84 C
1754 21-03-2017 02:05:00 10.8 C 77 % 6.94 C
1755 21-03-2017 02:10:00 10.8 C 77 % 6.94 C
1756 21-03-2017 02:15:00 10.8 C 77 % 6.94 C
1757 21-03-2017 02:20:00 10.9 C 77 % 7.03 C
1758 21-03-2017 02:25:00 10.9 C 77 % 7.03 C
1759 21-03-2017 02:30:00 10.9 C 77 % 7.03 C
1760 21-03-2017 02:35:00 10.9 C 77 % 7.03 C
1761 21-03-2017 02:40:00 11 C 77 % 7.13 C
1762 21-03-2017 02:45:00 10.9 C 77 % 7.03 C
1763 21-03-2017 02:50:00 11 C 78 % 7.32 C
1764 21-03-2017 02:55:00 10.9 C 78 % 7.22 C
1765 21-03-2017 03:00:00 10.9 C 78 % 7.22 C
1766 21-03-2017 03:05:00 10.9 C 79 % 7.41 C
1767 21-03-2017 03:10:00 10.8 C 79 % 7.31 C
1768 21-03-2017 03:15:00 10.8 C 80 % 7.49 C
1769 21-03-2017 03:20:00 10.8 C 80 % 7.49 C
1770 21-03-2017 03:25:00 10.7 C 80 % 7.4 C
1771 21-03-2017 03:30:00 10.7 C 81 % 7.58 C
1772 21-03-2017 03:35:00 10.7 C 81 % 7.58 C
1773 21-03-2017 03:40:00 10.7 C 81 % 7.58 C
1774 21-03-2017 03:45:00 10.7 C 81 % 7.58 C
1775 21-03-2017 03:50:00 10.7 C 82 % 7.76 C
Sensor: Nr:Datum:Temp:Feuchte:Taupunkt:
Aussen-T/F 1776 21-03-2017 03:55:00 10.7 C 82 % 7.76 C
1777 21-03-2017 04:00:00 10.6 C 82 % 7.66 C
1778 21-03-2017 04:05:00 10.6 C 82 % 7.66 C
1779 21-03-2017 04:10:00 10.6 C 83 % 7.84 C
1780 21-03-2017 04:15:00 10.6 C 83 % 7.84 C
1781 21-03-2017 04:20:00 10.6 C 83 % 7.84 C
1782 21-03-2017 04:25:00 10.5 C 83 % 7.74 C
1783 21-03-2017 04:30:00 10.5 C 84 % 7.91 C
1784 21-03-2017 04:35:00 10.5 C 84 % 7.91 C
1785 21-03-2017 04:40:00 10.4 C 85 % 7.99 C
1786 21-03-2017 04:45:00 10.4 C 86 % 8.16 C
1787 21-03-2017 04:50:00 10.3 C 87 % 8.23 C
1788 21-03-2017 04:55:00 10.2 C 87 % 8.14 C
1789 21-03-2017 05:00:00 10.1 C 88 % 8.21 C
1790 21-03-2017 05:05:00 10 C 89 % 8.27 C
1791 21-03-2017 05:10:00 9.9 C 89 % 8.17 C
1792 21-03-2017 05:15:00 9.8 C 90 % 8.24 C
1793 21-03-2017 05:20:00 9.7 C 90 % 8.14 C
1794 21-03-2017 05:25:00 9.7 C 90 % 8.14 C
1795 21-03-2017 05:30:00 9.7 C 91 % 8.3 C
1796 21-03-2017 05:35:00 9.6 C 91 % 8.21 C
1797 21-03-2017 05:40:00 9.6 C 91 % 8.21 C
1798 21-03-2017 05:45:00 9.6 C 91 % 8.21 C
1799 21-03-2017 05:50:00 9.6 C 91 % 8.21 C
1800 21-03-2017 05:55:00 9.6 C 91 % 8.21 C
Sensor: Nr:Datum:Temp:Feuchte:Taupunkt:
Aussen-T/F 1801 21-03-2017 06:00:00 9.5 C 91 % 8.11 C
1802 21-03-2017 06:05:00 9.5 C 92 % 8.27 C
1803 21-03-2017 06:10:00 9.5 C 92 % 8.27 C
1804 21-03-2017 06:15:00 9.4 C 92 % 8.17 C
1805 21-03-2017 06:20:00 9.4 C 92 % 8.17 C
1806 21-03-2017 06:25:00 9.4 C 92 % 8.17 C
1807 21-03-2017 06:30:00 9.4 C 92 % 8.17 C
1808 21-03-2017 06:35:00 9.4 C 92 % 8.17 C
1809 21-03-2017 06:40:00 9.3 C 93 % 8.23 C
1810 21-03-2017 06:45:00 9.3 C 93 % 8.23 C
1811 21-03-2017 06:50:00 9.3 C 93 % 8.23 C
1812 21-03-2017 06:55:00 9.3 C 93 % 8.23 C
1813 21-03-2017 07:00:00 9.3 C 93 % 8.23 C
1814 21-03-2017 07:05:00 9.3 C 93 % 8.23 C
1815 21-03-2017 07:10:00 9.3 C 93 % 8.23 C
1816 21-03-2017 07:15:00 9.3 C 93 % 8.23 C
1817 21-03-2017 07:20:00 9.3 C 93 % 8.23 C
1818 21-03-2017 07:25:00 9.3 C 93 % 8.23 C
1819 21-03-2017 07:30:00 9.3 C 93 % 8.23 C
1820 21-03-2017 07:35:00 9.3 C 94 % 8.39 C
1821 21-03-2017 07:40:00 9.3 C 94 % 8.39 C
1822 21-03-2017 07:45:00 9.3 C 94 % 8.39 C
1823 21-03-2017 07:50:00 9.3 C 94 % 8.39 C
1824 21-03-2017 07:55:00 9.3 C 94 % 8.39 C
1825 21-03-2017 08:00:00 9.3 C 94 % 8.39 C
Sensor: Nr:Datum:Temp:Feuchte:Taupunkt:
Aussen-T/F 1826 21-03-2017 08:05:00 9.4 C 94 % 8.48 C
1827 21-03-2017 08:10:00 9.4 C 94 % 8.48 C
1828 21-03-2017 08:15:00 9.5 C 94 % 8.58 C
1829 21-03-2017 08:20:00 9.5 C 94 % 8.58 C
1830 21-03-2017 08:25:00 9.6 C 94 % 8.68 C
1831 21-03-2017 08:30:00 9.6 C 94 % 8.68 C
1832 21-03-2017 08:35:00 9.6 C 94 % 8.68 C
1833 21-03-2017 08:40:00 9.5 C 94 % 8.58 C
1834 21-03-2017 08:45:00 9.6 C 94 % 8.68 C
1835 21-03-2017 08:50:00 9.5 C 93 % 8.43 C
1836 21-03-2017 08:55:00 9.6 C 93 % 8.53 C
1837 21-03-2017 09:00:00 9.7 C 93 % 8.62 C
1838 21-03-2017 09:05:00 9.7 C 92 % 8.46 C
1839 21-03-2017 09:10:00 9.8 C 93 % 8.72 C
1840 21-03-2017 09:15:00 10 C 93 % 8.92 C
1841 21-03-2017 09:20:00 10.1 C 92 % 8.86 C
1842 21-03-2017 09:25:00 10.2 C 91 % 8.8 C
1843 21-03-2017 09:30:00 10.3 C 91 % 8.9 C
1844 21-03-2017 09:35:00 10.4 C 91 % 9 C
1845 21-03-2017 09:40:00 10.4 C 90 % 8.83 C
1846 21-03-2017 09:45:00 10.6 C 91 % 9.19 C
1847 21-03-2017 09:50:00 10.7 C 90 % 9.13 C
1848 21-03-2017 09:55:00 10.7 C 89 % 8.96 C
1849 21-03-2017 10:00:00 10.8 C 88 % 8.89 C
1850 21-03-2017 10:05:00 10.8 C 89 % 9.06 C
Sensor: Nr:Datum:Temp:Feuchte:Taupunkt:
Aussen-T/F 1851 21-03-2017 10:10:00 10.9 C 89 % 9.16 C
1852 21-03-2017 10:15:00 11.1 C 89 % 9.36 C
1853 21-03-2017 10:20:00 11.2 C 88 % 9.29 C
1854 21-03-2017 10:25:00 11.3 C 87 % 9.22 C
1855 21-03-2017 10:30:00 11.3 C 86 % 9.05 C
1856 21-03-2017 10:35:00 11.5 C 85 % 9.07 C
1857 21-03-2017 10:40:00 11.6 C 84 % 8.99 C
1858 21-03-2017 10:45:00 11.7 C 81 % 8.55 C
1859 21-03-2017 10:50:00 11.7 C 79 % 8.18 C
1860 21-03-2017 10:55:00 11.7 C 79 % 8.18 C
1861 21-03-2017 11:00:00 11.8 C 78 % 8.09 C
1862 21-03-2017 11:05:00 11.9 C 78 % 8.19 C
1863 21-03-2017 11:10:00 12.1 C 78 % 8.38 C
1864 21-03-2017 11:15:00 12.1 C 77 % 8.2 C
1865 21-03-2017 11:20:00 12.1 C 75 % 7.81 C
1866 21-03-2017 11:25:00 12.1 C 75 % 7.81 C
1867 21-03-2017 11:30:00 12.1 C 74 % 7.61 C
1868 21-03-2017 11:35:00 12.2 C 74 % 7.71 C
1869 21-03-2017 11:40:00 12.2 C 75 % 7.91 C
1870 21-03-2017 11:45:00 12.3 C 75 % 8 C
1871 21-03-2017 11:50:00 12.5 C 71 % 7.39 C
1872 21-03-2017 11:55:00 12.6 C 68 % 6.86 C
1873 21-03-2017 12:00:00 12.6 C 67 % 6.64 C
1874 21-03-2017 12:05:00 12.6 C 68 % 6.86 C
1875 21-03-2017 12:10:00 12.6 C 67 % 6.64 C
Sensor: Nr:Datum:Temp:Feuchte:Taupunkt:
Aussen-T/F 1876 21-03-2017 12:15:00 12.7 C 67 % 6.74 C
1877 21-03-2017 12:20:00 12.6 C 65 % 6.2 C
1878 21-03-2017 12:25:00 12.6 C 66 % 6.42 C
1879 21-03-2017 12:30:00 12.7 C 69 % 7.17 C
1880 21-03-2017 12:35:00 12.7 C 66 % 6.52 C
1881 21-03-2017 12:40:00 12.8 C 66 % 6.61 C
1882 21-03-2017 12:45:00 12.7 C 65 % 6.3 C
1883 21-03-2017 12:50:00 12.6 C 66 % 6.42 C
1884 21-03-2017 12:55:00 12.5 C 67 % 6.55 C
1885 21-03-2017 13:00:00 12.6 C 67 % 6.64 C
1886 21-03-2017 13:05:00 12.6 C 66 % 6.42 C
1887 21-03-2017 13:10:00 12.4 C 65 % 6.01 C
1888 21-03-2017 13:15:00 12.3 C 67 % 6.36 C
1889 21-03-2017 13:20:00 11.9 C 73 % 7.22 C
1890 21-03-2017 13:25:00 11.1 C 76 % 7.04 C
1891 21-03-2017 13:30:00 10.1 C 80 % 6.81 C
1892 21-03-2017 13:35:00 9.5 C 83 % 6.76 C
1893 21-03-2017 13:40:00 9.3 C 86 % 7.08 C
1894 21-03-2017 13:45:00 9.2 C 87 % 7.15 C
1895 21-03-2017 13:50:00 9.2 C 89 % 7.48 C
1896 21-03-2017 13:55:00 9.3 C 90 % 7.75 C
1897 21-03-2017 14:00:00 9.3 C 90 % 7.75 C
1898 21-03-2017 14:05:00 9.3 C 91 % 7.91 C
1899 21-03-2017 14:10:00 9.3 C 90 % 7.75 C
1900 21-03-2017 14:15:00 9.3 C 91 % 7.91 C
Sensor: Nr:Datum:Temp:Feuchte:Taupunkt:
Aussen-T/F 1901 21-03-2017 14:20:00 9.3 C 91 % 7.91 C
1902 21-03-2017 14:25:00 9.4 C 91 % 8.01 C
1903 21-03-2017 14:30:00 9.5 C 89 % 7.78 C
1904 21-03-2017 14:35:00 9.6 C 89 % 7.88 C
1905 21-03-2017 14:40:00 9.6 C 89 % 7.88 C
1906 21-03-2017 14:45:00 9.7 C 89 % 7.98 C
1907 21-03-2017 14:50:00 9.7 C 89 % 7.98 C
1908 21-03-2017 14:55:00 9.7 C 90 % 8.14 C
1909 21-03-2017 15:00:00 9.7 C 90 % 8.14 C
1910 21-03-2017 15:05:00 9.2 C 84 % 6.64 C
1911 21-03-2017 15:10:00 8.9 C 84 % 6.35 C
1912 21-03-2017 15:15:00 8.8 C 86 % 6.59 C
1913 21-03-2017 15:20:00 8.6 C 86 % 6.39 C
1914 21-03-2017 15:25:00 8.4 C 84 % 5.86 C
1915 21-03-2017 15:30:00 8.4 C 86 % 6.2 C
1916 21-03-2017 15:35:00 8.4 C 86 % 6.2 C
1917 21-03-2017 15:40:00 8.4 C 86 % 6.2 C
1918 21-03-2017 15:45:00 8.3 C 87 % 6.27 C
1919 21-03-2017 15:50:00 8.3 C 87 % 6.27 C
1920 21-03-2017 15:55:00 8.2 C 87 % 6.17 C
1921 21-03-2017 16:00:00 8.2 C 88 % 6.33 C
1922 21-03-2017 16:05:00 8.2 C 89 % 6.5 C
1923 21-03-2017 16:10:00 8.3 C 89 % 6.6 C
1924 21-03-2017 16:15:00 8.3 C 89 % 6.6 C
1925 21-03-2017 16:20:00 8.3 C 88 % 6.43 C
Sensor: Nr:Datum:Temp:Feuchte:Taupunkt:
Aussen-T/F 1926 21-03-2017 16:25:00 8.3 C 88 % 6.43 C
1927 21-03-2017 16:30:00 8.3 C 87 % 6.27 C
1928 21-03-2017 16:35:00 8.4 C 87 % 6.37 C
1929 21-03-2017 16:40:00 8.6 C 87 % 6.56 C
1930 21-03-2017 16:45:00 8.6 C 86 % 6.39 C
1931 21-03-2017 16:50:00 8.7 C 85 % 6.32 C
1932 21-03-2017 16:55:00 8.7 C 84 % 6.15 C
1933 21-03-2017 17:00:00 8.8 C 83 % 6.08 C
1934 21-03-2017 17:05:00 8.8 C 84 % 6.25 C
1935 21-03-2017 17:10:00 8.8 C 83 % 6.08 C
1936 21-03-2017 17:15:00 8.9 C 83 % 6.17 C
1937 21-03-2017 17:20:00 8.9 C 83 % 6.17 C
1938 21-03-2017 17:25:00 8.9 C 84 % 6.35 C
1939 21-03-2017 17:30:00 8.9 C 84 % 6.35 C
1940 21-03-2017 17:35:00 8.9 C 83 % 6.17 C
1941 21-03-2017 17:40:00 8.9 C 82 % 6 C
1942 21-03-2017 17:45:00 8.9 C 81 % 5.82 C
1943 21-03-2017 17:50:00 8.9 C 83 % 6.17 C
1944 21-03-2017 17:55:00 9 C 83 % 6.27 C
1945 21-03-2017 18:00:00 8.9 C 84 % 6.35 C
1946 21-03-2017 18:05:00 8.9 C 84 % 6.35 C
1947 21-03-2017 18:10:00 8.8 C 84 % 6.25 C
1948 21-03-2017 18:15:00 8.7 C 83 % 5.98 C
1949 21-03-2017 18:20:00 8.6 C 84 % 6.05 C
1950 21-03-2017 18:25:00 8.5 C 83 % 5.78 C
Sensor: Nr:Datum:Temp:Feuchte:Taupunkt:
Aussen-T/F 1951 21-03-2017 18:30:00 8.4 C 83 % 5.69 C
1952 21-03-2017 18:35:00 8.3 C 81 % 5.24 C
1953 21-03-2017 18:40:00 8.3 C 76 % 4.33 C
1954 21-03-2017 18:45:00 8.4 C 75 % 4.23 C
1955 21-03-2017 18:50:00 8.6 C 79 % 5.17 C
1956 21-03-2017 18:55:00 8.4 C 76 % 4.42 C
1957 21-03-2017 19:00:00 8.4 C 78 % 4.79 C
1958 21-03-2017 19:05:00 8.2 C 79 % 4.78 C
1959 21-03-2017 19:10:00 8.1 C 78 % 4.5 C
1960 21-03-2017 19:15:00 8 C 79 % 4.59 C
1961 21-03-2017 19:20:00 7.9 C 81 % 4.85 C
1962 21-03-2017 19:25:00 7.8 C 81 % 4.75 C
1963 21-03-2017 19:30:00 7.7 C 82 % 4.83 C
1964 21-03-2017 19:35:00 7.6 C 83 % 4.9 C
1965 21-03-2017 19:40:00 7.5 C 84 % 4.98 C
1966 21-03-2017 19:45:00 7.4 C 83 % 4.71 C
1967 21-03-2017 19:50:00 7.3 C 83 % 4.61 C
1968 21-03-2017 19:55:00 7.2 C 81 % 4.16 C
1969 21-03-2017 20:00:00 7.2 C 80 % 3.99 C
1970 21-03-2017 20:05:00 7.3 C 76 % 3.36 C
1971 21-03-2017 20:10:00 7.4 C 77 % 3.64 C
1972 21-03-2017 20:15:00 7.4 C 74 % 3.08 C
1973 21-03-2017 20:20:00 7.4 C 74 % 3.08 C
1974 21-03-2017 20:25:00 7.4 C 74 % 3.08 C
1975 21-03-2017 20:30:00 7.4 C 75 % 3.27 C
Sensor: Nr:Datum:Temp:Feuchte:Taupunkt:
Aussen-T/F 1976 21-03-2017 20:35:00 7.4 C 76 % 3.45 C
1977 21-03-2017 20:40:00 7.3 C 77 % 3.54 C
1978 21-03-2017 20:45:00 7.3 C 78 % 3.73 C
1979 21-03-2017 20:50:00 7.2 C 80 % 3.99 C
1980 21-03-2017 20:55:00 7.1 C 80 % 3.89 C
1981 21-03-2017 21:00:00 6.9 C 79 % 3.52 C
1982 21-03-2017 21:05:00 6.9 C 78 % 3.34 C
1983 21-03-2017 21:10:00 6.8 C 76 % 2.87 C
1984 21-03-2017 21:15:00 6.8 C 75 % 2.69 C
1985 21-03-2017 21:20:00 6.8 C 78 % 3.24 C
1986 21-03-2017 21:25:00 6.8 C 78 % 3.24 C
1987 21-03-2017 21:30:00 6.8 C 80 % 3.6 C
1988 21-03-2017 21:35:00 6.8 C 82 % 3.95 C
1989 21-03-2017 21:40:00 6.7 C 82 % 3.85 C
1990 21-03-2017 21:45:00 6.7 C 83 % 4.02 C
1991 21-03-2017 21:50:00 6.5 C 84 % 4 C
1992 21-03-2017 21:55:00 6.4 C 84 % 3.9 C
1993 21-03-2017 22:00:00 6.3 C 85 % 3.97 C
1994 21-03-2017 22:05:00 6.1 C 85 % 3.77 C
1995 21-03-2017 22:10:00 6 C 86 % 3.84 C
1996 21-03-2017 22:15:00 5.9 C 87 % 3.91 C
1997 21-03-2017 22:20:00 5.9 C 87 % 3.91 C
1998 21-03-2017 22:25:00 5.8 C 87 % 3.81 C
1999 21-03-2017 22:30:00 5.8 C 87 % 3.81 C
2000 21-03-2017 22:35:00 5.7 C 87 % 3.71 C
Sensor: Nr:Datum:Temp:Feuchte:Taupunkt:
Aussen-T/F 2001 21-03-2017 22:40:00 5.6 C 88 % 3.77 C
2002 21-03-2017 22:45:00 5.6 C 88 % 3.77 C
2003 21-03-2017 22:50:00 5.5 C 88 % 3.67 C
2004 21-03-2017 22:55:00 5.4 C 88 % 3.58 C
2005 21-03-2017 23:00:00 5.3 C 88 % 3.48 C
2006 21-03-2017 23:05:00 5.2 C 88 % 3.38 C
2007 21-03-2017 23:10:00 5.1 C 88 % 3.28 C
2008 21-03-2017 23:15:00 5.1 C 89 % 3.44 C
2009 21-03-2017 23:20:00 5 C 89 % 3.34 C
2010 21-03-2017 23:25:00 4.9 C 89 % 3.24 C
2011 21-03-2017 23:30:00 4.8 C 89 % 3.14 C
2012 21-03-2017 23:35:00 4.7 C 89 % 3.05 C
2013 21-03-2017 23:40:00 4.5 C 88 % 2.69 C
2014 21-03-2017 23:45:00 4.3 C 88 % 2.49 C
2015 21-03-2017 23:50:00 4.2 C 88 % 2.39 C
2016 21-03-2017 23:55:00 4.1 C 89 % 2.45 C
2017 22-03-2017 00:00:00 4 C 89 % 2.36 C
2018 22-03-2017 00:05:00 3.8 C 89 % 2.16 C
2019 22-03-2017 00:10:00 3.8 C 90 % 2.31 C
2020 22-03-2017 00:15:00 3.8 C 90 % 2.31 C
2021 22-03-2017 00:20:00 3.8 C 90 % 2.31 C
2022 22-03-2017 00:25:00 3.8 C 90 % 2.31 C
2023 22-03-2017 00:30:00 3.8 C 90 % 2.31 C
2024 22-03-2017 00:35:00 3.7 C 90 % 2.22 C
2025 22-03-2017 00:40:00 3.7 C 90 % 2.22 C
Sensor: Nr:Datum:Temp:Feuchte:Taupunkt:
Aussen-T/F 2026 22-03-2017 00:45:00 3.6 C 90 % 2.12 C
2027 22-03-2017 00:50:00 3.5 C 90 % 2.02 C
2028 22-03-2017 00:55:00 3.3 C 90 % 1.82 C
2029 22-03-2017 01:00:00 3.2 C 90 % 1.72 C
2030 22-03-2017 01:05:00 3.2 C 90 % 1.72 C
2031 22-03-2017 01:10:00 3.1 C 90 % 1.62 C
2032 22-03-2017 01:15:00 3 C 90 % 1.52 C
2033 22-03-2017 01:20:00 2.8 C 90 % 1.33 C
2034 22-03-2017 01:25:00 2.7 C 90 % 1.23 C
2035 22-03-2017 01:30:00 2.6 C 90 % 1.13 C
2036 22-03-2017 01:35:00 2.5 C 90 % 1.03 C
2037 22-03-2017 01:40:00 2.4 C 90 % 0.93 C
2038 22-03-2017 01:45:00 2.4 C 91 % 1.08 C
2039 22-03-2017 01:50:00 2.4 C 91 % 1.08 C
2040 22-03-2017 01:55:00 2.3 C 91 % 0.99 C
2041 22-03-2017 02:00:00 2.2 C 90 % 0.73 C
2042 22-03-2017 02:05:00 2.2 C 91 % 0.89 C
2043 22-03-2017 02:10:00 2.2 C 91 % 0.89 C
2044 22-03-2017 02:15:00 2.1 C 91 % 0.79 C
2045 22-03-2017 02:20:00 1.9 C 91 % 0.59 C
2046 22-03-2017 02:25:00 1.8 C 91 % 0.49 C
2047 22-03-2017 02:30:00 1.7 C 91 % 0.39 C
2048 22-03-2017 02:35:00 1.7 C 92 % 0.54 C
2049 22-03-2017 02:40:00 1.7 C 92 % 0.54 C
2050 22-03-2017 02:45:00 1.6 C 92 % 0.44 C
Sensor: Nr:Datum:Temp:Feuchte:Taupunkt:
Aussen-T/F 2051 22-03-2017 02:50:00 1.6 C 92 % 0.44 C
2052 22-03-2017 02:55:00 1.6 C 92 % 0.44 C
2053 22-03-2017 03:00:00 1.5 C 92 % 0.35 C
2054 22-03-2017 03:05:00 1.5 C 92 % 0.35 C
2055 22-03-2017 03:10:00 1.5 C 93 % 0.49 C
2056 22-03-2017 03:15:00 1.6 C 93 % 0.59 C
2057 22-03-2017 03:20:00 1.4 C 92 % 0.25 C
2058 22-03-2017 03:25:00 1.4 C 92 % 0.25 C
2059 22-03-2017 03:30:00 1.4 C 92 % 0.25 C
2060 22-03-2017 03:35:00 1.4 C 93 % 0.4 C
2061 22-03-2017 03:40:00 1.5 C 93 % 0.49 C
2062 22-03-2017 03:45:00 1.4 C 93 % 0.4 C
2063 22-03-2017 03:50:00 1.4 C 93 % 0.4 C
2064 22-03-2017 03:55:00 1.4 C 93 % 0.4 C
2065 22-03-2017 04:00:00 1.4 C 93 % 0.4 C
2066 22-03-2017 04:05:00 1.3 C 93 % 0.3 C
2067 22-03-2017 04:10:00 1.3 C 93 % 0.3 C
2068 22-03-2017 04:15:00 1.2 C 93 % 0.2 C
2069 22-03-2017 04:20:00 1.2 C 93 % 0.2 C
2070 22-03-2017 04:25:00 1.1 C 93 % 0.1 C
2071 22-03-2017 04:30:00 1 C 93 % 0 C
2072 22-03-2017 04:35:00 0.9 C 93 % -0.1 C
2073 22-03-2017 04:40:00 0.8 C 93 % -0.2 C
2074 22-03-2017 04:45:00 0.8 C 93 % -0.2 C
2075 22-03-2017 04:50:00 0.7 C 93 % -0.3 C
Sensor: Nr:Datum:Temp:Feuchte:Taupunkt:
Aussen-T/F 2076 22-03-2017 04:55:00 0.8 C 94 % -0.05 C
2077 22-03-2017 05:00:00 0.9 C 94 % 0.05 C
2078 22-03-2017 05:05:00 1 C 94 % 0.15 C
2079 22-03-2017 05:10:00 1.1 C 94 % 0.24 C
2080 22-03-2017 05:15:00 1.1 C 94 % 0.24 C
2081 22-03-2017 05:20:00 1 C 94 % 0.15 C
2082 22-03-2017 05:25:00 0.8 C 94 % -0.05 C
2083 22-03-2017 05:30:00 0.8 C 94 % -0.05 C
2084 22-03-2017 05:35:00 0.8 C 94 % -0.05 C
2085 22-03-2017 05:40:00 0.8 C 94 % -0.05 C
2086 22-03-2017 05:45:00 0.9 C 95 % 0.19 C
2087 22-03-2017 05:50:00 1.1 C 95 % 0.39 C
2088 22-03-2017 05:55:00 1.1 C 95 % 0.39 C
2089 22-03-2017 06:00:00 1.2 C 95 % 0.49 C
2090 22-03-2017 06:05:00 1.2 C 95 % 0.49 C
2091 22-03-2017 06:10:00 1.2 C 95 % 0.49 C
2092 22-03-2017 06:15:00 1.3 C 95 % 0.59 C
2093 22-03-2017 06:20:00 1.3 C 95 % 0.59 C
2094 22-03-2017 06:25:00 1.3 C 95 % 0.59 C
2095 22-03-2017 06:30:00 1.3 C 95 % 0.59 C
2096 22-03-2017 06:35:00 1.3 C 95 % 0.59 C
2097 22-03-2017 06:40:00 1.2 C 95 % 0.49 C
2098 22-03-2017 06:45:00 1.2 C 95 % 0.49 C
2099 22-03-2017 06:50:00 1.2 C 95 % 0.49 C
2100 22-03-2017 06:55:00 1.3 C 95 % 0.59 C
Sensor: Nr:Datum:Temp:Feuchte:Taupunkt:
Aussen-T/F 2101 22-03-2017 07:00:00 1.3 C 95 % 0.59 C
2102 22-03-2017 07:05:00 1.3 C 95 % 0.59 C
2103 22-03-2017 07:10:00 1.3 C 95 % 0.59 C
2104 22-03-2017 07:15:00 1.4 C 95 % 0.69 C
2105 22-03-2017 07:20:00 1.4 C 95 % 0.69 C
2106 22-03-2017 07:25:00 1.5 C 95 % 0.79 C
2107 22-03-2017 07:30:00 1.6 C 95 % 0.89 C
2108 22-03-2017 07:35:00 1.6 C 95 % 0.89 C
2109 22-03-2017 07:40:00 1.7 C 95 % 0.99 C
2110 22-03-2017 07:45:00 1.7 C 95 % 0.99 C
2111 22-03-2017 07:50:00 1.8 C 95 % 1.09 C
2112 22-03-2017 07:55:00 1.8 C 95 % 1.09 C
2113 22-03-2017 08:00:00 1.8 C 95 % 1.09 C
2114 22-03-2017 08:05:00 1.9 C 96 % 1.33 C
2115 22-03-2017 08:10:00 1.9 C 96 % 1.33 C
2116 22-03-2017 08:15:00 2 C 96 % 1.43 C
2117 22-03-2017 08:20:00 1.9 C 95 % 1.19 C
2118 22-03-2017 08:25:00 2 C 95 % 1.29 C
2119 22-03-2017 08:30:00 2.1 C 95 % 1.38 C
2120 22-03-2017 08:35:00 2.2 C 96 % 1.63 C
2121 22-03-2017 08:40:00 2.3 C 96 % 1.73 C
2122 22-03-2017 08:45:00 2.4 C 96 % 1.83 C
2123 22-03-2017 08:50:00 2.5 C 96 % 1.93 C
2124 22-03-2017 08:55:00 2.6 C 96 % 2.03 C
2125 22-03-2017 09:00:00 2.6 C 96 % 2.03 C
Sensor: Nr:Datum:Temp:Feuchte:Taupunkt:
Aussen-T/F 2126 22-03-2017 09:05:00 2.7 C 96 % 2.13 C
2127 22-03-2017 09:10:00 2.8 C 96 % 2.23 C
2128 22-03-2017 09:15:00 2.8 C 96 % 2.23 C
2129 22-03-2017 09:20:00 2.9 C 96 % 2.33 C
2130 22-03-2017 09:25:00 3 C 96 % 2.43 C
2131 22-03-2017 09:30:00 3.1 C 96 % 2.53 C
2132 22-03-2017 09:35:00 3.3 C 96 % 2.72 C
2133 22-03-2017 09:40:00 3.4 C 96 % 2.82 C
2134 22-03-2017 09:45:00 3.6 C 96 % 3.02 C
2135 22-03-2017 09:50:00 3.7 C 96 % 3.12 C
2136 22-03-2017 09:55:00 3.8 C 96 % 3.22 C
2137 22-03-2017 10:00:00 3.9 C 95 % 3.17 C
2138 22-03-2017 10:05:00 3.9 C 95 % 3.17 C
2139 22-03-2017 10:10:00 4.1 C 95 % 3.37 C
2140 22-03-2017 10:15:00 4.2 C 95 % 3.47 C
2141 22-03-2017 10:20:00 4.3 C 94 % 3.42 C
2142 22-03-2017 10:25:00 4.4 C 94 % 3.52 C
2143 22-03-2017 10:30:00 4.7 C 94 % 3.82 C
2144 22-03-2017 10:35:00 4.8 C 93 % 3.77 C
2145 22-03-2017 10:40:00 4.9 C 93 % 3.87 C
2146 22-03-2017 10:45:00 5 C 92 % 3.81 C
2147 22-03-2017 10:50:00 5.1 C 92 % 3.91 C
2148 22-03-2017 10:55:00 5.1 C 92 % 3.91 C
2149 22-03-2017 11:00:00 5.2 C 92 % 4.01 C
2150 22-03-2017 11:05:00 5.3 C 92 % 4.11 C
Sensor: Nr:Datum:Temp:Feuchte:Taupunkt:
Aussen-T/F 2151 22-03-2017 11:10:00 5.5 C 92 % 4.31 C
2152 22-03-2017 11:15:00 5.7 C 92 % 4.5 C
2153 22-03-2017 11:20:00 5.8 C 92 % 4.6 C
2154 22-03-2017 11:25:00 5.9 C 92 % 4.7 C
2155 22-03-2017 11:30:00 6 C 91 % 4.65 C
2156 22-03-2017 11:35:00 6.1 C 91 % 4.74 C
2157 22-03-2017 11:40:00 6.2 C 91 % 4.84 C
2158 22-03-2017 11:45:00 6.3 C 91 % 4.94 C
2159 22-03-2017 11:50:00 6.5 C 91 % 5.14 C
2160 22-03-2017 11:55:00 6.8 C 91 % 5.44 C
2161 22-03-2017 12:00:00 6.9 C 89 % 5.22 C
2162 22-03-2017 12:05:00 7.1 C 88 % 5.25 C
2163 22-03-2017 12:10:00 7.3 C 87 % 5.28 C
2164 22-03-2017 12:15:00 7.4 C 85 % 5.05 C
2165 22-03-2017 12:20:00 7.6 C 85 % 5.24 C
2166 22-03-2017 12:25:00 7.7 C 84 % 5.17 C
2167 22-03-2017 12:30:00 7.7 C 84 % 5.17 C
2168 22-03-2017 12:35:00 7.8 C 84 % 5.27 C
2169 22-03-2017 12:40:00 7.8 C 84 % 5.27 C
2170 22-03-2017 12:45:00 7.8 C 84 % 5.27 C
2171 22-03-2017 12:50:00 7.9 C 84 % 5.37 C
2172 22-03-2017 12:55:00 7.9 C 84 % 5.37 C
2173 22-03-2017 13:00:00 8.1 C 85 % 5.73 C
2174 22-03-2017 13:05:00 8.2 C 84 % 5.66 C
2175 22-03-2017 13:10:00 8.3 C 84 % 5.76 C
Sensor: Nr:Datum:Temp:Feuchte:Taupunkt:
Aussen-T/F 2176 22-03-2017 13:15:00 8.4 C 82 % 5.51 C
2177 22-03-2017 13:20:00 8.4 C 82 % 5.51 C
2178 22-03-2017 13:25:00 8.6 C 82 % 5.71 C
2179 22-03-2017 13:30:00 8.6 C 81 % 5.53 C
2180 22-03-2017 13:35:00 8.6 C 81 % 5.53 C
2181 22-03-2017 13:40:00 8.6 C 81 % 5.53 C
2182 22-03-2017 13:45:00 8.5 C 81 % 5.43 C
2183 22-03-2017 13:50:00 8.6 C 81 % 5.53 C
2184 22-03-2017 13:55:00 8.6 C 81 % 5.53 C
2185 22-03-2017 14:00:00 8.6 C 81 % 5.53 C
2186 22-03-2017 14:05:00 8.7 C 80 % 5.45 C
2187 22-03-2017 14:10:00 8.7 C 80 % 5.45 C
2188 22-03-2017 14:15:00 8.8 C 79 % 5.36 C
2189 22-03-2017 14:20:00 8.9 C 80 % 5.64 C
2190 22-03-2017 14:25:00 9.1 C 79 % 5.66 C
2191 22-03-2017 14:30:00 9.2 C 78 % 5.57 C
2192 22-03-2017 14:35:00 9.3 C 78 % 5.67 C
2193 22-03-2017 14:40:00 9.4 C 77 % 5.58 C
2194 22-03-2017 14:45:00 9.5 C 77 % 5.68 C
2195 22-03-2017 14:50:00 9.6 C 76 % 5.58 C
2196 22-03-2017 14:55:00 9.7 C 75 % 5.49 C
2197 22-03-2017 15:00:00 9.7 C 76 % 5.68 C
2198 22-03-2017 15:05:00 9.8 C 76 % 5.78 C
2199 22-03-2017 15:10:00 9.9 C 74 % 5.49 C
2200 22-03-2017 15:15:00 9.9 C 74 % 5.49 C
Sensor: Nr:Datum:Temp:Feuchte:Taupunkt:
Aussen-T/F 2201 22-03-2017 15:20:00 9.8 C 73 % 5.2 C
2202 22-03-2017 15:25:00 9.8 C 74 % 5.39 C
2203 22-03-2017 15:30:00 9.9 C 74 % 5.49 C
2204 22-03-2017 15:35:00 9.9 C 74 % 5.49 C
2205 22-03-2017 15:40:00 9.8 C 74 % 5.39 C
2206 22-03-2017 15:45:00 9.8 C 75 % 5.59 C
2207 22-03-2017 15:50:00 9.9 C 73 % 5.29 C
2208 22-03-2017 15:55:00 9.9 C 73 % 5.29 C
2209 22-03-2017 16:00:00 9.9 C 72 % 5.1 C
2210 22-03-2017 16:05:00 9.9 C 72 % 5.1 C
2211 22-03-2017 16:10:00 9.8 C 72 % 5 C
2212 22-03-2017 16:15:00 9.8 C 73 % 5.2 C
2213 22-03-2017 16:20:00 9.6 C 73 % 5.01 C
2214 22-03-2017 16:25:00 9.6 C 73 % 5.01 C
2215 22-03-2017 16:30:00 9.5 C 75 % 5.3 C
2216 22-03-2017 16:35:00 9.4 C 75 % 5.2 C
2217 22-03-2017 16:40:00 9.4 C 75 % 5.2 C
2218 22-03-2017 16:45:00 9.3 C 75 % 5.1 C
2219 22-03-2017 16:50:00 9.3 C 76 % 5.29 C
2220 22-03-2017 16:55:00 9.3 C 76 % 5.29 C
2221 22-03-2017 17:00:00 9.2 C 76 % 5.2 C
2222 22-03-2017 17:05:00 9.2 C 77 % 5.38 C
2223 22-03-2017 17:10:00 9.2 C 79 % 5.75 C
2224 22-03-2017 17:15:00 9.2 C 79 % 5.75 C
2225 22-03-2017 17:20:00 9.1 C 80 % 5.84 C
Sensor: Nr:Datum:Temp:Feuchte:Taupunkt:
Aussen-T/F 2226 22-03-2017 17:25:00 9.1 C 80 % 5.84 C
2227 22-03-2017 17:30:00 8.9 C 81 % 5.82 C
2228 22-03-2017 17:35:00 8.9 C 81 % 5.82 C
2229 22-03-2017 17:40:00 8.9 C 81 % 5.82 C
2230 22-03-2017 17:45:00 8.8 C 81 % 5.72 C
2231 22-03-2017 17:50:00 8.8 C 82 % 5.9 C
2232 22-03-2017 17:55:00 8.7 C 82 % 5.8 C
2233 22-03-2017 18:00:00 8.7 C 82 % 5.8 C
2234 22-03-2017 18:05:00 8.6 C 82 % 5.71 C
2235 22-03-2017 18:10:00 8.5 C 82 % 5.61 C
2236 22-03-2017 18:15:00 8.5 C 83 % 5.78 C
2237 22-03-2017 18:20:00 8.4 C 83 % 5.69 C
2238 22-03-2017 18:25:00 8.3 C 83 % 5.59 C
2239 22-03-2017 18:30:00 8.3 C 84 % 5.76 C
2240 22-03-2017 18:35:00 8.3 C 84 % 5.76 C
2241 22-03-2017 18:40:00 8.2 C 84 % 5.66 C
2242 22-03-2017 18:45:00 8.2 C 84 % 5.66 C
2243 22-03-2017 18:50:00 8.2 C 84 % 5.66 C
2244 22-03-2017 18:55:00 8.1 C 85 % 5.73 C
2245 22-03-2017 19:00:00 8.1 C 84 % 5.56 C
2246 22-03-2017 19:05:00 8.1 C 84 % 5.56 C
2247 22-03-2017 19:10:00 8 C 85 % 5.64 C
2248 22-03-2017 19:15:00 7.9 C 85 % 5.54 C
2249 22-03-2017 19:20:00 7.9 C 85 % 5.54 C
2250 22-03-2017 19:25:00 7.9 C 85 % 5.54 C
Sensor: Nr:Datum:Temp:Feuchte:Taupunkt:
Aussen-T/F 2251 22-03-2017 19:30:00 7.9 C 85 % 5.54 C
2252 22-03-2017 19:35:00 7.8 C 85 % 5.44 C
2253 22-03-2017 19:40:00 7.8 C 85 % 5.44 C
2254 22-03-2017 19:45:00 7.8 C 86 % 5.61 C
2255 22-03-2017 19:50:00 7.7 C 85 % 5.34 C
2256 22-03-2017 19:55:00 7.7 C 86 % 5.51 C
2257 22-03-2017 20:00:00 7.7 C 86 % 5.51 C
2258 22-03-2017 20:05:00 7.7 C 86 % 5.51 C
2259 22-03-2017 20:10:00 7.7 C 86 % 5.51 C
2260 22-03-2017 20:15:00 7.7 C 86 % 5.51 C
2261 22-03-2017 20:20:00 7.6 C 86 % 5.41 C
2262 22-03-2017 20:25:00 7.6 C 87 % 5.58 C
2263 22-03-2017 20:30:00 7.6 C 87 % 5.58 C
2264 22-03-2017 20:35:00 7.6 C 87 % 5.58 C
2265 22-03-2017 20:40:00 7.5 C 87 % 5.48 C
2266 22-03-2017 20:45:00 7.4 C 87 % 5.38 C
2267 22-03-2017 20:50:00 7.4 C 87 % 5.38 C
2268 22-03-2017 20:55:00 7.4 C 87 % 5.38 C
2269 22-03-2017 21:00:00 7.4 C 87 % 5.38 C
2270 22-03-2017 21:05:00 7.4 C 87 % 5.38 C
2271 22-03-2017 21:10:00 7.4 C 87 % 5.38 C
2272 22-03-2017 21:15:00 7.3 C 87 % 5.28 C
2273 22-03-2017 21:20:00 7.3 C 88 % 5.45 C
2274 22-03-2017 21:25:00 7.3 C 88 % 5.45 C
2275 22-03-2017 21:30:00 7.3 C 87 % 5.28 C
Sensor: Nr:Datum:Temp:Feuchte:Taupunkt:
Aussen-T/F 2276 22-03-2017 21:35:00 7.3 C 87 % 5.28 C
2277 22-03-2017 21:40:00 7.3 C 88 % 5.45 C
2278 22-03-2017 21:45:00 7.3 C 88 % 5.45 C
2279 22-03-2017 21:50:00 7.3 C 88 % 5.45 C
2280 22-03-2017 21:55:00 7.3 C 88 % 5.45 C
2281 22-03-2017 22:00:00 7.3 C 88 % 5.45 C
2282 22-03-2017 22:05:00 7.3 C 88 % 5.45 C
2283 22-03-2017 22:10:00 7.2 C 88 % 5.35 C
2284 22-03-2017 22:15:00 7.2 C 88 % 5.35 C
2285 22-03-2017 22:20:00 7.2 C 89 % 5.51 C
2286 22-03-2017 22:25:00 7.2 C 89 % 5.51 C
2287 22-03-2017 22:30:00 7.2 C 88 % 5.35 C
2288 22-03-2017 22:35:00 7.2 C 89 % 5.51 C
2289 22-03-2017 22:40:00 7.2 C 89 % 5.51 C
2290 22-03-2017 22:45:00 7.2 C 89 % 5.51 C
2291 22-03-2017 22:50:00 7.2 C 88 % 5.35 C
2292 22-03-2017 22:55:00 7.2 C 89 % 5.51 C
2293 22-03-2017 23:00:00 7.2 C 89 % 5.51 C
2294 22-03-2017 23:05:00 7.2 C 89 % 5.51 C
2295 22-03-2017 23:10:00 7.2 C 89 % 5.51 C
2296 22-03-2017 23:15:00 7.2 C 89 % 5.51 C
2297 22-03-2017 23:20:00 7.2 C 89 % 5.51 C
2298 22-03-2017 23:25:00 7.2 C 89 % 5.51 C
2299 22-03-2017 23:30:00 7.2 C 89 % 5.51 C
2300 22-03-2017 23:35:00 7.2 C 89 % 5.51 C
Sensor: Nr:Datum:Temp:Feuchte:Taupunkt:
Aussen-T/F 2301 22-03-2017 23:40:00 7.2 C 89 % 5.51 C
2302 22-03-2017 23:45:00 7.2 C 89 % 5.51 C
2303 22-03-2017 23:50:00 7.2 C 89 % 5.51 C
2304 22-03-2017 23:55:00 7.2 C 89 % 5.51 C
2305 23-03-2017 00:00:00 7.2 C 89 % 5.51 C
2306 23-03-2017 00:05:00 7.2 C 90 % 5.67 C
2307 23-03-2017 00:10:00 7.2 C 90 % 5.67 C
2308 23-03-2017 00:15:00 7.1 C 89 % 5.41 C
2309 23-03-2017 00:20:00 7.1 C 89 % 5.41 C
2310 23-03-2017 00:25:00 7.1 C 90 % 5.57 C
2311 23-03-2017 00:30:00 7.1 C 89 % 5.41 C
2312 23-03-2017 00:35:00 7.1 C 90 % 5.57 C
2313 23-03-2017 00:40:00 7.1 C 89 % 5.41 C
2314 23-03-2017 00:45:00 7 C 89 % 5.31 C
2315 23-03-2017 00:50:00 6.9 C 90 % 5.38 C
2316 23-03-2017 00:55:00 6.8 C 89 % 5.12 C
2317 23-03-2017 01:00:00 6.7 C 89 % 5.02 C
2318 23-03-2017 01:05:00 6.6 C 89 % 4.92 C
2319 23-03-2017 01:10:00 6.6 C 89 % 4.92 C
2320 23-03-2017 01:15:00 6.4 C 90 % 4.88 C
2321 23-03-2017 01:20:00 6.4 C 90 % 4.88 C
2322 23-03-2017 01:25:00 6.3 C 90 % 4.78 C
2323 23-03-2017 01:30:00 6.3 C 90 % 4.78 C
2324 23-03-2017 01:35:00 6.2 C 90 % 4.69 C
2325 23-03-2017 01:40:00 6.2 C 90 % 4.69 C
Sensor: Nr:Datum:Temp:Feuchte:Taupunkt:
Aussen-T/F 2326 23-03-2017 01:45:00 6.2 C 90 % 4.69 C
2327 23-03-2017 01:50:00 6.2 C 90 % 4.69 C
2328 23-03-2017 01:55:00 6.1 C 90 % 4.59 C
2329 23-03-2017 02:00:00 6.1 C 91 % 4.74 C
2330 23-03-2017 02:05:00 6.1 C 91 % 4.74 C
2331 23-03-2017 02:10:00 6 C 91 % 4.65 C
2332 23-03-2017 02:15:00 5.9 C 91 % 4.55 C
2333 23-03-2017 02:20:00 5.9 C 91 % 4.55 C
2334 23-03-2017 02:25:00 5.8 C 91 % 4.45 C
2335 23-03-2017 02:30:00 5.7 C 91 % 4.35 C
2336 23-03-2017 02:35:00 5.7 C 91 % 4.35 C
2337 23-03-2017 02:40:00 5.6 C 91 % 4.25 C
2338 23-03-2017 02:45:00 5.6 C 91 % 4.25 C
2339 23-03-2017 02:50:00 5.5 C 92 % 4.31 C
2340 23-03-2017 02:55:00 5.4 C 92 % 4.21 C
2341 23-03-2017 03:00:00 5.4 C 92 % 4.21 C
2342 23-03-2017 03:05:00 5.3 C 91 % 3.95 C
2343 23-03-2017 03:10:00 5.2 C 92 % 4.01 C
2344 23-03-2017 03:15:00 5.1 C 92 % 3.91 C
2345 23-03-2017 03:20:00 5.1 C 92 % 3.91 C
2346 23-03-2017 03:25:00 5.1 C 92 % 3.91 C
2347 23-03-2017 03:30:00 5.1 C 93 % 4.06 C
2348 23-03-2017 03:35:00 5 C 93 % 3.96 C
2349 23-03-2017 03:40:00 5 C 93 % 3.96 C
2350 23-03-2017 03:45:00 4.9 C 93 % 3.87 C
Sensor: Nr:Datum:Temp:Feuchte:Taupunkt:
Aussen-T/F 2351 23-03-2017 03:50:00 4.9 C 93 % 3.87 C
2352 23-03-2017 03:55:00 4.8 C 93 % 3.77 C
2353 23-03-2017 04:00:00 4.8 C 93 % 3.77 C
2354 23-03-2017 04:05:00 4.8 C 93 % 3.77 C
2355 23-03-2017 04:10:00 4.8 C 93 % 3.77 C
2356 23-03-2017 04:15:00 4.7 C 93 % 3.67 C
2357 23-03-2017 04:20:00 4.6 C 93 % 3.57 C
2358 23-03-2017 04:25:00 4.6 C 93 % 3.57 C
2359 23-03-2017 04:30:00 4.4 C 93 % 3.37 C
2360 23-03-2017 04:35:00 4.4 C 93 % 3.37 C
2361 23-03-2017 04:40:00 4.3 C 93 % 3.27 C
2362 23-03-2017 04:45:00 4.3 C 93 % 3.27 C
2363 23-03-2017 04:50:00 4.3 C 94 % 3.42 C
2364 23-03-2017 04:55:00 4.2 C 94 % 3.32 C
2365 23-03-2017 05:00:00 4.2 C 93 % 3.17 C
2366 23-03-2017 05:05:00 4 C 93 % 2.97 C
2367 23-03-2017 05:10:00 3.9 C 93 % 2.87 C
2368 23-03-2017 05:15:00 3.8 C 94 % 2.93 C
2369 23-03-2017 05:20:00 3.8 C 94 % 2.93 C
2370 23-03-2017 05:25:00 3.8 C 94 % 2.93 C
2371 23-03-2017 05:30:00 3.6 C 93 % 2.58 C
2372 23-03-2017 05:35:00 3.5 C 94 % 2.63 C
2373 23-03-2017 05:40:00 3.4 C 94 % 2.53 C
2374 23-03-2017 05:45:00 3.2 C 94 % 2.33 C
2375 23-03-2017 05:50:00 3.2 C 94 % 2.33 C
Sensor: Nr:Datum:Temp:Feuchte:Taupunkt:
Aussen-T/F 2376 23-03-2017 05:55:00 3.1 C 94 % 2.23 C
2377 23-03-2017 06:00:00 3 C 94 % 2.13 C
2378 23-03-2017 06:05:00 2.9 C 94 % 2.03 C
2379 23-03-2017 06:10:00 2.9 C 94 % 2.03 C
2380 23-03-2017 06:15:00 2.8 C 94 % 1.93 C
2381 23-03-2017 06:20:00 2.8 C 94 % 1.93 C
2382 23-03-2017 06:25:00 2.7 C 94 % 1.83 C
2383 23-03-2017 06:30:00 2.7 C 94 % 1.83 C
2384 23-03-2017 06:35:00 2.8 C 95 % 2.08 C
2385 23-03-2017 06:40:00 2.8 C 95 % 2.08 C
2386 23-03-2017 06:45:00 2.8 C 95 % 2.08 C
2387 23-03-2017 06:50:00 3.1 C 95 % 2.38 C
2388 23-03-2017 06:55:00 3.2 C 95 % 2.48 C
2389 23-03-2017 07:00:00 3.3 C 95 % 2.58 C
2390 23-03-2017 07:05:00 3.4 C 96 % 2.82 C
2391 23-03-2017 07:10:00 3.6 C 96 % 3.02 C
2392 23-03-2017 07:15:00 3.6 C 95 % 2.88 C
2393 23-03-2017 07:20:00 3.7 C 96 % 3.12 C
2394 23-03-2017 07:25:00 3.8 C 96 % 3.22 C
2395 23-03-2017 07:30:00 3.9 C 96 % 3.32 C
2396 23-03-2017 07:35:00 4.1 C 96 % 3.52 C
2397 23-03-2017 07:40:00 4.2 C 96 % 3.62 C
2398 23-03-2017 07:45:00 4.3 C 96 % 3.72 C
2399 23-03-2017 07:50:00 4.4 C 96 % 3.82 C
2400 23-03-2017 07:55:00 4.5 C 96 % 3.92 C
Sensor: Nr:Datum:Temp:Feuchte:Taupunkt:
Aussen-T/F 2401 23-03-2017 08:00:00 4.6 C 96 % 4.02 C
2402 23-03-2017 08:05:00 4.7 C 96 % 4.12 C
2403 23-03-2017 08:10:00 4.8 C 96 % 4.22 C
2404 23-03-2017 08:15:00 4.9 C 96 % 4.32 C
2405 23-03-2017 08:20:00 4.9 C 96 % 4.32 C
2406 23-03-2017 08:25:00 5.1 C 96 % 4.52 C
2407 23-03-2017 08:30:00 5.1 C 96 % 4.52 C
2408 23-03-2017 08:35:00 5.2 C 96 % 4.62 C
2409 23-03-2017 08:40:00 5.3 C 96 % 4.72 C
2410 23-03-2017 08:45:00 5.4 C 96 % 4.81 C
2411 23-03-2017 08:50:00 5.6 C 96 % 5.01 C
2412 23-03-2017 08:55:00 5.7 C 95 % 4.96 C
2413 23-03-2017 09:00:00 5.8 C 95 % 5.06 C
2414 23-03-2017 09:05:00 6 C 95 % 5.26 C
2415 23-03-2017 09:10:00 6.2 C 95 % 5.46 C
2416 23-03-2017 09:15:00 6.2 C 95 % 5.46 C
2417 23-03-2017 09:20:00 6.3 C 94 % 5.41 C
2418 23-03-2017 09:25:00 6.5 C 94 % 5.61 C
2419 23-03-2017 09:30:00 6.7 C 94 % 5.8 C
2420 23-03-2017 09:35:00 6.8 C 94 % 5.9 C
2421 23-03-2017 09:40:00 7.1 C 93 % 6.05 C
2422 23-03-2017 09:45:00 7.3 C 93 % 6.25 C
2423 23-03-2017 09:50:00 7.5 C 92 % 6.29 C
2424 23-03-2017 09:55:00 7.7 C 90 % 6.17 C
2425 23-03-2017 10:00:00 7.8 C 90 % 6.27 C
Sensor: Nr:Datum:Temp:Feuchte:Taupunkt:
Aussen-T/F 2426 23-03-2017 10:05:00 8 C 88 % 6.14 C
2427 23-03-2017 10:10:00 8.2 C 88 % 6.33 C
2428 23-03-2017 10:15:00 8.3 C 88 % 6.43 C
2429 23-03-2017 10:20:00 8.4 C 86 % 6.2 C
2430 23-03-2017 10:25:00 8.5 C 86 % 6.3 C
2431 23-03-2017 10:30:00 8.6 C 85 % 6.23 C
2432 23-03-2017 10:35:00 8.6 C 85 % 6.23 C
2433 23-03-2017 10:40:00 8.7 C 85 % 6.32 C
2434 23-03-2017 10:45:00 8.7 C 84 % 6.15 C
2435 23-03-2017 10:50:00 8.8 C 85 % 6.42 C
2436 23-03-2017 10:55:00 8.9 C 85 % 6.52 C
2437 23-03-2017 11:00:00 9.1 C 84 % 6.54 C
2438 23-03-2017 11:05:00 9.1 C 83 % 6.37 C
2439 23-03-2017 11:10:00 9.2 C 84 % 6.64 C
2440 23-03-2017 11:15:00 9.3 C 83 % 6.57 C
2441 23-03-2017 11:20:00 9.3 C 82 % 6.39 C
2442 23-03-2017 11:25:00 9.3 C 82 % 6.39 C
2443 23-03-2017 11:30:00 9.3 C 83 % 6.57 C
2444 23-03-2017 11:35:00 9.2 C 82 % 6.29 C
2445 23-03-2017 11:40:00 9.1 C 83 % 6.37 C
2446 23-03-2017 11:45:00 9.2 C 82 % 6.29 C
2447 23-03-2017 11:50:00 9.2 C 82 % 6.29 C
2448 23-03-2017 11:55:00 9.4 C 83 % 6.66 C
2449 23-03-2017 12:00:00 9.7 C 82 % 6.78 C
2450 23-03-2017 12:05:00 9.8 C 82 % 6.88 C
Sensor: Nr:Datum:Temp:Feuchte:Taupunkt:
Aussen-T/F 2451 23-03-2017 12:10:00 9.9 C 81 % 6.8 C
2452 23-03-2017 12:15:00 10.1 C 82 % 7.17 C
2453 23-03-2017 12:20:00 10.3 C 80 % 7.01 C
2454 23-03-2017 12:25:00 10.5 C 80 % 7.2 C
2455 23-03-2017 12:30:00 10.7 C 80 % 7.4 C
2456 23-03-2017 12:35:00 10.9 C 80 % 7.59 C
2457 23-03-2017 12:40:00 11.1 C 78 % 7.41 C
2458 23-03-2017 12:45:00 11.3 C 76 % 7.23 C
2459 23-03-2017 12:50:00 11.4 C 76 % 7.33 C
2460 23-03-2017 12:55:00 11.6 C 76 % 7.52 C
2461 23-03-2017 13:00:00 11.8 C 74 % 7.32 C
2462 23-03-2017 13:05:00 12 C 74 % 7.52 C
2463 23-03-2017 13:10:00 12.2 C 72 % 7.31 C
2464 23-03-2017 13:15:00 12.3 C 72 % 7.4 C
2465 23-03-2017 13:20:00 12.4 C 72 % 7.5 C
2466 23-03-2017 13:25:00 12.6 C 72 % 7.69 C
2467 23-03-2017 13:30:00 12.7 C 70 % 7.38 C
2468 23-03-2017 13:35:00 12.8 C 70 % 7.47 C
2469 23-03-2017 13:40:00 13.1 C 71 % 7.97 C
2470 23-03-2017 13:45:00 13.3 C 69 % 7.74 C
2471 23-03-2017 13:50:00 13.5 C 69 % 7.93 C
2472 23-03-2017 13:55:00 13.7 C 66 % 7.47 C
2473 23-03-2017 14:00:00 13.7 C 65 % 7.25 C
2474 23-03-2017 14:05:00 13.8 C 66 % 7.57 C
2475 23-03-2017 14:10:00 13.9 C 64 % 7.21 C
Sensor: Nr:Datum:Temp:Feuchte:Taupunkt:
Aussen-T/F 2476 23-03-2017 14:15:00 14 C 64 % 7.31 C
2477 23-03-2017 14:20:00 14.2 C 63 % 7.27 C
2478 23-03-2017 14:25:00 14.4 C 64 % 7.68 C
2479 23-03-2017 14:30:00 14.6 C 62 % 7.41 C
2480 23-03-2017 14:35:00 14.6 C 63 % 7.64 C
2481 23-03-2017 14:40:00 14.7 C 61 % 7.27 C
2482 23-03-2017 14:45:00 14.8 C 61 % 7.36 C
2483 23-03-2017 14:50:00 14.8 C 63 % 7.83 C
2484 23-03-2017 14:55:00 14.8 C 61 % 7.36 C
2485 23-03-2017 15:00:00 14.7 C 61 % 7.27 C
2486 23-03-2017 15:05:00 14.7 C 62 % 7.5 C
2487 23-03-2017 15:10:00 14.8 C 62 % 7.6 C
2488 23-03-2017 15:15:00 14.8 C 62 % 7.6 C
2489 23-03-2017 15:20:00 14.8 C 63 % 7.83 C
2490 23-03-2017 15:25:00 14.9 C 62 % 7.69 C
2491 23-03-2017 15:30:00 14.9 C 62 % 7.69 C
2492 23-03-2017 15:35:00 15.1 C 62 % 7.88 C
2493 23-03-2017 15:40:00 15.2 C 61 % 7.74 C
2494 23-03-2017 15:45:00 15.2 C 61 % 7.74 C
2495 23-03-2017 15:50:00 15.1 C 60 % 7.4 C
2496 23-03-2017 15:55:00 14.9 C 61 % 7.45 C
2497 23-03-2017 16:00:00 14.9 C 62 % 7.69 C
2498 23-03-2017 16:05:00 15.1 C 61 % 7.64 C
2499 23-03-2017 16:10:00 15.3 C 61 % 7.83 C
2500 23-03-2017 16:15:00 15.5 C 61 % 8.02 C
Sensor: Nr:Datum:Temp:Feuchte:Taupunkt:
Aussen-T/F 2501 23-03-2017 16:20:00 15.8 C 60 % 8.06 C
2502 23-03-2017 16:25:00 15.9 C 57 % 7.4 C
2503 23-03-2017 16:30:00 16 C 56 % 7.24 C
2504 23-03-2017 16:35:00 16.3 C 58 % 8.03 C
2505 23-03-2017 16:40:00 16.6 C 55 % 7.53 C
2506 23-03-2017 16:45:00 16.6 C 54 % 7.26 C
2507 23-03-2017 16:50:00 16.3 C 55 % 7.25 C
2508 23-03-2017 16:55:00 16.1 C 55 % 7.07 C
2509 23-03-2017 17:00:00 16.1 C 55 % 7.07 C
2510 23-03-2017 17:05:00 16.2 C 56 % 7.42 C
2511 23-03-2017 17:10:00 16.2 C 55 % 7.16 C
2512 23-03-2017 17:15:00 16.2 C 55 % 7.16 C
2513 23-03-2017 17:20:00 16.4 C 53 % 6.81 C
2514 23-03-2017 17:25:00 16.5 C 54 % 7.17 C
2515 23-03-2017 17:30:00 16.4 C 54 % 7.08 C
2516 23-03-2017 17:35:00 16.3 C 53 % 6.71 C
2517 23-03-2017 17:40:00 16.3 C 54 % 6.98 C
2518 23-03-2017 17:45:00 16.3 C 54 % 6.98 C
2519 23-03-2017 17:50:00 16.1 C 56 % 7.33 C
2520 23-03-2017 17:55:00 15.8 C 58 % 7.56 C
2521 23-03-2017 18:00:00 15.7 C 60 % 7.97 C
2522 23-03-2017 18:05:00 15.4 C 60 % 7.68 C
2523 23-03-2017 18:10:00 15.2 C 60 % 7.5 C
2524 23-03-2017 18:15:00 15.2 C 59 % 7.25 C
2525 23-03-2017 18:20:00 15.2 C 64 % 8.44 C
Sensor: Nr:Datum:Temp:Feuchte:Taupunkt:
Aussen-T/F 2526 23-03-2017 18:25:00 15.2 C 62 % 7.98 C
2527 23-03-2017 18:30:00 14.9 C 62 % 7.69 C
2528 23-03-2017 18:35:00 14.4 C 65 % 7.91 C
2529 23-03-2017 18:40:00 13.9 C 66 % 7.66 C
2530 23-03-2017 18:45:00 13.3 C 67 % 7.31 C
2531 23-03-2017 18:50:00 12.8 C 69 % 7.26 C
2532 23-03-2017 18:55:00 12.3 C 70 % 6.99 C
2533 23-03-2017 19:00:00 11.9 C 71 % 6.82 C
2534 23-03-2017 19:05:00 11.6 C 72 % 6.73 C
2535 23-03-2017 19:10:00 11.3 C 73 % 6.64 C
2536 23-03-2017 19:15:00 11.1 C 74 % 6.65 C
2537 23-03-2017 19:20:00 10.9 C 74 % 6.45 C
2538 23-03-2017 19:25:00 10.7 C 75 % 6.46 C
2539 23-03-2017 19:30:00 10.6 C 75 % 6.36 C
2540 23-03-2017 19:35:00 10.4 C 75 % 6.17 C
2541 23-03-2017 19:40:00 10.3 C 76 % 6.26 C
2542 23-03-2017 19:45:00 10.2 C 77 % 6.35 C
2543 23-03-2017 19:50:00 10 C 78 % 6.35 C
2544 23-03-2017 19:55:00 9.9 C 78 % 6.25 C
2545 23-03-2017 20:00:00 9.9 C 79 % 6.43 C
2546 23-03-2017 20:05:00 9.8 C 79 % 6.34 C
2547 23-03-2017 20:10:00 9.8 C 79 % 6.34 C
2548 23-03-2017 20:15:00 9.7 C 80 % 6.42 C
2549 23-03-2017 20:20:00 9.7 C 80 % 6.42 C
2550 23-03-2017 20:25:00 9.6 C 80 % 6.32 C
Sensor: Nr:Datum:Temp:Feuchte:Taupunkt:
Aussen-T/F 2551 23-03-2017 20:30:00 9.6 C 80 % 6.32 C
2552 23-03-2017 20:35:00 9.5 C 80 % 6.23 C
2553 23-03-2017 20:40:00 9.5 C 81 % 6.41 C
2554 23-03-2017 20:45:00 9.4 C 81 % 6.31 C
2555 23-03-2017 20:50:00 9.3 C 82 % 6.39 C
2556 23-03-2017 20:55:00 9.3 C 82 % 6.39 C
2557 23-03-2017 21:00:00 9.2 C 83 % 6.47 C
2558 23-03-2017 21:05:00 9.2 C 83 % 6.47 C
2559 23-03-2017 21:10:00 9.2 C 83 % 6.47 C
2560 23-03-2017 21:15:00 9.1 C 84 % 6.54 C
2561 23-03-2017 21:20:00 9 C 84 % 6.45 C
2562 23-03-2017 21:25:00 8.9 C 84 % 6.35 C
2563 23-03-2017 21:30:00 8.8 C 84 % 6.25 C
2564 23-03-2017 21:35:00 8.8 C 84 % 6.25 C
2565 23-03-2017 21:40:00 8.7 C 84 % 6.15 C
2566 23-03-2017 21:45:00 8.6 C 85 % 6.23 C
2567 23-03-2017 21:50:00 8.4 C 84 % 5.86 C
2568 23-03-2017 21:55:00 8.3 C 85 % 5.93 C
2569 23-03-2017 22:00:00 8.2 C 86 % 6 C
2570 23-03-2017 22:05:00 8.1 C 86 % 5.9 C
2571 23-03-2017 22:10:00 8.1 C 86 % 5.9 C
2572 23-03-2017 22:15:00 7.9 C 86 % 5.71 C
2573 23-03-2017 22:20:00 7.8 C 87 % 5.78 C
2574 23-03-2017 22:25:00 7.8 C 87 % 5.78 C
2575 23-03-2017 22:30:00 7.7 C 87 % 5.68 C
Sensor: Nr:Datum:Temp:Feuchte:Taupunkt:
Aussen-T/F 2576 23-03-2017 22:35:00 7.7 C 88 % 5.84 C
2577 23-03-2017 22:40:00 7.7 C 89 % 6 C
2578 23-03-2017 22:45:00 7.6 C 89 % 5.91 C
2579 23-03-2017 22:50:00 7.6 C 89 % 5.91 C
2580 23-03-2017 22:55:00 7.6 C 89 % 5.91 C
2581 23-03-2017 23:00:00 7.6 C 89 % 5.91 C
2582 23-03-2017 23:05:00 7.6 C 89 % 5.91 C
2583 23-03-2017 23:10:00 7.6 C 89 % 5.91 C
2584 23-03-2017 23:15:00 7.6 C 90 % 6.07 C
2585 23-03-2017 23:20:00 7.5 C 90 % 5.97 C
2586 23-03-2017 23:25:00 7.4 C 89 % 5.71 C
2587 23-03-2017 23:30:00 7.4 C 90 % 5.87 C
2588 23-03-2017 23:35:00 7.3 C 90 % 5.77 C
2589 23-03-2017 23:40:00 7.3 C 90 % 5.77 C
2590 23-03-2017 23:45:00 7.3 C 90 % 5.77 C
2591 23-03-2017 23:50:00 7.3 C 90 % 5.77 C
2592 23-03-2017 23:55:00 7.3 C 90 % 5.77 C
2593 24-03-2017 00:00:00 7.1 C 89 % 5.41 C
2594 24-03-2017 00:05:00 7.1 C 90 % 5.57 C
2595 24-03-2017 00:10:00 7 C 90 % 5.48 C
2596 24-03-2017 00:15:00 6.9 C 91 % 5.54 C
2597 24-03-2017 00:20:00 6.9 C 91 % 5.54 C
2598 24-03-2017 00:25:00 6.9 C 91 % 5.54 C
2599 24-03-2017 00:30:00 6.9 C 91 % 5.54 C
2600 24-03-2017 00:35:00 6.8 C 91 % 5.44 C
Sensor: Nr:Datum:Temp:Feuchte:Taupunkt:
Aussen-T/F 2601 24-03-2017 00:40:00 6.8 C 91 % 5.44 C
2602 24-03-2017 00:45:00 6.7 C 91 % 5.34 C
2603 24-03-2017 00:50:00 6.7 C 91 % 5.34 C
2604 24-03-2017 00:55:00 6.7 C 91 % 5.34 C
2605 24-03-2017 01:00:00 6.7 C 92 % 5.49 C
2606 24-03-2017 01:05:00 6.8 C 92 % 5.59 C
2607 24-03-2017 01:10:00 6.8 C 92 % 5.59 C
2608 24-03-2017 01:15:00 6.9 C 92 % 5.69 C
2609 24-03-2017 01:20:00 7.1 C 93 % 6.05 C
2610 24-03-2017 01:25:00 7.2 C 93 % 6.15 C
2611 24-03-2017 01:30:00 7.2 C 92 % 5.99 C
2612 24-03-2017 01:35:00 7.1 C 92 % 5.89 C
2613 24-03-2017 01:40:00 7 C 91 % 5.63 C
2614 24-03-2017 01:45:00 6.9 C 91 % 5.54 C
2615 24-03-2017 01:50:00 6.9 C 92 % 5.69 C
2616 24-03-2017 01:55:00 6.9 C 92 % 5.69 C
2617 24-03-2017 02:00:00 6.9 C 92 % 5.69 C
2618 24-03-2017 02:05:00 7.1 C 92 % 5.89 C
2619 24-03-2017 02:10:00 7.2 C 92 % 5.99 C
2620 24-03-2017 02:15:00 7.2 C 92 % 5.99 C
2621 24-03-2017 02:20:00 7.2 C 91 % 5.83 C
2622 24-03-2017 02:25:00 7.1 C 90 % 5.57 C
2623 24-03-2017 02:30:00 7 C 90 % 5.48 C
2624 24-03-2017 02:35:00 6.9 C 90 % 5.38 C
2625 24-03-2017 02:40:00 6.8 C 90 % 5.28 C
Sensor: Nr:Datum:Temp:Feuchte:Taupunkt:
Aussen-T/F 2626 24-03-2017 02:45:00 6.8 C 91 % 5.44 C
2627 24-03-2017 02:50:00 6.8 C 91 % 5.44 C
2628 24-03-2017 02:55:00 7 C 92 % 5.79 C
2629 24-03-2017 03:00:00 7.1 C 92 % 5.89 C
2630 24-03-2017 03:05:00 7.2 C 92 % 5.99 C
2631 24-03-2017 03:10:00 7.3 C 91 % 5.93 C
2632 24-03-2017 03:15:00 7.4 C 91 % 6.03 C
2633 24-03-2017 03:20:00 7.5 C 91 % 6.13 C
2634 24-03-2017 03:25:00 7.6 C 91 % 6.23 C
2635 24-03-2017 03:30:00 7.7 C 90 % 6.17 C
2636 24-03-2017 03:35:00 7.7 C 90 % 6.17 C
2637 24-03-2017 03:40:00 7.8 C 90 % 6.27 C
2638 24-03-2017 03:45:00 7.8 C 90 % 6.27 C
2639 24-03-2017 03:50:00 7.8 C 89 % 6.1 C
2640 24-03-2017 03:55:00 7.8 C 89 % 6.1 C
2641 24-03-2017 04:00:00 7.9 C 89 % 6.2 C
2642 24-03-2017 04:05:00 7.9 C 89 % 6.2 C
2643 24-03-2017 04:10:00 7.9 C 88 % 6.04 C
2644 24-03-2017 04:15:00 8.1 C 88 % 6.24 C
2645 24-03-2017 04:20:00 8.1 C 87 % 6.07 C
2646 24-03-2017 04:25:00 8.1 C 87 % 6.07 C
2647 24-03-2017 04:30:00 8.1 C 87 % 6.07 C
2648 24-03-2017 04:35:00 8.2 C 86 % 6 C
2649 24-03-2017 04:40:00 8.2 C 86 % 6 C
2650 24-03-2017 04:45:00 8.2 C 86 % 6 C
Sensor: Nr:Datum:Temp:Feuchte:Taupunkt:
Aussen-T/F 2651 24-03-2017 04:50:00 8.3 C 85 % 5.93 C
2652 24-03-2017 04:55:00 8.3 C 86 % 6.1 C
2653 24-03-2017 05:00:00 8.3 C 85 % 5.93 C
2654 24-03-2017 05:05:00 8.2 C 85 % 5.83 C
2655 24-03-2017 05:10:00 8.2 C 85 % 5.83 C
2656 24-03-2017 05:15:00 8.2 C 85 % 5.83 C
2657 24-03-2017 05:20:00 8.2 C 85 % 5.83 C
2658 24-03-2017 05:25:00 8.2 C 85 % 5.83 C
2659 24-03-2017 05:30:00 8.2 C 85 % 5.83 C
2660 24-03-2017 05:35:00 8.2 C 84 % 5.66 C
2661 24-03-2017 05:40:00 8.2 C 84 % 5.66 C
2662 24-03-2017 05:45:00 8.2 C 84 % 5.66 C
2663 24-03-2017 05:50:00 8.3 C 84 % 5.76 C
2664 24-03-2017 05:55:00 8.2 C 84 % 5.66 C
2665 24-03-2017 06:00:00 8.3 C 83 % 5.59 C
2666 24-03-2017 06:05:00 8.3 C 84 % 5.76 C
2667 24-03-2017 06:10:00 8.3 C 83 % 5.59 C
2668 24-03-2017 06:15:00 8.3 C 83 % 5.59 C
2669 24-03-2017 06:20:00 8.2 C 83 % 5.49 C
2670 24-03-2017 06:25:00 8.2 C 84 % 5.66 C
2671 24-03-2017 06:30:00 8.2 C 83 % 5.49 C
2672 24-03-2017 06:35:00 8.2 C 83 % 5.49 C
2673 24-03-2017 06:40:00 8.2 C 83 % 5.49 C
2674 24-03-2017 06:45:00 8.2 C 83 % 5.49 C
2675 24-03-2017 06:50:00 8.2 C 83 % 5.49 C
Sensor: Nr:Datum:Temp:Feuchte:Taupunkt:
Aussen-T/F 2676 24-03-2017 06:55:00 8.2 C 83 % 5.49 C
2677 24-03-2017 07:00:00 8.2 C 83 % 5.49 C
2678 24-03-2017 07:05:00 8.2 C 82 % 5.32 C
2679 24-03-2017 07:10:00 8.2 C 83 % 5.49 C
2680 24-03-2017 07:15:00 8.2 C 82 % 5.32 C
2681 24-03-2017 07:20:00 8.2 C 82 % 5.32 C
2682 24-03-2017 07:25:00 8.2 C 82 % 5.32 C
2683 24-03-2017 07:30:00 8.2 C 82 % 5.32 C
2684 24-03-2017 07:35:00 8.2 C 82 % 5.32 C
2685 24-03-2017 07:40:00 8.2 C 81 % 5.14 C
2686 24-03-2017 07:45:00 8.2 C 81 % 5.14 C
2687 24-03-2017 07:50:00 8.3 C 81 % 5.24 C
2688 24-03-2017 07:55:00 8.3 C 81 % 5.24 C
2689 24-03-2017 08:00:00 8.3 C 81 % 5.24 C
2690 24-03-2017 08:05:00 8.3 C 80 % 5.06 C
2691 24-03-2017 08:10:00 8.3 C 80 % 5.06 C
2692 24-03-2017 08:15:00 8.4 C 80 % 5.16 C
2693 24-03-2017 08:20:00 8.4 C 80 % 5.16 C
2694 24-03-2017 08:25:00 8.4 C 80 % 5.16 C
2695 24-03-2017 08:30:00 8.4 C 80 % 5.16 C
2696 24-03-2017 08:35:00 8.4 C 80 % 5.16 C
2697 24-03-2017 08:40:00 8.4 C 79 % 4.98 C
2698 24-03-2017 08:45:00 8.5 C 80 % 5.25 C
2699 24-03-2017 08:50:00 8.5 C 79 % 5.07 C
2700 24-03-2017 08:55:00 8.5 C 79 % 5.07 C
Sensor: Nr:Datum:Temp:Feuchte:Taupunkt:
Aussen-T/F 2701 24-03-2017 09:00:00 8.6 C 80 % 5.35 C
2702 24-03-2017 09:05:00 8.7 C 79 % 5.27 C
2703 24-03-2017 09:10:00 8.8 C 79 % 5.36 C
2704 24-03-2017 09:15:00 8.8 C 79 % 5.36 C
2705 24-03-2017 09:20:00 8.9 C 78 % 5.28 C
2706 24-03-2017 09:25:00 8.9 C 78 % 5.28 C
2707 24-03-2017 09:30:00 8.9 C 77 % 5.09 C
2708 24-03-2017 09:35:00 9 C 77 % 5.19 C
2709 24-03-2017 09:40:00 9.1 C 77 % 5.29 C
2710 24-03-2017 09:45:00 9.1 C 77 % 5.29 C
2711 24-03-2017 09:50:00 9.1 C 76 % 5.1 C
2712 24-03-2017 09:55:00 9.1 C 76 % 5.1 C
2713 24-03-2017 10:00:00 9.2 C 76 % 5.2 C
2714 24-03-2017 10:05:00 9.3 C 75 % 5.1 C
2715 24-03-2017 10:10:00 9.3 C 75 % 5.1 C
2716 24-03-2017 10:15:00 9.5 C 75 % 5.3 C
2717 24-03-2017 10:20:00 9.5 C 74 % 5.1 C
2718 24-03-2017 10:25:00 9.5 C 74 % 5.1 C
2719 24-03-2017 10:30:00 9.6 C 75 % 5.39 C
2720 24-03-2017 10:35:00 9.6 C 74 % 5.2 C
2721 24-03-2017 10:40:00 9.6 C 73 % 5.01 C
2722 24-03-2017 10:45:00 9.7 C 74 % 5.3 C
2723 24-03-2017 10:50:00 9.7 C 73 % 5.1 C
2724 24-03-2017 10:55:00 9.9 C 73 % 5.29 C
2725 24-03-2017 11:00:00 10.1 C 72 % 5.29 C
Sensor: Nr:Datum:Temp:Feuchte:Taupunkt:
Aussen-T/F 2726 24-03-2017 11:05:00 10.1 C 73 % 5.49 C
2727 24-03-2017 11:10:00 10.1 C 72 % 5.29 C
2728 24-03-2017 11:15:00 10.1 C 73 % 5.49 C
2729 24-03-2017 11:20:00 10.3 C 72 % 5.48 C
2730 24-03-2017 11:25:00 10.4 C 71 % 5.38 C
2731 24-03-2017 11:30:00 10.4 C 71 % 5.38 C
2732 24-03-2017 11:35:00 10.3 C 72 % 5.48 C
2733 24-03-2017 11:40:00 10.4 C 72 % 5.58 C
2734 24-03-2017 11:45:00 10.3 C 71 % 5.28 C
2735 24-03-2017 11:50:00 10.2 C 71 % 5.18 C
2736 24-03-2017 11:55:00 10.3 C 71 % 5.28 C
2737 24-03-2017 12:00:00 10.5 C 72 % 5.67 C
2738 24-03-2017 12:05:00 10.7 C 71 % 5.66 C
2739 24-03-2017 12:10:00 10.7 C 70 % 5.46 C
2740 24-03-2017 12:15:00 10.4 C 72 % 5.58 C
2741 24-03-2017 12:20:00 10.5 C 71 % 5.47 C
2742 24-03-2017 12:25:00 10.6 C 71 % 5.57 C
2743 24-03-2017 12:30:00 10.7 C 71 % 5.66 C
2744 24-03-2017 12:35:00 10.6 C 70 % 5.36 C
2745 24-03-2017 12:40:00 10.4 C 71 % 5.38 C
2746 24-03-2017 12:45:00 10.6 C 70 % 5.36 C
2747 24-03-2017 12:50:00 10.7 C 70 % 5.46 C
2748 24-03-2017 12:55:00 10.8 C 70 % 5.56 C
2749 24-03-2017 13:00:00 10.9 C 69 % 5.44 C
2750 24-03-2017 13:05:00 11.1 C 70 % 5.84 C
Sensor: Nr:Datum:Temp:Feuchte:Taupunkt:
Aussen-T/F 2751 24-03-2017 13:10:00 11.2 C 69 % 5.73 C
2752 24-03-2017 13:15:00 11.3 C 68 % 5.62 C
2753 24-03-2017 13:20:00 11.2 C 68 % 5.52 C
2754 24-03-2017 13:25:00 11.2 C 69 % 5.73 C
2755 24-03-2017 13:30:00 11.4 C 68 % 5.71 C
2756 24-03-2017 13:35:00 11.4 C 68 % 5.71 C
2757 24-03-2017 13:40:00 11.4 C 67 % 5.5 C
2758 24-03-2017 13:45:00 11.4 C 67 % 5.5 C
2759 24-03-2017 13:50:00 11.5 C 67 % 5.59 C
2760 24-03-2017 13:55:00 11.6 C 66 % 5.47 C
2761 24-03-2017 14:00:00 11.8 C 66 % 5.66 C
2762 24-03-2017 14:05:00 11.8 C 65 % 5.44 C
2763 24-03-2017 14:10:00 11.8 C 66 % 5.66 C
2764 24-03-2017 14:15:00 12.1 C 64 % 5.51 C
2765 24-03-2017 14:20:00 12.1 C 64 % 5.51 C
2766 24-03-2017 14:25:00 12.2 C 63 % 5.37 C
2767 24-03-2017 14:30:00 12.3 C 64 % 5.69 C
2768 24-03-2017 14:35:00 12.6 C 63 % 5.75 C
2769 24-03-2017 14:40:00 12.7 C 63 % 5.85 C
2770 24-03-2017 14:45:00 12.8 C 62 % 5.71 C
2771 24-03-2017 14:50:00 12.8 C 62 % 5.71 C
2772 24-03-2017 14:55:00 12.9 C 61 % 5.57 C
2773 24-03-2017 15:00:00 13.1 C 60 % 5.52 C
2774 24-03-2017 15:05:00 13.2 C 60 % 5.61 C
2775 24-03-2017 15:10:00 13.4 C 59 % 5.56 C
Sensor: Nr:Datum:Temp:Feuchte:Taupunkt:
Aussen-T/F 2776 24-03-2017 15:15:00 13.6 C 59 % 5.75 C
2777 24-03-2017 15:20:00 13.5 C 58 % 5.41 C
2778 24-03-2017 15:25:00 13.6 C 59 % 5.75 C
2779 24-03-2017 15:30:00 13.7 C 59 % 5.84 C
2780 24-03-2017 15:35:00 13.8 C 58 % 5.69 C
2781 24-03-2017 15:40:00 13.9 C 57 % 5.53 C
2782 24-03-2017 15:45:00 13.9 C 57 % 5.53 C
2783 24-03-2017 15:50:00 14 C 57 % 5.63 C
2784 24-03-2017 15:55:00 14.2 C 56 % 5.56 C
2785 24-03-2017 16:00:00 14.2 C 56 % 5.56 C
2786 24-03-2017 16:05:00 14.2 C 56 % 5.56 C
2787 24-03-2017 16:10:00 14.3 C 57 % 5.91 C
2788 24-03-2017 16:15:00 14.4 C 54 % 5.22 C
2789 24-03-2017 16:20:00 14.4 C 54 % 5.22 C
2790 24-03-2017 16:25:00 14.4 C 53 % 4.95 C
2791 24-03-2017 16:30:00 14.6 C 54 % 5.41 C
2792 24-03-2017 16:35:00 14.7 C 53 % 5.23 C
2793 24-03-2017 16:40:00 14.8 C 55 % 5.86 C
2794 24-03-2017 16:45:00 15 C 53 % 5.51 C
2795 24-03-2017 16:50:00 14.9 C 53 % 5.42 C
2796 24-03-2017 16:55:00 14.9 C 53 % 5.42 C
2797 24-03-2017 17:00:00 14.8 C 53 % 5.32 C
2798 24-03-2017 17:05:00 14.8 C 53 % 5.32 C
2799 24-03-2017 17:10:00 14.8 C 55 % 5.86 C
2800 24-03-2017 17:15:00 15.1 C 53 % 5.6 C
Sensor: Nr:Datum:Temp:Feuchte:Taupunkt:
Aussen-T/F 2801 24-03-2017 17:20:00 15.1 C 53 % 5.6 C
2802 24-03-2017 17:25:00 15.2 C 53 % 5.69 C
2803 24-03-2017 17:30:00 15.1 C 52 % 5.33 C
2804 24-03-2017 17:35:00 15 C 53 % 5.51 C
2805 24-03-2017 17:40:00 15 C 53 % 5.51 C
2806 24-03-2017 17:45:00 14.9 C 54 % 5.69 C
2807 24-03-2017 17:50:00 14.9 C 54 % 5.69 C
2808 24-03-2017 17:55:00 14.9 C 54 % 5.69 C
2809 24-03-2017 18:00:00 14.8 C 54 % 5.59 C
2810 24-03-2017 18:05:00 14.6 C 55 % 5.67 C
2811 24-03-2017 18:10:00 14.4 C 57 % 6 C
2812 24-03-2017 18:15:00 14.3 C 56 % 5.65 C
2813 24-03-2017 18:20:00 14.2 C 56 % 5.56 C
2814 24-03-2017 18:25:00 13.9 C 57 % 5.53 C
2815 24-03-2017 18:30:00 13.6 C 58 % 5.5 C
2816 24-03-2017 18:35:00 13.2 C 60 % 5.61 C
2817 24-03-2017 18:40:00 12.7 C 63 % 5.85 C
2818 24-03-2017 18:45:00 12.1 C 64 % 5.51 C
2819 24-03-2017 18:50:00 11.6 C 67 % 5.69 C
2820 24-03-2017 18:55:00 11.2 C 68 % 5.52 C
2821 24-03-2017 19:00:00 10.9 C 69 % 5.44 C
2822 24-03-2017 19:05:00 10.6 C 70 % 5.36 C
2823 24-03-2017 19:10:00 10.3 C 72 % 5.48 C
2824 24-03-2017 19:15:00 10.1 C 73 % 5.49 C
2825 24-03-2017 19:20:00 9.8 C 73 % 5.2 C
Sensor: Nr:Datum:Temp:Feuchte:Taupunkt:
Aussen-T/F 2826 24-03-2017 19:25:00 9.7 C 74 % 5.3 C
2827 24-03-2017 19:30:00 9.6 C 74 % 5.2 C
2828 24-03-2017 19:35:00 9.4 C 75 % 5.2 C
2829 24-03-2017 19:40:00 9.3 C 76 % 5.29 C
2830 24-03-2017 19:45:00 9.2 C 76 % 5.2 C
2831 24-03-2017 19:50:00 9.1 C 76 % 5.1 C
2832 24-03-2017 19:55:00 8.9 C 77 % 5.09 C
2833 24-03-2017 20:00:00 8.9 C 77 % 5.09 C
2834 24-03-2017 20:05:00 8.8 C 78 % 5.18 C
2835 24-03-2017 20:10:00 8.7 C 78 % 5.08 C
2836 24-03-2017 20:15:00 8.6 C 78 % 4.99 C
2837 24-03-2017 20:20:00 8.5 C 78 % 4.89 C
2838 24-03-2017 20:25:00 8.4 C 78 % 4.79 C
2839 24-03-2017 20:30:00 8.3 C 79 % 4.88 C
2840 24-03-2017 20:35:00 8.2 C 79 % 4.78 C
2841 24-03-2017 20:40:00 8.1 C 79 % 4.68 C
2842 24-03-2017 20:45:00 8 C 80 % 4.77 C
2843 24-03-2017 20:50:00 7.9 C 80 % 4.67 C
2844 24-03-2017 20:55:00 7.9 C 80 % 4.67 C
2845 24-03-2017 21:00:00 7.9 C 80 % 4.67 C
2846 24-03-2017 21:05:00 7.9 C 80 % 4.67 C
2847 24-03-2017 21:10:00 7.8 C 80 % 4.57 C
2848 24-03-2017 21:15:00 7.7 C 80 % 4.47 C
2849 24-03-2017 21:20:00 7.7 C 81 % 4.65 C
2850 24-03-2017 21:25:00 7.6 C 81 % 4.55 C
Sensor: Nr:Datum:Temp:Feuchte:Taupunkt:
Aussen-T/F 2851 24-03-2017 21:30:00 7.7 C 80 % 4.47 C
2852 24-03-2017 21:35:00 7.7 C 80 % 4.47 C
2853 24-03-2017 21:40:00 7.7 C 79 % 4.3 C
2854 24-03-2017 21:45:00 7.6 C 79 % 4.2 C
2855 24-03-2017 21:50:00 7.4 C 80 % 4.18 C
2856 24-03-2017 21:55:00 7.4 C 80 % 4.18 C
2857 24-03-2017 22:00:00 7.3 C 80 % 4.09 C
2858 24-03-2017 22:05:00 7.2 C 81 % 4.16 C
2859 24-03-2017 22:10:00 7.1 C 82 % 4.24 C
2860 24-03-2017 22:15:00 7 C 81 % 3.97 C
2861 24-03-2017 22:20:00 6.9 C 82 % 4.05 C
2862 24-03-2017 22:25:00 6.8 C 83 % 4.12 C
2863 24-03-2017 22:30:00 6.7 C 83 % 4.02 C
2864 24-03-2017 22:35:00 6.7 C 83 % 4.02 C
2865 24-03-2017 22:40:00 6.6 C 84 % 4.1 C
2866 24-03-2017 22:45:00 6.6 C 84 % 4.1 C
2867 24-03-2017 22:50:00 6.6 C 84 % 4.1 C
2868 24-03-2017 22:55:00 6.5 C 84 % 4 C
2869 24-03-2017 23:00:00 6.4 C 84 % 3.9 C
2870 24-03-2017 23:05:00 6.4 C 84 % 3.9 C
2871 24-03-2017 23:10:00 6.3 C 84 % 3.8 C
2872 24-03-2017 23:15:00 6.3 C 84 % 3.8 C
2873 24-03-2017 23:20:00 6.2 C 85 % 3.87 C
2874 24-03-2017 23:25:00 6.2 C 84 % 3.7 C
2875 24-03-2017 23:30:00 6.2 C 85 % 3.87 C
Sensor: Nr:Datum:Temp:Feuchte:Taupunkt:
Aussen-T/F 2876 24-03-2017 23:35:00 6.2 C 84 % 3.7 C
2877 24-03-2017 23:40:00 6.1 C 85 % 3.77 C
2878 24-03-2017 23:45:00 6.1 C 85 % 3.77 C
2879 24-03-2017 23:50:00 6 C 85 % 3.67 C
2880 24-03-2017 23:55:00 5.9 C 85 % 3.58 C
2881 25-03-2017 00:00:00 5.9 C 85 % 3.58 C
2882 25-03-2017 00:05:00 5.9 C 85 % 3.58 C
2883 25-03-2017 00:10:00 5.9 C 85 % 3.58 C
2884 25-03-2017 00:15:00 5.8 C 85 % 3.48 C
2885 25-03-2017 00:20:00 5.7 C 86 % 3.55 C
2886 25-03-2017 00:25:00 5.7 C 86 % 3.55 C
2887 25-03-2017 00:30:00 5.6 C 86 % 3.45 C
2888 25-03-2017 00:35:00 5.5 C 86 % 3.35 C
2889 25-03-2017 00:40:00 5.4 C 86 % 3.25 C
2890 25-03-2017 00:45:00 5.4 C 87 % 3.41 C
2891 25-03-2017 00:50:00 5.4 C 87 % 3.41 C
2892 25-03-2017 00:55:00 5.4 C 86 % 3.25 C
2893 25-03-2017 01:00:00 5.3 C 86 % 3.15 C
2894 25-03-2017 01:05:00 5.3 C 86 % 3.15 C
2895 25-03-2017 01:10:00 5.3 C 87 % 3.32 C
2896 25-03-2017 01:15:00 5.2 C 87 % 3.22 C
2897 25-03-2017 01:20:00 5.2 C 87 % 3.22 C
2898 25-03-2017 01:25:00 5.2 C 87 % 3.22 C
2899 25-03-2017 01:30:00 5.1 C 87 % 3.12 C
2900 25-03-2017 01:35:00 5.1 C 88 % 3.28 C
Sensor: Nr:Datum:Temp:Feuchte:Taupunkt:
Aussen-T/F 2901 25-03-2017 01:40:00 5.1 C 88 % 3.28 C
2902 25-03-2017 01:45:00 5.1 C 87 % 3.12 C
2903 25-03-2017 01:50:00 5 C 87 % 3.02 C
2904 25-03-2017 01:55:00 5 C 87 % 3.02 C
2905 25-03-2017 02:00:00 4.9 C 87 % 2.92 C
2906 25-03-2017 02:05:00 4.8 C 88 % 2.99 C
2907 25-03-2017 02:10:00 4.8 C 88 % 2.99 C
2908 25-03-2017 02:15:00 4.8 C 88 % 2.99 C
2909 25-03-2017 02:20:00 4.7 C 88 % 2.89 C
2910 25-03-2017 02:25:00 4.7 C 88 % 2.89 C
2911 25-03-2017 02:30:00 4.6 C 89 % 2.95 C
2912 25-03-2017 02:35:00 4.7 C 88 % 2.89 C
2913 25-03-2017 02:40:00 4.7 C 89 % 3.05 C
2914 25-03-2017 02:45:00 4.6 C 89 % 2.95 C
2915 25-03-2017 02:50:00 4.6 C 88 % 2.79 C
2916 25-03-2017 02:55:00 4.6 C 89 % 2.95 C
2917 25-03-2017 03:00:00 4.5 C 88 % 2.69 C
2918 25-03-2017 03:05:00 4.5 C 89 % 2.85 C
2919 25-03-2017 03:10:00 4.4 C 88 % 2.59 C
2920 25-03-2017 03:15:00 4.4 C 89 % 2.75 C
2921 25-03-2017 03:20:00 4.3 C 89 % 2.65 C
2922 25-03-2017 03:25:00 4.3 C 89 % 2.65 C
2923 25-03-2017 03:30:00 4.3 C 89 % 2.65 C
2924 25-03-2017 03:35:00 4.3 C 89 % 2.65 C
2925 25-03-2017 03:40:00 4.3 C 89 % 2.65 C
Sensor: Nr:Datum:Temp:Feuchte:Taupunkt:
Aussen-T/F 2926 25-03-2017 03:45:00 4.2 C 89 % 2.55 C
2927 25-03-2017 03:50:00 4.2 C 88 % 2.39 C
2928 25-03-2017 03:55:00 4 C 89 % 2.36 C
2929 25-03-2017 04:00:00 3.9 C 89 % 2.26 C
2930 25-03-2017 04:05:00 3.7 C 89 % 2.06 C
2931 25-03-2017 04:10:00 3.7 C 90 % 2.22 C
2932 25-03-2017 04:15:00 3.6 C 90 % 2.12 C
2933 25-03-2017 04:20:00 3.4 C 89 % 1.76 C
2934 25-03-2017 04:25:00 3.3 C 90 % 1.82 C
2935 25-03-2017 04:30:00 3.3 C 90 % 1.82 C
2936 25-03-2017 04:35:00 3.3 C 91 % 1.98 C
2937 25-03-2017 04:40:00 3.3 C 91 % 1.98 C
2938 25-03-2017 04:45:00 3.3 C 91 % 1.98 C
2939 25-03-2017 04:50:00 3.3 C 91 % 1.98 C
2940 25-03-2017 04:55:00 3.2 C 91 % 1.88 C
2941 25-03-2017 05:00:00 3.2 C 91 % 1.88 C
2942 25-03-2017 05:05:00 3.2 C 91 % 1.88 C
2943 25-03-2017 05:10:00 3.2 C 91 % 1.88 C
2944 25-03-2017 05:15:00 3.1 C 91 % 1.78 C
2945 25-03-2017 05:20:00 3.1 C 91 % 1.78 C
2946 25-03-2017 05:25:00 3 C 91 % 1.68 C
2947 25-03-2017 05:30:00 3 C 91 % 1.68 C
2948 25-03-2017 05:35:00 2.9 C 91 % 1.58 C
2949 25-03-2017 05:40:00 3 C 91 % 1.68 C
2950 25-03-2017 05:45:00 3.1 C 92 % 1.93 C
Sensor: Nr:Datum:Temp:Feuchte:Taupunkt:
Aussen-T/F 2951 25-03-2017 05:50:00 3.2 C 92 % 2.03 C
2952 25-03-2017 05:55:00 3.2 C 91 % 1.88 C
2953 25-03-2017 06:00:00 3.2 C 91 % 1.88 C
2954 25-03-2017 06:05:00 3.3 C 91 % 1.98 C
2955 25-03-2017 06:10:00 3.3 C 91 % 1.98 C
2956 25-03-2017 06:15:00 3.3 C 91 % 1.98 C
2957 25-03-2017 06:20:00 3.3 C 90 % 1.82 C
2958 25-03-2017 06:25:00 3.3 C 90 % 1.82 C
2959 25-03-2017 06:30:00 3.3 C 91 % 1.98 C
2960 25-03-2017 06:35:00 3.3 C 91 % 1.98 C
2961 25-03-2017 06:40:00 3.3 C 91 % 1.98 C
2962 25-03-2017 06:45:00 3.3 C 90 % 1.82 C
2963 25-03-2017 06:50:00 3.2 C 90 % 1.72 C
2964 25-03-2017 06:55:00 3.2 C 91 % 1.88 C
2965 25-03-2017 07:00:00 3.2 C 91 % 1.88 C
2966 25-03-2017 07:05:00 3.1 C 91 % 1.78 C
2967 25-03-2017 07:10:00 3.2 C 91 % 1.88 C
2968 25-03-2017 07:15:00 3.2 C 91 % 1.88 C
2969 25-03-2017 07:20:00 3.3 C 91 % 1.98 C
2970 25-03-2017 07:25:00 3.3 C 92 % 2.13 C
2971 25-03-2017 07:30:00 3.4 C 92 % 2.23 C
2972 25-03-2017 07:35:00 3.5 C 91 % 2.17 C
2973 25-03-2017 07:40:00 3.5 C 91 % 2.17 C
2974 25-03-2017 07:45:00 3.5 C 91 % 2.17 C
2975 25-03-2017 07:50:00 3.6 C 91 % 2.27 C
Sensor: Nr:Datum:Temp:Feuchte:Taupunkt:
Aussen-T/F 2976 25-03-2017 07:55:00 3.6 C 91 % 2.27 C
2977 25-03-2017 08:00:00 3.7 C 91 % 2.37 C
2978 25-03-2017 08:05:00 3.8 C 91 % 2.47 C
2979 25-03-2017 08:10:00 3.8 C 91 % 2.47 C
2980 25-03-2017 08:15:00 3.9 C 91 % 2.57 C
2981 25-03-2017 08:20:00 3.9 C 91 % 2.57 C
2982 25-03-2017 08:25:00 4 C 91 % 2.67 C
2983 25-03-2017 08:30:00 4.1 C 91 % 2.77 C
2984 25-03-2017 08:35:00 4.1 C 91 % 2.77 C
2985 25-03-2017 08:40:00 4.2 C 91 % 2.87 C
2986 25-03-2017 08:45:00 4.3 C 91 % 2.96 C
2987 25-03-2017 08:50:00 4.4 C 91 % 3.06 C
2988 25-03-2017 08:55:00 4.6 C 91 % 3.26 C
2989 25-03-2017 09:00:00 4.8 C 91 % 3.46 C
2990 25-03-2017 09:05:00 4.9 C 90 % 3.4 C
2991 25-03-2017 09:10:00 5.1 C 90 % 3.6 C
2992 25-03-2017 09:15:00 5.3 C 90 % 3.8 C
2993 25-03-2017 09:20:00 5.5 C 89 % 3.84 C
2994 25-03-2017 09:25:00 5.7 C 88 % 3.87 C
2995 25-03-2017 09:30:00 6 C 87 % 4 C
2996 25-03-2017 09:35:00 6.3 C 87 % 4.3 C
2997 25-03-2017 09:40:00 6.6 C 85 % 4.26 C
2998 25-03-2017 09:45:00 6.8 C 84 % 4.29 C
2999 25-03-2017 09:50:00 7.1 C 83 % 4.41 C
3000 25-03-2017 09:55:00 7.4 C 82 % 4.53 C
Sensor: Nr:Datum:Temp:Feuchte:Taupunkt:
Aussen-T/F 3001 25-03-2017 10:00:00 7.8 C 81 % 4.75 C
3002 25-03-2017 10:05:00 8.2 C 79 % 4.78 C
3003 25-03-2017 10:10:00 8.4 C 80 % 5.16 C
3004 25-03-2017 10:15:00 8.8 C 78 % 5.18 C
3005 25-03-2017 10:20:00 9.1 C 76 % 5.1 C
3006 25-03-2017 10:25:00 9.3 C 75 % 5.1 C
3007 25-03-2017 10:30:00 9.7 C 72 % 4.9 C
3008 25-03-2017 10:35:00 10 C 72 % 5.19 C
3009 25-03-2017 10:40:00 10.2 C 71 % 5.18 C
3010 25-03-2017 10:45:00 10.4 C 67 % 4.55 C
3011 25-03-2017 10:50:00 10.7 C 65 % 4.4 C
3012 25-03-2017 10:55:00 11.1 C 63 % 4.33 C
3013 25-03-2017 11:00:00 11.3 C 63 % 4.52 C
3014 25-03-2017 11:05:00 11.6 C 62 % 4.58 C
3015 25-03-2017 11:10:00 11.7 C 63 % 4.9 C
3016 25-03-2017 11:15:00 11.9 C 59 % 4.15 C
3017 25-03-2017 11:20:00 12.1 C 61 % 4.82 C
3018 25-03-2017 11:25:00 12.3 C 60 % 4.77 C
3019 25-03-2017 11:30:00 12.4 C 55 % 3.62 C
3020 25-03-2017 11:35:00 12.6 C 55 % 3.81 C
3021 25-03-2017 11:40:00 12.7 C 55 % 3.9 C
3022 25-03-2017 11:45:00 12.8 C 52 % 3.2 C
3023 25-03-2017 11:50:00 12.9 C 53 % 3.56 C
3024 25-03-2017 11:55:00 13.1 C 50 % 2.93 C
3025 25-03-2017 12:00:00 13.4 C 47 % 2.33 C
Sensor: Nr:Datum:Temp:Feuchte:Taupunkt:
Aussen-T/F 3026 25-03-2017 12:05:00 13.5 C 45 % 1.81 C
3027 25-03-2017 12:10:00 13.6 C 43 % 1.27 C
3028 25-03-2017 12:15:00 13.7 C 41 % 0.7 C
3029 25-03-2017 12:20:00 13.7 C 39 % 0.01 C
3030 25-03-2017 12:25:00 13.8 C 41 % 0.79 C
3031 25-03-2017 12:30:00 14 C 42 % 1.31 C
3032 25-03-2017 12:35:00 14.2 C 40 % 0.81 C
3033 25-03-2017 12:40:00 14.2 C 37 % -0.26 C
3034 25-03-2017 12:45:00 14.2 C 38 % 0.1 C
3035 25-03-2017 12:50:00 14.2 C 39 % 0.46 C
3036 25-03-2017 12:55:00 14.3 C 39 % 0.55 C
3037 25-03-2017 13:00:00 14.3 C 39 % 0.55 C
3038 25-03-2017 13:05:00 14.4 C 40 % 0.99 C
3039 25-03-2017 13:10:00 14.7 C 39 % 0.91 C
3040 25-03-2017 13:15:00 14.7 C 40 % 1.26 C
3041 25-03-2017 13:20:00 14.8 C 42 % 2.03 C
3042 25-03-2017 13:25:00 14.9 C 41 % 1.78 C
3043 25-03-2017 13:30:00 14.8 C 40 % 1.35 C
3044 25-03-2017 13:35:00 14.8 C 41 % 1.69 C
3045 25-03-2017 13:40:00 14.9 C 41 % 1.78 C
3046 25-03-2017 13:45:00 15.1 C 40 % 1.62 C
3047 25-03-2017 13:50:00 15.1 C 39 % 1.26 C
3048 25-03-2017 13:55:00 15.1 C 37 % 0.54 C
3049 25-03-2017 14:00:00 15.1 C 37 % 0.54 C
3050 25-03-2017 14:05:00 15.1 C 38 % 0.9 C
Sensor: Nr:Datum:Temp:Feuchte:Taupunkt:
Aussen-T/F 3051 25-03-2017 14:10:00 15.2 C 38 % 0.99 C
3052 25-03-2017 14:15:00 15.3 C 39 % 1.44 C
3053 25-03-2017 14:20:00 15.4 C 38 % 1.17 C
3054 25-03-2017 14:25:00 15.4 C 39 % 1.53 C
3055 25-03-2017 14:30:00 15.4 C 39 % 1.53 C
3056 25-03-2017 14:35:00 15.4 C 40 % 1.89 C
3057 25-03-2017 14:40:00 15.5 C 38 % 1.26 C
3058 25-03-2017 14:45:00 15.6 C 37 % 0.98 C
3059 25-03-2017 14:50:00 15.6 C 37 % 0.98 C
3060 25-03-2017 14:55:00 15.7 C 35 % 0.3 C
3061 25-03-2017 15:00:00 15.8 C 36 % 0.78 C
3062 25-03-2017 15:05:00 15.9 C 36 % 0.87 C
3063 25-03-2017 15:10:00 15.9 C 36 % 0.87 C
3064 25-03-2017 15:15:00 15.9 C 35 % 0.48 C
3065 25-03-2017 15:20:00 15.9 C 35 % 0.48 C
3066 25-03-2017 15:25:00 16.1 C 36 % 1.04 C
3067 25-03-2017 15:30:00 16 C 37 % 1.33 C
3068 25-03-2017 15:35:00 16 C 35 % 0.56 C
3069 25-03-2017 15:40:00 16 C 35 % 0.56 C
3070 25-03-2017 15:45:00 16.1 C 35 % 0.65 C
3071 25-03-2017 15:50:00 16.1 C 35 % 0.65 C
3072 25-03-2017 15:55:00 16.1 C 35 % 0.65 C
3073 25-03-2017 16:00:00 16.1 C 34 % 0.25 C
3074 25-03-2017 16:05:00 16.2 C 34 % 0.34 C
3075 25-03-2017 16:10:00 16.3 C 34 % 0.43 C
Sensor: Nr:Datum:Temp:Feuchte:Taupunkt:
Aussen-T/F 3076 25-03-2017 16:15:00 16.3 C 32 % -0.4 C
3077 25-03-2017 16:20:00 16.3 C 33 % 0.02 C
3078 25-03-2017 16:25:00 16.4 C 31 % -0.75 C
3079 25-03-2017 16:30:00 16.4 C 31 % -0.75 C
3080 25-03-2017 16:35:00 16.4 C 33 % 0.11 C
3081 25-03-2017 16:40:00 16.6 C 32 % -0.14 C
3082 25-03-2017 16:45:00 16.8 C 33 % 0.46 C
3083 25-03-2017 16:50:00 16.8 C 32 % 0.03 C
3084 25-03-2017 16:55:00 16.7 C 32 % -0.06 C
3085 25-03-2017 17:00:00 16.5 C 34 % 0.6 C
3086 25-03-2017 17:05:00 16.6 C 34 % 0.69 C
3087 25-03-2017 17:10:00 16.6 C 34 % 0.69 C
3088 25-03-2017 17:15:00 16.5 C 33 % 0.19 C
3089 25-03-2017 17:20:00 16.4 C 34 % 0.52 C
3090 25-03-2017 17:25:00 16.5 C 35 % 1.01 C
3091 25-03-2017 17:30:00 16.6 C 37 % 1.87 C
3092 25-03-2017 17:35:00 16.8 C 35 % 1.27 C
3093 25-03-2017 17:40:00 16.8 C 33 % 0.46 C
3094 25-03-2017 17:45:00 16.7 C 32 % -0.06 C
3095 25-03-2017 17:50:00 16.7 C 35 % 1.18 C
3096 25-03-2017 17:55:00 16.7 C 33 % 0.37 C
3097 25-03-2017 18:00:00 16.7 C 34 % 0.78 C
3098 25-03-2017 18:05:00 16.8 C 33 % 0.46 C
3099 25-03-2017 18:10:00 16.8 C 31 % -0.4 C
3100 25-03-2017 18:15:00 16.7 C 33 % 0.37 C
Sensor: Nr:Datum:Temp:Feuchte:Taupunkt:
Aussen-T/F 3101 25-03-2017 18:20:00 16.6 C 33 % 0.28 C
3102 25-03-2017 18:25:00 16.3 C 37 % 1.6 C
3103 25-03-2017 18:30:00 16 C 36 % 0.95 C
3104 25-03-2017 18:35:00 15.7 C 37 % 1.07 C
3105 25-03-2017 18:40:00 15.3 C 38 % 1.08 C
3106 25-03-2017 18:45:00 14.8 C 38 % 0.64 C
3107 25-03-2017 18:50:00 14.3 C 41 % 1.24 C
3108 25-03-2017 18:55:00 13.7 C 46 % 2.3 C
3109 25-03-2017 19:00:00 13.2 C 48 % 2.44 C
3110 25-03-2017 19:05:00 12.7 C 49 % 2.27 C
3111 25-03-2017 19:10:00 12.3 C 51 % 2.47 C
3112 25-03-2017 19:15:00 11.9 C 52 % 2.37 C
3113 25-03-2017 19:20:00 11.7 C 53 % 2.45 C
3114 25-03-2017 19:25:00 11.4 C 53 % 2.17 C
3115 25-03-2017 19:30:00 11.2 C 53 % 1.99 C
3116 25-03-2017 19:35:00 11.1 C 54 % 2.16 C
3117 25-03-2017 19:40:00 10.9 C 54 % 1.97 C
3118 25-03-2017 19:45:00 10.8 C 55 % 2.13 C
3119 25-03-2017 19:50:00 10.7 C 55 % 2.04 C
3120 25-03-2017 19:55:00 10.6 C 55 % 1.95 C
3121 25-03-2017 20:00:00 10.4 C 56 % 2.01 C
3122 25-03-2017 20:05:00 10.3 C 56 % 1.92 C
3123 25-03-2017 20:10:00 10.2 C 57 % 2.07 C
3124 25-03-2017 20:15:00 10.2 C 56 % 1.83 C
3125 25-03-2017 20:20:00 10.1 C 56 % 1.73 C
Sensor: Nr:Datum:Temp:Feuchte:Taupunkt:
Aussen-T/F 3126 25-03-2017 20:25:00 10.1 C 57 % 1.98 C
3127 25-03-2017 20:30:00 9.9 C 57 % 1.79 C
3128 25-03-2017 20:35:00 9.8 C 57 % 1.7 C
3129 25-03-2017 20:40:00 9.8 C 54 % 0.95 C
3130 25-03-2017 20:45:00 9.7 C 58 % 1.85 C
3131 25-03-2017 20:50:00 9.7 C 57 % 1.61 C
3132 25-03-2017 20:55:00 9.6 C 57 % 1.51 C
3133 25-03-2017 21:00:00 9.6 C 57 % 1.51 C
3134 25-03-2017 21:05:00 9.6 C 57 % 1.51 C
3135 25-03-2017 21:10:00 9.6 C 57 % 1.51 C
3136 25-03-2017 21:15:00 9.5 C 58 % 1.66 C
3137 25-03-2017 21:20:00 9.4 C 59 % 1.81 C
3138 25-03-2017 21:25:00 9.3 C 59 % 1.71 C
3139 25-03-2017 21:30:00 9.2 C 60 % 1.85 C
3140 25-03-2017 21:35:00 9.1 C 61 % 1.99 C
3141 25-03-2017 21:40:00 9.1 C 60 % 1.76 C
3142 25-03-2017 21:45:00 9.1 C 61 % 1.99 C
3143 25-03-2017 21:50:00 9 C 61 % 1.89 C
3144 25-03-2017 21:55:00 9 C 62 % 2.12 C
3145 25-03-2017 22:00:00 8.9 C 62 % 2.03 C
3146 25-03-2017 22:05:00 8.8 C 63 % 2.16 C
3147 25-03-2017 22:10:00 8.7 C 64 % 2.28 C
3148 25-03-2017 22:15:00 8.7 C 64 % 2.28 C
3149 25-03-2017 22:20:00 8.7 C 63 % 2.06 C
3150 25-03-2017 22:25:00 8.8 C 63 % 2.16 C
Sensor: Nr:Datum:Temp:Feuchte:Taupunkt:
Aussen-T/F 3151 25-03-2017 22:30:00 8.7 C 61 % 1.61 C
3152 25-03-2017 22:35:00 8.7 C 63 % 2.06 C
3153 25-03-2017 22:40:00 8.7 C 62 % 1.84 C
3154 25-03-2017 22:45:00 8.6 C 61 % 1.52 C
3155 25-03-2017 22:50:00 8.6 C 59 % 1.05 C
3156 25-03-2017 22:55:00 8.5 C 61 % 1.42 C
3157 25-03-2017 23:00:00 8.4 C 62 % 1.55 C
3158 25-03-2017 23:05:00 8.3 C 62 % 1.46 C
3159 25-03-2017 23:10:00 8.2 C 63 % 1.59 C
3160 25-03-2017 23:15:00 8.1 C 63 % 1.49 C
3161 25-03-2017 23:20:00 8.1 C 63 % 1.49 C
3162 25-03-2017 23:25:00 7.9 C 65 % 1.74 C
3163 25-03-2017 23:30:00 7.9 C 64 % 1.52 C
3164 25-03-2017 23:35:00 7.8 C 64 % 1.43 C
3165 25-03-2017 23:40:00 7.7 C 64 % 1.33 C
3166 25-03-2017 23:45:00 7.6 C 65 % 1.45 C
3167 25-03-2017 23:50:00 7.5 C 64 % 1.14 C
3168 25-03-2017 23:55:00 7.4 C 65 % 1.26 C
3169 26-03-2017 00:00:00 7.4 C 65 % 1.26 C
3170 26-03-2017 00:05:00 7.3 C 63 % 0.74 C
3171 26-03-2017 00:10:00 7.2 C 65 % 1.07 C
3172 26-03-2017 00:15:00 7.2 C 65 % 1.07 C
3173 26-03-2017 00:20:00 7.1 C 66 % 1.19 C
3174 26-03-2017 00:25:00 7.1 C 66 % 1.19 C
3175 26-03-2017 00:30:00 7 C 65 % 0.88 C
Sensor: Nr:Datum:Temp:Feuchte:Taupunkt:
Aussen-T/F 3176 26-03-2017 00:35:00 6.9 C 64 % 0.57 C
3177 26-03-2017 00:40:00 6.9 C 65 % 0.79 C
3178 26-03-2017 00:45:00 6.9 C 66 % 1 C
3179 26-03-2017 00:50:00 6.8 C 67 % 1.11 C
3180 26-03-2017 00:55:00 6.7 C 66 % 0.81 C
3181 26-03-2017 01:00:00 6.6 C 66 % 0.71 C
3182 26-03-2017 01:05:00 6.6 C 66 % 0.71 C
3183 26-03-2017 01:10:00 6.5 C 66 % 0.62 C
3184 26-03-2017 01:15:00 6.5 C 67 % 0.83 C
3185 26-03-2017 01:20:00 6.4 C 67 % 0.73 C
3186 26-03-2017 01:25:00 6.5 C 67 % 0.83 C
3187 26-03-2017 01:30:00 6.4 C 67 % 0.73 C
3188 26-03-2017 01:35:00 6.4 C 68 % 0.94 C
3189 26-03-2017 01:40:00 6.4 C 69 % 1.14 C
3190 26-03-2017 01:45:00 6.3 C 69 % 1.04 C
3191 26-03-2017 01:50:00 6.2 C 70 % 1.15 C
3192 26-03-2017 01:55:00 6.1 C 70 % 1.05 C
3193 26-03-2017 02:00:00 5.8 C 71 % 0.96 C
3194 26-03-2017 02:05:00 5.6 C 72 % 0.96 C
3195 26-03-2017 02:10:00 5.3 C 74 % 1.05 C
3196 26-03-2017 02:15:00 5.1 C 75 % 1.04 C
3197 26-03-2017 02:20:00 4.8 C 76 % 0.94 C
3198 26-03-2017 02:25:00 4.7 C 76 % 0.84 C
3199 26-03-2017 02:30:00 4.6 C 77 % 0.92 C
3200 26-03-2017 02:35:00 4.4 C 77 % 0.73 C
Sensor: Nr:Datum:Temp:Feuchte:Taupunkt:
Aussen-T/F 3201 26-03-2017 02:40:00 4.4 C 78 % 0.91 C
3202 26-03-2017 02:45:00 4.4 C 78 % 0.91 C
3203 26-03-2017 02:50:00 4.4 C 78 % 0.91 C
3204 26-03-2017 02:55:00 4.4 C 78 % 0.91 C
3205 26-03-2017 04:00:00 4.4 C 78 % 0.91 C
3206 26-03-2017 04:05:00 4.4 C 78 % 0.91 C
3207 26-03-2017 04:10:00 4.4 C 78 % 0.91 C
3208 26-03-2017 04:15:00 4.5 C 78 % 1.01 C
3209 26-03-2017 04:20:00 4.5 C 79 % 1.18 C
3210 26-03-2017 04:25:00 4.5 C 78 % 1.01 C
3211 26-03-2017 04:30:00 4.5 C 78 % 1.01 C
3212 26-03-2017 04:35:00 4.6 C 78 % 1.1 C
3213 26-03-2017 04:40:00 4.7 C 78 % 1.2 C
3214 26-03-2017 04:45:00 4.8 C 78 % 1.3 C
3215 26-03-2017 04:50:00 4.9 C 78 % 1.39 C
3216 26-03-2017 04:55:00 5 C 78 % 1.49 C
3217 26-03-2017 05:00:00 5 C 77 % 1.31 C
3218 26-03-2017 05:05:00 5.1 C 77 % 1.41 C
3219 26-03-2017 05:10:00 5.1 C 78 % 1.59 C
3220 26-03-2017 05:15:00 5 C 78 % 1.49 C
3221 26-03-2017 05:20:00 4.8 C 78 % 1.3 C
3222 26-03-2017 05:25:00 4.7 C 79 % 1.38 C
3223 26-03-2017 05:30:00 4.6 C 80 % 1.46 C
3224 26-03-2017 05:35:00 4.6 C 79 % 1.28 C
3225 26-03-2017 05:40:00 4.5 C 78 % 1.01 C
Sensor: Nr:Datum:Temp:Feuchte:Taupunkt:
Aussen-T/F 3226 26-03-2017 05:45:00 4.4 C 79 % 1.09 C
3227 26-03-2017 05:50:00 4.4 C 80 % 1.26 C
3228 26-03-2017 05:55:00 4.3 C 80 % 1.16 C
3229 26-03-2017 06:00:00 4.2 C 80 % 1.07 C
3230 26-03-2017 06:05:00 4.2 C 80 % 1.07 C
3231 26-03-2017 06:10:00 4.1 C 80 % 0.97 C
3232 26-03-2017 06:15:00 3.8 C 80 % 0.68 C
3233 26-03-2017 06:20:00 3.8 C 80 % 0.68 C
3234 26-03-2017 06:25:00 3.7 C 80 % 0.58 C
3235 26-03-2017 06:30:00 3.6 C 81 % 0.65 C
3236 26-03-2017 06:35:00 3.6 C 82 % 0.82 C
3237 26-03-2017 06:40:00 3.5 C 83 % 0.89 C
3238 26-03-2017 06:45:00 3.4 C 83 % 0.79 C
3239 26-03-2017 06:50:00 3.4 C 83 % 0.79 C
3240 26-03-2017 06:55:00 3.3 C 82 % 0.53 C
3241 26-03-2017 07:00:00 3.4 C 83 % 0.79 C
3242 26-03-2017 07:05:00 3.5 C 84 % 1.06 C
3243 26-03-2017 07:10:00 3.6 C 84 % 1.16 C
3244 26-03-2017 07:15:00 3.7 C 84 % 1.25 C
3245 26-03-2017 07:20:00 3.7 C 83 % 1.09 C
3246 26-03-2017 07:25:00 3.6 C 83 % 0.99 C
3247 26-03-2017 07:30:00 3.6 C 84 % 1.16 C
3248 26-03-2017 07:35:00 3.5 C 85 % 1.22 C
3249 26-03-2017 07:40:00 3.5 C 84 % 1.06 C
3250 26-03-2017 07:45:00 3.5 C 85 % 1.22 C
Sensor: Nr:Datum:Temp:Feuchte:Taupunkt:
Aussen-T/F 3251 26-03-2017 07:50:00 3.6 C 85 % 1.32 C
3252 26-03-2017 07:55:00 3.6 C 85 % 1.32 C
3253 26-03-2017 08:00:00 3.6 C 84 % 1.16 C
3254 26-03-2017 08:05:00 3.7 C 84 % 1.25 C
3255 26-03-2017 08:10:00 3.7 C 84 % 1.25 C
3256 26-03-2017 08:15:00 3.7 C 84 % 1.25 C
3257 26-03-2017 08:20:00 3.7 C 84 % 1.25 C
3258 26-03-2017 08:25:00 3.7 C 84 % 1.25 C
3259 26-03-2017 08:30:00 3.8 C 85 % 1.52 C
3260 26-03-2017 08:35:00 3.8 C 86 % 1.68 C
3261 26-03-2017 08:40:00 3.8 C 85 % 1.52 C
3262 26-03-2017 08:45:00 3.9 C 84 % 1.45 C
3263 26-03-2017 08:50:00 4 C 85 % 1.71 C
3264 26-03-2017 08:55:00 4.1 C 85 % 1.81 C
3265 26-03-2017 09:00:00 4.2 C 85 % 1.91 C
3266 26-03-2017 09:05:00 4.3 C 84 % 1.84 C
3267 26-03-2017 09:10:00 4.4 C 84 % 1.94 C
3268 26-03-2017 09:15:00 4.6 C 84 % 2.14 C
3269 26-03-2017 09:20:00 4.7 C 85 % 2.4 C
3270 26-03-2017 09:25:00 4.8 C 84 % 2.33 C
3271 26-03-2017 09:30:00 5 C 83 % 2.36 C
3272 26-03-2017 09:35:00 5.2 C 84 % 2.72 C
3273 26-03-2017 09:40:00 5.3 C 83 % 2.65 C
3274 26-03-2017 09:45:00 5.4 C 83 % 2.75 C
3275 26-03-2017 09:50:00 5.7 C 80 % 2.53 C
Sensor: Nr:Datum:Temp:Feuchte:Taupunkt:
Aussen-T/F 3276 26-03-2017 09:55:00 6.1 C 78 % 2.56 C
3277 26-03-2017 10:00:00 6.4 C 77 % 2.67 C
3278 26-03-2017 10:05:00 6.7 C 77 % 2.96 C
3279 26-03-2017 10:10:00 7 C 78 % 3.43 C
3280 26-03-2017 10:15:00 7.2 C 74 % 2.89 C
3281 26-03-2017 10:20:00 7.4 C 72 % 2.69 C
3282 26-03-2017 10:25:00 7.6 C 71 % 2.69 C
3283 26-03-2017 10:30:00 7.9 C 70 % 2.78 C
3284 26-03-2017 10:35:00 8.2 C 72 % 3.46 C
3285 26-03-2017 10:40:00 8.3 C 72 % 3.56 C
3286 26-03-2017 10:45:00 8.4 C 70 % 3.26 C
3287 26-03-2017 10:50:00 8.7 C 67 % 2.92 C
3288 26-03-2017 10:55:00 9 C 67 % 3.21 C
3289 26-03-2017 11:00:00 9.2 C 66 % 3.19 C
3290 26-03-2017 11:05:00 9.4 C 65 % 3.16 C
3291 26-03-2017 11:10:00 9.6 C 63 % 2.91 C
3292 26-03-2017 11:15:00 9.8 C 63 % 3.1 C
3293 26-03-2017 11:20:00 9.9 C 61 % 2.74 C
3294 26-03-2017 11:25:00 10.2 C 63 % 3.48 C
3295 26-03-2017 11:30:00 10.3 C 60 % 2.89 C
3296 26-03-2017 11:35:00 10.4 C 57 % 2.26 C
3297 26-03-2017 11:40:00 10.6 C 56 % 2.2 C
3298 26-03-2017 11:45:00 10.8 C 56 % 2.39 C
3299 26-03-2017 11:50:00 10.9 C 55 % 2.23 C
3300 26-03-2017 11:55:00 11.1 C 56 % 2.67 C
Sensor: Nr:Datum:Temp:Feuchte:Taupunkt:
Aussen-T/F 3301 26-03-2017 12:00:00 11.2 C 54 % 2.25 C
3302 26-03-2017 12:05:00 11.4 C 56 % 2.95 C
3303 26-03-2017 12:10:00 11.5 C 55 % 2.79 C
3304 26-03-2017 12:15:00 11.6 C 53 % 2.36 C
3305 26-03-2017 12:20:00 11.8 C 53 % 2.54 C
3306 26-03-2017 12:25:00 11.9 C 53 % 2.64 C
3307 26-03-2017 12:30:00 12 C 53 % 2.73 C
3308 26-03-2017 12:35:00 12.1 C 51 % 2.28 C
3309 26-03-2017 12:40:00 12.1 C 52 % 2.55 C
3310 26-03-2017 12:45:00 12.2 C 52 % 2.65 C
3311 26-03-2017 12:50:00 12.2 C 52 % 2.65 C
3312 26-03-2017 12:55:00 12.3 C 51 % 2.47 C
3313 26-03-2017 13:00:00 12.4 C 51 % 2.56 C
3314 26-03-2017 13:05:00 12.6 C 52 % 3.02 C
3315 26-03-2017 13:10:00 12.7 C 50 % 2.56 C
3316 26-03-2017 13:15:00 12.7 C 49 % 2.27 C
3317 26-03-2017 13:20:00 12.8 C 50 % 2.65 C
3318 26-03-2017 13:25:00 12.9 C 50 % 2.74 C
3319 26-03-2017 13:30:00 13.1 C 49 % 2.64 C
3320 26-03-2017 13:35:00 13.3 C 48 % 2.54 C
3321 26-03-2017 13:40:00 13.3 C 48 % 2.54 C
3322 26-03-2017 13:45:00 13.4 C 48 % 2.63 C
3323 26-03-2017 13:50:00 13.6 C 49 % 3.1 C
3324 26-03-2017 13:55:00 13.8 C 49 % 3.28 C
3325 26-03-2017 14:00:00 13.9 C 47 % 2.79 C
Sensor: Nr:Datum:Temp:Feuchte:Taupunkt:
Aussen-T/F 3326 26-03-2017 14:05:00 14 C 47 % 2.88 C
3327 26-03-2017 14:10:00 14.1 C 46 % 2.67 C
3328 26-03-2017 14:15:00 14.2 C 48 % 3.36 C
3329 26-03-2017 14:20:00 14.3 C 46 % 2.85 C
3330 26-03-2017 14:25:00 14.4 C 45 % 2.63 C
3331 26-03-2017 14:30:00 14.4 C 46 % 2.94 C
3332 26-03-2017 14:35:00 14.6 C 45 % 2.81 C
3333 26-03-2017 14:40:00 14.7 C 45 % 2.91 C
3334 26-03-2017 14:45:00 14.7 C 44 % 2.59 C
3335 26-03-2017 14:50:00 14.7 C 43 % 2.27 C
3336 26-03-2017 14:55:00 14.8 C 44 % 2.68 C
3337 26-03-2017 15:00:00 14.9 C 43 % 2.45 C
3338 26-03-2017 15:05:00 15.1 C 43 % 2.63 C
3339 26-03-2017 15:10:00 15.2 C 44 % 3.04 C
3340 26-03-2017 15:15:00 15.4 C 43 % 2.9 C
3341 26-03-2017 15:20:00 15.5 C 42 % 2.66 C
3342 26-03-2017 15:25:00 15.6 C 42 % 2.75 C
3343 26-03-2017 15:30:00 15.7 C 40 % 2.15 C
3344 26-03-2017 15:35:00 15.8 C 42 % 2.93 C
3345 26-03-2017 15:40:00 15.9 C 40 % 2.33 C
3346 26-03-2017 15:45:00 15.9 C 39 % 1.98 C
3347 26-03-2017 15:50:00 15.9 C 39 % 1.98 C
3348 26-03-2017 15:55:00 16 C 38 % 1.71 C
3349 26-03-2017 16:00:00 16 C 38 % 1.71 C
3350 26-03-2017 16:05:00 16.2 C 38 % 1.88 C
Sensor: Nr:Datum:Temp:Feuchte:Taupunkt:
Aussen-T/F 3351 26-03-2017 16:10:00 16.3 C 36 % 1.22 C
3352 26-03-2017 16:15:00 16.2 C 37 % 1.51 C
3353 26-03-2017 16:20:00 16.3 C 37 % 1.6 C
3354 26-03-2017 16:25:00 16.4 C 36 % 1.31 C
3355 26-03-2017 16:30:00 16.6 C 35 % 1.09 C
3356 26-03-2017 16:35:00 16.6 C 36 % 1.49 C
3357 26-03-2017 16:40:00 16.9 C 36 % 1.75 C
3358 26-03-2017 16:45:00 16.9 C 34 % 0.96 C
3359 26-03-2017 16:50:00 16.8 C 33 % 0.46 C
3360 26-03-2017 16:55:00 16.8 C 34 % 0.87 C
3361 26-03-2017 17:00:00 16.7 C 33 % 0.37 C
3362 26-03-2017 17:05:00 16.8 C 34 % 0.87 C
3363 26-03-2017 17:10:00 16.7 C 34 % 0.78 C
3364 26-03-2017 17:15:00 16.9 C 33 % 0.54 C
3365 26-03-2017 17:20:00 17.1 C 34 % 1.13 C
3366 26-03-2017 17:25:00 17.1 C 33 % 0.72 C
3367 26-03-2017 17:30:00 17.1 C 35 % 1.53 C
3368 26-03-2017 17:35:00 17.3 C 33 % 0.89 C
3369 26-03-2017 17:40:00 17.1 C 34 % 1.13 C
3370 26-03-2017 17:45:00 17 C 34 % 1.04 C
3371 26-03-2017 17:50:00 17 C 33 % 0.63 C
3372 26-03-2017 17:55:00 17.1 C 35 % 1.53 C
3373 26-03-2017 18:00:00 17.1 C 33 % 0.72 C
3374 26-03-2017 18:05:00 17 C 36 % 1.84 C
3375 26-03-2017 18:10:00 17.1 C 36 % 1.93 C
Sensor: Nr:Datum:Temp:Feuchte:Taupunkt:
Aussen-T/F 3376 26-03-2017 18:15:00 17.1 C 36 % 1.93 C
3377 26-03-2017 18:20:00 16.9 C 36 % 1.75 C
3378 26-03-2017 18:25:00 16.9 C 36 % 1.75 C
3379 26-03-2017 18:30:00 16.8 C 36 % 1.66 C
3380 26-03-2017 18:35:00 16.7 C 37 % 1.96 C
3381 26-03-2017 18:40:00 16.7 C 38 % 2.33 C
3382 26-03-2017 18:45:00 16.5 C 41 % 3.22 C
3383 26-03-2017 18:50:00 16.3 C 38 % 1.97 C
3384 26-03-2017 18:55:00 16.2 C 41 % 2.95 C
3385 26-03-2017 19:00:00 16.1 C 41 % 2.86 C
3386 26-03-2017 19:05:00 15.9 C 44 % 3.68 C
3387 26-03-2017 19:10:00 15.5 C 46 % 3.94 C
3388 26-03-2017 19:15:00 15.1 C 49 % 4.48 C
3389 26-03-2017 19:20:00 14.4 C 51 % 4.4 C
3390 26-03-2017 19:25:00 13.8 C 53 % 4.4 C
3391 26-03-2017 19:30:00 13.3 C 55 % 4.46 C
3392 26-03-2017 19:35:00 12.9 C 56 % 4.35 C
3393 26-03-2017 19:40:00 12.6 C 58 % 4.57 C
3394 26-03-2017 19:45:00 12.2 C 59 % 4.43 C
3395 26-03-2017 19:50:00 11.8 C 59 % 4.06 C
3396 26-03-2017 19:55:00 11.6 C 59 % 3.87 C
3397 26-03-2017 20:00:00 11.3 C 61 % 4.06 C
3398 26-03-2017 20:05:00 11.1 C 62 % 4.11 C
3399 26-03-2017 20:10:00 10.9 C 62 % 3.92 C
3400 26-03-2017 20:15:00 10.8 C 63 % 4.05 C
Sensor: Nr:Datum:Temp:Feuchte:Taupunkt:
Aussen-T/F 3401 26-03-2017 20:20:00 10.7 C 63 % 3.95 C
3402 26-03-2017 20:25:00 10.6 C 63 % 3.86 C
3403 26-03-2017 20:30:00 10.5 C 64 % 3.99 C
3404 26-03-2017 20:35:00 10.4 C 64 % 3.89 C
3405 26-03-2017 20:40:00 10.3 C 65 % 4.02 C
3406 26-03-2017 20:45:00 10.2 C 65 % 3.92 C
3407 26-03-2017 20:50:00 10.1 C 66 % 4.05 C
3408 26-03-2017 20:55:00 9.9 C 67 % 4.07 C
3409 26-03-2017 21:00:00 9.8 C 68 % 4.18 C
3410 26-03-2017 21:05:00 9.7 C 68 % 4.09 C
3411 26-03-2017 21:10:00 9.6 C 69 % 4.2 C
3412 26-03-2017 21:15:00 9.4 C 70 % 4.21 C
3413 26-03-2017 21:20:00 9.3 C 71 % 4.32 C
3414 26-03-2017 21:25:00 9.1 C 71 % 4.13 C
3415 26-03-2017 21:30:00 8.9 C 72 % 4.14 C
3416 26-03-2017 21:35:00 8.8 C 73 % 4.24 C
3417 26-03-2017 21:40:00 8.7 C 73 % 4.14 C
3418 26-03-2017 21:45:00 8.6 C 74 % 4.24 C
3419 26-03-2017 21:50:00 8.6 C 73 % 4.04 C
3420 26-03-2017 21:55:00 8.7 C 74 % 4.33 C
3421 26-03-2017 22:00:00 8.7 C 73 % 4.14 C
3422 26-03-2017 22:05:00 8.7 C 73 % 4.14 C
3423 26-03-2017 22:10:00 8.6 C 74 % 4.24 C
3424 26-03-2017 22:15:00 8.6 C 74 % 4.24 C
3425 26-03-2017 22:20:00 8.5 C 74 % 4.14 C
Sensor: Nr:Datum:Temp:Feuchte:Taupunkt:
Aussen-T/F 3426 26-03-2017 22:25:00 8.4 C 74 % 4.04 C
3427 26-03-2017 22:30:00 8.3 C 74 % 3.95 C
3428 26-03-2017 22:35:00 8.2 C 76 % 4.23 C
3429 26-03-2017 22:40:00 8.1 C 76 % 4.13 C
3430 26-03-2017 22:45:00 7.9 C 77 % 4.12 C
3431 26-03-2017 22:50:00 7.7 C 76 % 3.75 C
3432 26-03-2017 22:55:00 7.6 C 76 % 3.65 C
3433 26-03-2017 23:00:00 7.5 C 77 % 3.74 C
3434 26-03-2017 23:05:00 7.4 C 77 % 3.64 C
3435 26-03-2017 23:10:00 7.4 C 78 % 3.82 C
3436 26-03-2017 23:15:00 7.3 C 78 % 3.73 C
3437 26-03-2017 23:20:00 7.1 C 78 % 3.53 C
3438 26-03-2017 23:25:00 7 C 79 % 3.61 C
3439 26-03-2017 23:30:00 6.9 C 80 % 3.7 C
3440 26-03-2017 23:35:00 6.9 C 80 % 3.7 C
3441 26-03-2017 23:40:00 6.8 C 79 % 3.42 C
3442 26-03-2017 23:45:00 6.7 C 80 % 3.5 C
3443 26-03-2017 23:50:00 6.6 C 81 % 3.58 C
3444 26-03-2017 23:55:00 6.5 C 81 % 3.48 C
3445 27-03-2017 00:00:00 6.4 C 81 % 3.38 C
3446 27-03-2017 00:05:00 6.3 C 82 % 3.46 C
3447 27-03-2017 00:10:00 6.1 C 81 % 3.09 C
3448 27-03-2017 00:15:00 5.9 C 82 % 3.07 C
3449 27-03-2017 00:20:00 5.8 C 83 % 3.14 C
3450 27-03-2017 00:25:00 5.7 C 83 % 3.04 C
Sensor: Nr:Datum:Temp:Feuchte:Taupunkt:
Aussen-T/F 3451 27-03-2017 00:30:00 5.7 C 83 % 3.04 C
3452 27-03-2017 00:35:00 5.6 C 82 % 2.78 C
3453 27-03-2017 00:40:00 5.6 C 82 % 2.78 C
3454 27-03-2017 00:45:00 5.5 C 82 % 2.68 C
3455 27-03-2017 00:50:00 5.4 C 83 % 2.75 C
3456 27-03-2017 00:55:00 5.3 C 84 % 2.82 C
3457 27-03-2017 01:00:00 5.2 C 85 % 2.89 C
3458 27-03-2017 01:05:00 5.1 C 85 % 2.79 C
3459 27-03-2017 01:10:00 5.1 C 85 % 2.79 C
3460 27-03-2017 01:15:00 5 C 85 % 2.69 C
3461 27-03-2017 01:20:00 5 C 85 % 2.69 C
3462 27-03-2017 01:25:00 5.1 C 86 % 2.96 C
3463 27-03-2017 01:30:00 4.9 C 85 % 2.6 C
3464 27-03-2017 01:35:00 4.9 C 86 % 2.76 C
3465 27-03-2017 01:40:00 4.9 C 85 % 2.6 C
3466 27-03-2017 01:45:00 4.8 C 86 % 2.66 C
3467 27-03-2017 01:50:00 4.7 C 86 % 2.56 C
3468 27-03-2017 01:55:00 4.6 C 86 % 2.47 C
3469 27-03-2017 02:00:00 4.5 C 86 % 2.37 C
3470 27-03-2017 02:05:00 4.4 C 87 % 2.43 C
3471 27-03-2017 02:10:00 4.4 C 86 % 2.27 C
3472 27-03-2017 02:15:00 4.4 C 86 % 2.27 C
3473 27-03-2017 02:20:00 4.2 C 86 % 2.07 C
3474 27-03-2017 02:25:00 4.1 C 87 % 2.14 C
3475 27-03-2017 02:30:00 3.9 C 87 % 1.94 C
Sensor: Nr:Datum:Temp:Feuchte:Taupunkt:
Aussen-T/F 3476 27-03-2017 02:35:00 3.9 C 88 % 2.1 C
3477 27-03-2017 02:40:00 3.9 C 88 % 2.1 C
3478 27-03-2017 02:45:00 3.9 C 87 % 1.94 C
3479 27-03-2017 02:50:00 4 C 88 % 2.2 C
3480 27-03-2017 02:55:00 4 C 87 % 2.04 C
3481 27-03-2017 03:00:00 3.9 C 86 % 1.78 C
3482 27-03-2017 03:05:00 3.8 C 86 % 1.68 C
3483 27-03-2017 03:10:00 3.8 C 87 % 1.84 C
3484 27-03-2017 03:15:00 3.8 C 87 % 1.84 C
3485 27-03-2017 03:20:00 3.8 C 86 % 1.68 C
3486 27-03-2017 03:25:00 3.6 C 86 % 1.48 C
3487 27-03-2017 03:30:00 3.6 C 87 % 1.64 C
3488 27-03-2017 03:35:00 3.5 C 87 % 1.55 C
3489 27-03-2017 03:40:00 3.3 C 87 % 1.35 C
3490 27-03-2017 03:45:00 3.2 C 87 % 1.25 C
3491 27-03-2017 03:50:00 3.2 C 88 % 1.41 C
3492 27-03-2017 03:55:00 3.2 C 88 % 1.41 C
3493 27-03-2017 04:00:00 3.1 C 88 % 1.31 C
3494 27-03-2017 04:05:00 2.9 C 88 % 1.11 C
3495 27-03-2017 04:10:00 2.8 C 88 % 1.02 C
3496 27-03-2017 04:15:00 2.7 C 88 % 0.92 C
3497 27-03-2017 04:20:00 2.6 C 88 % 0.82 C
3498 27-03-2017 04:25:00 2.5 C 89 % 0.88 C
3499 27-03-2017 04:30:00 2.4 C 89 % 0.78 C
3500 27-03-2017 04:35:00 2.4 C 89 % 0.78 C
Sensor: Nr:Datum:Temp:Feuchte:Taupunkt:
Aussen-T/F 3501 27-03-2017 04:40:00 2.4 C 89 % 0.78 C
3502 27-03-2017 04:45:00 2.5 C 89 % 0.88 C
3503 27-03-2017 04:50:00 2.4 C 89 % 0.78 C
3504 27-03-2017 04:55:00 2.4 C 89 % 0.78 C
3505 27-03-2017 05:00:00 2.3 C 88 % 0.52 C
3506 27-03-2017 05:05:00 2.2 C 89 % 0.58 C
3507 27-03-2017 05:10:00 2.3 C 89 % 0.68 C
3508 27-03-2017 05:15:00 2.3 C 89 % 0.68 C
3509 27-03-2017 05:20:00 2.2 C 89 % 0.58 C
3510 27-03-2017 05:25:00 2.1 C 89 % 0.48 C
3511 27-03-2017 05:30:00 2.1 C 89 % 0.48 C
3512 27-03-2017 05:35:00 2.1 C 89 % 0.48 C
3513 27-03-2017 05:40:00 1.9 C 89 % 0.28 C
3514 27-03-2017 05:45:00 1.8 C 89 % 0.19 C
3515 27-03-2017 05:50:00 1.8 C 90 % 0.34 C
3516 27-03-2017 05:55:00 1.8 C 90 % 0.34 C
3517 27-03-2017 06:00:00 1.8 C 90 % 0.34 C
3518 27-03-2017 06:05:00 1.7 C 90 % 0.24 C
3519 27-03-2017 06:10:00 1.6 C 90 % 0.14 C
3520 27-03-2017 06:15:00 1.6 C 90 % 0.14 C
3521 27-03-2017 06:20:00 1.5 C 90 % 0.04 C
3522 27-03-2017 06:25:00 1.4 C 91 % 0.1 C
3523 27-03-2017 06:30:00 1.4 C 91 % 0.1 C
3524 27-03-2017 06:35:00 1.5 C 91 % 0.19 C
3525 27-03-2017 06:40:00 1.4 C 92 % 0.25 C
Sensor: Nr:Datum:Temp:Feuchte:Taupunkt:
Aussen-T/F 3526 27-03-2017 06:45:00 1.5 C 92 % 0.35 C
3527 27-03-2017 06:50:00 1.3 C 91 % 0 C
3528 27-03-2017 06:55:00 1.3 C 92 % 0.15 C
3529 27-03-2017 07:00:00 1.3 C 92 % 0.15 C
3530 27-03-2017 07:05:00 1.2 C 91 % -0.1 C
3531 27-03-2017 07:10:00 1 C 91 % -0.3 C
3532 27-03-2017 07:15:00 0.8 C 91 % -0.5 C
3533 27-03-2017 07:20:00 0.8 C 92 % -0.35 C
3534 27-03-2017 07:25:00 0.9 C 93 % -0.1 C
3535 27-03-2017 07:30:00 1 C 93 % 0 C
3536 27-03-2017 07:35:00 1 C 93 % 0 C
3537 27-03-2017 07:40:00 1.1 C 93 % 0.1 C
3538 27-03-2017 07:45:00 1.1 C 93 % 0.1 C
3539 27-03-2017 07:50:00 0.9 C 92 % -0.25 C
3540 27-03-2017 07:55:00 0.9 C 93 % -0.1 C
3541 27-03-2017 08:00:00 0.9 C 93 % -0.1 C
3542 27-03-2017 08:05:00 0.9 C 93 % -0.1 C
3543 27-03-2017 08:10:00 0.9 C 93 % -0.1 C
3544 27-03-2017 08:15:00 1 C 93 % 0 C
3545 27-03-2017 08:20:00 1.1 C 93 % 0.1 C
3546 27-03-2017 08:25:00 1.1 C 93 % 0.1 C
3547 27-03-2017 08:30:00 1.2 C 93 % 0.2 C
3548 27-03-2017 08:35:00 1.3 C 93 % 0.3 C
3549 27-03-2017 08:40:00 1.3 C 93 % 0.3 C
3550 27-03-2017 08:45:00 1.3 C 93 % 0.3 C
Sensor: Nr:Datum:Temp:Feuchte:Taupunkt:
Aussen-T/F 3551 27-03-2017 08:50:00 1.4 C 93 % 0.4 C
3552 27-03-2017 08:55:00 1.4 C 93 % 0.4 C
3553 27-03-2017 09:00:00 1.5 C 93 % 0.49 C
3554 27-03-2017 09:05:00 1.6 C 93 % 0.59 C
3555 27-03-2017 09:10:00 1.7 C 93 % 0.69 C
3556 27-03-2017 09:15:00 1.7 C 93 % 0.69 C
3557 27-03-2017 09:20:00 1.8 C 93 % 0.79 C
3558 27-03-2017 09:25:00 1.9 C 93 % 0.89 C
3559 27-03-2017 09:30:00 1.9 C 93 % 0.89 C
3560 27-03-2017 09:35:00 2.1 C 93 % 1.09 C
3561 27-03-2017 09:40:00 2.2 C 93 % 1.19 C
3562 27-03-2017 09:45:00 2.3 C 93 % 1.29 C
3563 27-03-2017 09:50:00 2.4 C 93 % 1.39 C
3564 27-03-2017 09:55:00 2.6 C 93 % 1.59 C
3565 27-03-2017 10:00:00 2.7 C 93 % 1.68 C
3566 27-03-2017 10:05:00 2.9 C 93 % 1.88 C
3567 27-03-2017 10:10:00 3.2 C 92 % 2.03 C
3568 27-03-2017 10:15:00 3.3 C 91 % 1.98 C
3569 27-03-2017 10:20:00 3.6 C 91 % 2.27 C
3570 27-03-2017 10:25:00 3.9 C 90 % 2.41 C
3571 27-03-2017 10:30:00 4.2 C 89 % 2.55 C
3572 27-03-2017 10:35:00 4.6 C 88 % 2.79 C
3573 27-03-2017 10:40:00 4.9 C 86 % 2.76 C
3574 27-03-2017 10:45:00 5.3 C 85 % 2.99 C
3575 27-03-2017 10:50:00 5.8 C 83 % 3.14 C
Sensor: Nr:Datum:Temp:Feuchte:Taupunkt:
Aussen-T/F 3576 27-03-2017 10:55:00 6.3 C 81 % 3.29 C
3577 27-03-2017 11:00:00 6.8 C 77 % 3.06 C
3578 27-03-2017 11:05:00 7.3 C 77 % 3.54 C
3579 27-03-2017 11:10:00 7.7 C 76 % 3.75 C
3580 27-03-2017 11:15:00 8 C 73 % 3.46 C
3581 27-03-2017 11:20:00 8.3 C 72 % 3.56 C
3582 27-03-2017 11:25:00 8.6 C 72 % 3.85 C
3583 27-03-2017 11:30:00 8.8 C 71 % 3.84 C
3584 27-03-2017 11:35:00 9 C 67 % 3.21 C
3585 27-03-2017 11:40:00 9.3 C 64 % 2.85 C
3586 27-03-2017 11:45:00 9.8 C 63 % 3.1 C
3587 27-03-2017 11:50:00 10.2 C 64 % 3.7 C
3588 27-03-2017 11:55:00 10.4 C 58 % 2.5 C
3589 27-03-2017 12:00:00 10.8 C 57 % 2.63 C
3590 27-03-2017 12:05:00 11 C 55 % 2.32 C
3591 27-03-2017 12:10:00 11.3 C 54 % 2.34 C
3592 27-03-2017 12:15:00 11.6 C 56 % 3.13 C
3593 27-03-2017 12:20:00 11.9 C 54 % 2.9 C
3594 27-03-2017 12:25:00 12.2 C 53 % 2.91 C
3595 27-03-2017 12:30:00 12.3 C 50 % 2.19 C
3596 27-03-2017 12:35:00 12.7 C 46 % 1.39 C
3597 27-03-2017 12:40:00 13 C 47 % 1.97 C
3598 27-03-2017 12:45:00 13.3 C 42 % 0.68 C
3599 27-03-2017 12:50:00 13.7 C 39 % 0.01 C
3600 27-03-2017 12:55:00 14 C 39 % 0.28 C
Sensor: Nr:Datum:Temp:Feuchte:Taupunkt:
Aussen-T/F 3601 27-03-2017 13:00:00 14.2 C 36 % -0.64 C
3602 27-03-2017 13:05:00 14.3 C 34 % -1.33 C
3603 27-03-2017 13:10:00 14.4 C 35 % -0.85 C
3604 27-03-2017 13:15:00 14.7 C 34 % -0.98 C
3605 27-03-2017 13:20:00 14.8 C 32 % -1.71 C
3606 27-03-2017 13:25:00 14.9 C 33 % -1.21 C
3607 27-03-2017 13:30:00 15 C 33 % -1.12 C
3608 27-03-2017 13:35:00 15 C 32 % -1.54 C
3609 27-03-2017 13:40:00 15.1 C 34 % -0.63 C
3610 27-03-2017 13:45:00 15.1 C 31 % -1.88 C
3611 27-03-2017 13:50:00 15.2 C 34 % -0.54 C
3612 27-03-2017 13:55:00 15.3 C 30 % -2.15 C
3613 27-03-2017 14:00:00 15.3 C 30 % -2.15 C
3614 27-03-2017 14:05:00 15.4 C 30 % -2.06 C
3615 27-03-2017 14:10:00 15.5 C 31 % -1.53 C
3616 27-03-2017 14:15:00 15.7 C 30 % -1.8 C
3617 27-03-2017 14:20:00 15.8 C 29 % -2.18 C
3618 27-03-2017 14:25:00 15.8 C 30 % -1.72 C
3619 27-03-2017 14:30:00 15.9 C 30 % -1.63 C
3620 27-03-2017 14:35:00 16.1 C 30 % -1.46 C
3621 27-03-2017 14:40:00 16.2 C 30 % -1.37 C
3622 27-03-2017 14:45:00 16.4 C 29 % -1.66 C
3623 27-03-2017 14:50:00 16.5 C 29 % -1.57 C
3624 27-03-2017 14:55:00 16.7 C 29 % -1.4 C
3625 27-03-2017 15:00:00 16.8 C 28 % -1.79 C
Sensor: Nr:Datum:Temp:Feuchte:Taupunkt:
Aussen-T/F 3626 27-03-2017 15:05:00 16.8 C 30 % -0.85 C
3627 27-03-2017 15:10:00 16.9 C 29 % -1.23 C
3628 27-03-2017 15:15:00 16.8 C 28 % -1.79 C
3629 27-03-2017 15:20:00 16.8 C 28 % -1.79 C
3630 27-03-2017 15:25:00 16.9 C 28 % -1.7 C
3631 27-03-2017 15:30:00 17 C 27 % -2.11 C
3632 27-03-2017 15:35:00 17.1 C 28 % -1.53 C
3633 27-03-2017 15:40:00 17.2 C 26 % -2.45 C
3634 27-03-2017 15:45:00 17.3 C 28 % -1.36 C
3635 27-03-2017 15:50:00 17.2 C 26 % -2.45 C
3636 27-03-2017 15:55:00 17.3 C 26 % -2.36 C
3637 27-03-2017 16:00:00 17.4 C 26 % -2.28 C
3638 27-03-2017 16:05:00 17.6 C 28 % -1.1 C
3639 27-03-2017 16:10:00 17.8 C 27 % -1.43 C
3640 27-03-2017 16:15:00 17.9 C 27 % -1.34 C
3641 27-03-2017 16:20:00 17.9 C 27 % -1.34 C
3642 27-03-2017 16:25:00 18 C 26 % -1.77 C
3643 27-03-2017 16:30:00 18.2 C 26 % -1.6 C
3644 27-03-2017 16:35:00 18.3 C 26 % -1.51 C
3645 27-03-2017 16:40:00 18.5 C 26 % -1.34 C
3646 27-03-2017 16:45:00 18.6 C 26 % -1.26 C
3647 27-03-2017 16:50:00 18.7 C 25 % -1.7 C
3648 27-03-2017 16:55:00 18.9 C 25 % -1.53 C
3649 27-03-2017 17:00:00 19.1 C 26 % -0.83 C
3650 27-03-2017 17:05:00 19.3 C 25 % -1.19 C
Sensor: Nr:Datum:Temp:Feuchte:Taupunkt:
Aussen-T/F 3651 27-03-2017 17:10:00 19.5 C 24 % -1.58 C
3652 27-03-2017 17:15:00 19.5 C 25 % -1.03 C
3653 27-03-2017 17:20:00 19.6 C 26 % -0.4 C
3654 27-03-2017 17:25:00 19.9 C 25 % -0.69 C
3655 27-03-2017 17:30:00 20.2 C 25 % -0.43 C
3656 27-03-2017 17:35:00 20.2 C 24 % -0.99 C
3657 27-03-2017 17:40:00 20.3 C 23 % -1.49 C
3658 27-03-2017 17:45:00 20.2 C 22 % -2.17 C
3659 27-03-2017 17:50:00 20.1 C 26 % 0.02 C
3660 27-03-2017 17:55:00 20.3 C 27 % 0.71 C
3661 27-03-2017 18:00:00 20.4 C 26 % 0.28 C
3662 27-03-2017 18:05:00 20.7 C 26 % 0.53 C
3663 27-03-2017 18:10:00 20.7 C 24 % -0.57 C
3664 27-03-2017 18:15:00 20.4 C 23 % -1.4 C
3665 27-03-2017 18:20:00 20.3 C 24 % -0.91 C
3666 27-03-2017 18:25:00 20.2 C 26 % 0.11 C
3667 27-03-2017 18:30:00 20.3 C 27 % 0.71 C
3668 27-03-2017 18:35:00 20.3 C 25 % -0.35 C
3669 27-03-2017 18:40:00 20.3 C 25 % -0.35 C
3670 27-03-2017 18:45:00 20.3 C 29 % 1.7 C
3671 27-03-2017 18:50:00 20.1 C 32 % 2.91 C
3672 27-03-2017 18:55:00 19.7 C 33 % 2.99 C
3673 27-03-2017 19:00:00 19.3 C 35 % 3.47 C
3674 27-03-2017 19:05:00 18.8 C 34 % 2.62 C
3675 27-03-2017 19:10:00 18.4 C 37 % 3.46 C
Sensor: Nr:Datum:Temp:Feuchte:Taupunkt:
Aussen-T/F 3676 27-03-2017 19:15:00 18 C 38 % 3.49 C
3677 27-03-2017 19:20:00 17.6 C 39 % 3.5 C
3678 27-03-2017 19:25:00 17 C 39 % 2.96 C
3679 27-03-2017 19:30:00 16.3 C 40 % 2.69 C
3680 27-03-2017 19:35:00 15.7 C 43 % 3.17 C
3681 27-03-2017 19:40:00 15.1 C 44 % 2.95 C
3682 27-03-2017 19:45:00 14.3 C 45 % 2.54 C
3683 27-03-2017 19:50:00 13.7 C 49 % 3.19 C
3684 27-03-2017 19:55:00 13.1 C 48 % 2.35 C
3685 27-03-2017 20:00:00 12.6 C 51 % 2.74 C
3686 27-03-2017 20:05:00 12.1 C 52 % 2.55 C
3687 27-03-2017 20:10:00 11.7 C 54 % 2.71 C
3688 27-03-2017 20:15:00 11.4 C 53 % 2.17 C
3689 27-03-2017 20:20:00 11.3 C 54 % 2.34 C
3690 27-03-2017 20:25:00 11.1 C 55 % 2.41 C
3691 27-03-2017 20:30:00 10.9 C 53 % 1.71 C
3692 27-03-2017 20:35:00 10.9 C 54 % 1.97 C
3693 27-03-2017 20:40:00 10.9 C 53 % 1.71 C
3694 27-03-2017 20:45:00 10.8 C 54 % 1.88 C
3695 27-03-2017 20:50:00 10.8 C 55 % 2.13 C
3696 27-03-2017 20:55:00 10.7 C 58 % 2.79 C
3697 27-03-2017 21:00:00 10.5 C 58 % 2.6 C
3698 27-03-2017 21:05:00 10.3 C 60 % 2.89 C
3699 27-03-2017 21:10:00 10.1 C 61 % 2.93 C
3700 27-03-2017 21:15:00 9.9 C 59 % 2.27 C
Sensor: Nr:Datum:Temp:Feuchte:Taupunkt:
Aussen-T/F 3701 27-03-2017 21:20:00 10.1 C 59 % 2.46 C
3702 27-03-2017 21:25:00 9.9 C 61 % 2.74 C
3703 27-03-2017 21:30:00 9.8 C 61 % 2.65 C
3704 27-03-2017 21:35:00 9.6 C 60 % 2.23 C
3705 27-03-2017 21:40:00 9.6 C 61 % 2.46 C
3706 27-03-2017 21:45:00 9.4 C 63 % 2.72 C
3707 27-03-2017 21:50:00 9.2 C 64 % 2.76 C
3708 27-03-2017 21:55:00 8.9 C 63 % 2.25 C
3709 27-03-2017 22:00:00 8.8 C 64 % 2.38 C
3710 27-03-2017 22:05:00 8.8 C 64 % 2.38 C
3711 27-03-2017 22:10:00 8.7 C 65 % 2.5 C
3712 27-03-2017 22:15:00 8.6 C 65 % 2.4 C
3713 27-03-2017 22:20:00 8.3 C 66 % 2.33 C
3714 27-03-2017 22:25:00 8.1 C 67 % 2.35 C
3715 27-03-2017 22:30:00 7.8 C 67 % 2.07 C
3716 27-03-2017 22:35:00 7.7 C 66 % 1.76 C
3717 27-03-2017 22:40:00 7.5 C 66 % 1.57 C
3718 27-03-2017 22:45:00 7.4 C 67 % 1.69 C
3719 27-03-2017 22:50:00 7.3 C 67 % 1.59 C
3720 27-03-2017 22:55:00 7.2 C 66 % 1.29 C
3721 27-03-2017 23:00:00 7.1 C 67 % 1.4 C
3722 27-03-2017 23:05:00 6.9 C 68 % 1.41 C
3723 27-03-2017 23:10:00 6.9 C 68 % 1.41 C
3724 27-03-2017 23:15:00 6.8 C 68 % 1.32 C
3725 27-03-2017 23:20:00 6.8 C 68 % 1.32 C
Sensor: Nr:Datum:Temp:Feuchte:Taupunkt:
Aussen-T/F 3726 27-03-2017 23:25:00 6.6 C 70 % 1.53 C
3727 27-03-2017 23:30:00 6.3 C 70 % 1.24 C
3728 27-03-2017 23:35:00 6.2 C 71 % 1.34 C
3729 27-03-2017 23:40:00 6.1 C 72 % 1.44 C
3730 27-03-2017 23:45:00 6 C 72 % 1.35 C
3731 27-03-2017 23:50:00 5.9 C 75 % 1.82 C
3732 27-03-2017 23:55:00 5.8 C 75 % 1.72 C
3733 28-03-2017 00:00:00 5.8 C 75 % 1.72 C
3734 28-03-2017 00:05:00 5.9 C 73 % 1.44 C
3735 28-03-2017 00:10:00 6.3 C 72 % 1.63 C
3736 28-03-2017 00:15:00 6.5 C 71 % 1.63 C
3737 28-03-2017 00:20:00 6.5 C 72 % 1.83 C
3738 28-03-2017 00:25:00 6.4 C 72 % 1.73 C
3739 28-03-2017 00:30:00 6.2 C 72 % 1.54 C
3740 28-03-2017 00:35:00 5.8 C 73 % 1.34 C
3741 28-03-2017 00:40:00 5.6 C 75 % 1.53 C
3742 28-03-2017 00:45:00 5.3 C 75 % 1.24 C
3743 28-03-2017 00:50:00 5.1 C 76 % 1.23 C
3744 28-03-2017 00:55:00 4.9 C 77 % 1.22 C
3745 28-03-2017 01:00:00 4.8 C 78 % 1.3 C
3746 28-03-2017 01:05:00 4.7 C 78 % 1.2 C
3747 28-03-2017 01:10:00 4.6 C 78 % 1.1 C
3748 28-03-2017 01:15:00 4.6 C 79 % 1.28 C
3749 28-03-2017 01:20:00 4.7 C 80 % 1.55 C
3750 28-03-2017 01:25:00 4.6 C 80 % 1.46 C
Sensor: Nr:Datum:Temp:Feuchte:Taupunkt:
Aussen-T/F 3751 28-03-2017 01:30:00 4.5 C 80 % 1.36 C
3752 28-03-2017 01:35:00 4.4 C 81 % 1.43 C
3753 28-03-2017 01:40:00 4.4 C 80 % 1.26 C
3754 28-03-2017 01:45:00 4.3 C 80 % 1.16 C
3755 28-03-2017 01:50:00 4.3 C 80 % 1.16 C
3756 28-03-2017 01:55:00 4.3 C 80 % 1.16 C
3757 28-03-2017 02:00:00 4.2 C 80 % 1.07 C
3758 28-03-2017 02:05:00 4.3 C 80 % 1.16 C
3759 28-03-2017 02:10:00 4.3 C 79 % 0.99 C
3760 28-03-2017 02:15:00 4.2 C 80 % 1.07 C
3761 28-03-2017 02:20:00 4.2 C 81 % 1.24 C
3762 28-03-2017 02:25:00 4.2 C 81 % 1.24 C
3763 28-03-2017 02:30:00 4.1 C 81 % 1.14 C
3764 28-03-2017 02:35:00 4 C 81 % 1.04 C
3765 28-03-2017 02:40:00 3.9 C 81 % 0.95 C
3766 28-03-2017 02:45:00 3.9 C 81 % 0.95 C
3767 28-03-2017 02:50:00 3.7 C 81 % 0.75 C
3768 28-03-2017 02:55:00 3.7 C 83 % 1.09 C
3769 28-03-2017 03:00:00 3.7 C 83 % 1.09 C
3770 28-03-2017 03:05:00 3.6 C 83 % 0.99 C
3771 28-03-2017 03:10:00 3.5 C 83 % 0.89 C
3772 28-03-2017 03:15:00 3.4 C 83 % 0.79 C
3773 28-03-2017 03:20:00 3.3 C 84 % 0.86 C
3774 28-03-2017 03:25:00 3.2 C 83 % 0.6 C
3775 28-03-2017 03:30:00 3.1 C 83 % 0.5 C
Sensor: Nr:Datum:Temp:Feuchte:Taupunkt:
Aussen-T/F 3776 28-03-2017 03:35:00 3 C 83 % 0.4 C
3777 28-03-2017 03:40:00 3 C 84 % 0.57 C
3778 28-03-2017 03:45:00 2.9 C 84 % 0.47 C
3779 28-03-2017 03:50:00 3 C 85 % 0.73 C
3780 28-03-2017 03:55:00 3 C 84 % 0.57 C
3781 28-03-2017 04:00:00 2.9 C 84 % 0.47 C
3782 28-03-2017 04:05:00 2.8 C 84 % 0.37 C
3783 28-03-2017 04:10:00 2.7 C 84 % 0.27 C
3784 28-03-2017 04:15:00 2.6 C 84 % 0.18 C
3785 28-03-2017 04:20:00 2.6 C 85 % 0.34 C
3786 28-03-2017 04:25:00 2.5 C 85 % 0.24 C
3787 28-03-2017 04:30:00 2.6 C 87 % 0.66 C
3788 28-03-2017 04:35:00 2.7 C 87 % 0.76 C
3789 28-03-2017 04:40:00 2.8 C 86 % 0.7 C
3790 28-03-2017 04:45:00 2.7 C 86 % 0.6 C
3791 28-03-2017 04:50:00 2.8 C 86 % 0.7 C
3792 28-03-2017 04:55:00 2.7 C 86 % 0.6 C
3793 28-03-2017 05:00:00 2.7 C 86 % 0.6 C
3794 28-03-2017 05:05:00 2.7 C 86 % 0.6 C
3795 28-03-2017 05:10:00 2.8 C 86 % 0.7 C
3796 28-03-2017 05:15:00 2.9 C 86 % 0.8 C
3797 28-03-2017 05:20:00 2.9 C 85 % 0.63 C
3798 28-03-2017 05:25:00 2.8 C 85 % 0.54 C
3799 28-03-2017 05:30:00 2.7 C 85 % 0.44 C
3800 28-03-2017 05:35:00 2.6 C 85 % 0.34 C
Sensor: Nr:Datum:Temp:Feuchte:Taupunkt:
Aussen-T/F 3801 28-03-2017 05:40:00 2.6 C 85 % 0.34 C
3802 28-03-2017 05:45:00 2.4 C 86 % 0.3 C
3803 28-03-2017 05:50:00 2.3 C 86 % 0.21 C
3804 28-03-2017 05:55:00 2.3 C 86 % 0.21 C
3805 28-03-2017 06:00:00 2.4 C 87 % 0.46 C
3806 28-03-2017 06:05:00 2.6 C 87 % 0.66 C
3807 28-03-2017 06:10:00 2.7 C 87 % 0.76 C
3808 28-03-2017 06:15:00 2.7 C 87 % 0.76 C
3809 28-03-2017 06:20:00 2.8 C 86 % 0.7 C
3810 28-03-2017 06:25:00 2.6 C 85 % 0.34 C
3811 28-03-2017 06:30:00 2.4 C 85 % 0.14 C
3812 28-03-2017 06:35:00 2.2 C 85 % -0.05 C
3813 28-03-2017 06:40:00 2.1 C 86 % 0.01 C
3814 28-03-2017 06:45:00 1.9 C 87 % -0.03 C
3815 28-03-2017 06:50:00 1.8 C 87 % -0.13 C
3816 28-03-2017 06:55:00 1.8 C 88 % 0.03 C
3817 28-03-2017 07:00:00 1.8 C 88 % 0.03 C
3818 28-03-2017 07:05:00 1.8 C 88 % 0.03 C
3819 28-03-2017 07:10:00 1.7 C 88 % -0.07 C
3820 28-03-2017 07:15:00 1.7 C 89 % 0.09 C
3821 28-03-2017 07:20:00 1.7 C 90 % 0.24 C
3822 28-03-2017 07:25:00 1.7 C 89 % 0.09 C
3823 28-03-2017 07:30:00 1.6 C 89 % -0.01 C
3824 28-03-2017 07:35:00 1.6 C 89 % -0.01 C
3825 28-03-2017 07:40:00 1.6 C 89 % -0.01 C
Sensor: Nr:Datum:Temp:Feuchte:Taupunkt:
Aussen-T/F 3826 28-03-2017 07:45:00 1.6 C 90 % 0.14 C
3827 28-03-2017 07:50:00 1.6 C 90 % 0.14 C
3828 28-03-2017 07:55:00 1.6 C 90 % 0.14 C
3829 28-03-2017 08:00:00 1.6 C 90 % 0.14 C
3830 28-03-2017 08:05:00 1.8 C 91 % 0.49 C
3831 28-03-2017 08:10:00 1.9 C 91 % 0.59 C
3832 28-03-2017 08:15:00 2.1 C 90 % 0.64 C
3833 28-03-2017 08:20:00 2.1 C 90 % 0.64 C
3834 28-03-2017 08:25:00 2.2 C 90 % 0.73 C
3835 28-03-2017 08:30:00 2.2 C 90 % 0.73 C
3836 28-03-2017 08:35:00 2.3 C 90 % 0.83 C
3837 28-03-2017 08:40:00 2.5 C 89 % 0.88 C
3838 28-03-2017 08:45:00 2.6 C 89 % 0.97 C
3839 28-03-2017 08:50:00 2.6 C 89 % 0.97 C
3840 28-03-2017 08:55:00 2.6 C 89 % 0.97 C
3841 28-03-2017 09:00:00 2.7 C 89 % 1.07 C
3842 28-03-2017 09:05:00 2.7 C 90 % 1.23 C
3843 28-03-2017 09:10:00 2.8 C 90 % 1.33 C
3844 28-03-2017 09:15:00 2.9 C 89 % 1.27 C
3845 28-03-2017 09:20:00 3 C 89 % 1.37 C
3846 28-03-2017 09:25:00 3.1 C 89 % 1.47 C
3847 28-03-2017 09:30:00 3.2 C 89 % 1.57 C
3848 28-03-2017 09:35:00 3.3 C 89 % 1.67 C
3849 28-03-2017 09:40:00 3.4 C 89 % 1.76 C
3850 28-03-2017 09:45:00 3.6 C 89 % 1.96 C
Sensor: Nr:Datum:Temp:Feuchte:Taupunkt:
Aussen-T/F 3851 28-03-2017 09:50:00 3.7 C 89 % 2.06 C
3852 28-03-2017 09:55:00 3.8 C 89 % 2.16 C
3853 28-03-2017 10:00:00 4 C 88 % 2.2 C
3854 28-03-2017 10:05:00 4.2 C 87 % 2.23 C
3855 28-03-2017 10:10:00 4.4 C 87 % 2.43 C
3856 28-03-2017 10:15:00 4.7 C 86 % 2.56 C
3857 28-03-2017 10:20:00 4.9 C 86 % 2.76 C
3858 28-03-2017 10:25:00 5.2 C 86 % 3.05 C
3859 28-03-2017 10:30:00 5.4 C 85 % 3.09 C
3860 28-03-2017 10:35:00 5.7 C 84 % 3.21 C
3861 28-03-2017 10:40:00 6.2 C 84 % 3.7 C
3862 28-03-2017 10:45:00 6.5 C 82 % 3.66 C
3863 28-03-2017 10:50:00 6.9 C 81 % 3.87 C
3864 28-03-2017 10:55:00 7.4 C 79 % 4 C
3865 28-03-2017 11:00:00 8 C 78 % 4.41 C
3866 28-03-2017 11:05:00 8.5 C 76 % 4.52 C
3867 28-03-2017 11:10:00 8.8 C 74 % 4.43 C
3868 28-03-2017 11:15:00 9.2 C 73 % 4.62 C
3869 28-03-2017 11:20:00 9.6 C 73 % 5.01 C
3870 28-03-2017 11:25:00 9.8 C 73 % 5.2 C
3871 28-03-2017 11:30:00 10.2 C 73 % 5.58 C
3872 28-03-2017 11:35:00 10.5 C 73 % 5.87 C
3873 28-03-2017 11:40:00 10.8 C 72 % 5.96 C
3874 28-03-2017 11:45:00 11.1 C 72 % 6.25 C
3875 28-03-2017 11:50:00 11.3 C 71 % 6.24 C
Sensor: Nr:Datum:Temp:Feuchte:Taupunkt:
Aussen-T/F 3876 28-03-2017 11:55:00 11.8 C 71 % 6.72 C
3877 28-03-2017 12:00:00 12.2 C 69 % 6.69 C
3878 28-03-2017 12:05:00 12.7 C 71 % 7.58 C
3879 28-03-2017 12:10:00 13.2 C 69 % 7.64 C
3880 28-03-2017 12:15:00 13.8 C 68 % 8 C
3881 28-03-2017 12:20:00 14.4 C 66 % 8.14 C
3882 28-03-2017 12:25:00 14.8 C 65 % 8.29 C
3883 28-03-2017 12:30:00 15.3 C 63 % 8.31 C
3884 28-03-2017 12:35:00 15.7 C 61 % 8.21 C
3885 28-03-2017 12:40:00 16.1 C 60 % 8.34 C
3886 28-03-2017 12:45:00 16.6 C 58 % 8.31 C
3887 28-03-2017 12:50:00 16.9 C 57 % 8.34 C
3888 28-03-2017 12:55:00 17.2 C 56 % 8.35 C
3889 28-03-2017 13:00:00 17.4 C 55 % 8.28 C
3890 28-03-2017 13:05:00 17.7 C 56 % 8.82 C
3891 28-03-2017 13:10:00 17.9 C 54 % 8.47 C
3892 28-03-2017 13:15:00 18.2 C 52 % 8.19 C
3893 28-03-2017 13:20:00 18.3 C 51 % 8 C
3894 28-03-2017 13:25:00 18.5 C 50 % 7.89 C
3895 28-03-2017 13:30:00 18.7 C 50 % 8.08 C
3896 28-03-2017 13:35:00 18.7 C 50 % 8.08 C
3897 28-03-2017 13:40:00 18.8 C 49 % 7.87 C
3898 28-03-2017 13:45:00 18.9 C 49 % 7.96 C
3899 28-03-2017 13:50:00 19.1 C 48 %